Provisional Data: Sugar Run near Sugar Run, PA


Please select a monitoring station.
Please select start date.
Please select start date.

Toggle Unit: C/F Toggle Unit: C/F
Sample Time Temperature (C) Temperature (F) Specific Conductivity (mS/cm) pH   Turbidity (NTU+) DO (mg/L)
1/12/2021 12:00:00 AM 0.01 32.018 0.122 7.3 3.76 14.32
1/12/2021 12:15:00 AM 0.01 32.018 0.122 7.3 3.53 14.33
1/12/2021 12:30:00 AM 0.01 32.018 0.122 7.3 3.16 14.32
1/12/2021 12:45:00 AM 0.01 32.018 0.122 7.3 3.59 14.32
1/12/2021 1:00:00 AM 0.01 32.018 0.122 7.3 3.5 14.33
1/12/2021 1:15:00 AM 0.01 32.018 0.122 7.3 3.83 14.34
1/12/2021 1:30:00 AM 0.01 32.018 0.122 7.31 3.47 14.34
1/12/2021 1:45:00 AM 0.01 32.018 0.122 7.31 3.44 14.33
1/12/2021 2:00:00 AM 0.02 32.036 0.123 7.31 3.25 14.34
1/12/2021 2:15:00 AM 0.01 32.018 0.123 7.31 3.23 14.33
1/12/2021 2:30:00 AM 0.02 32.036 0.123 7.31 3.23 14.33
1/12/2021 2:45:00 AM 0.02 32.036 0.123 7.31 3.28 14.33
1/12/2021 3:00:00 AM 0.02 32.036 0.123 7.31 3.21 14.34
1/12/2021 3:15:00 AM 0.02 32.036 0.123 7.31 3.31 14.34
1/12/2021 3:30:00 AM 0.02 32.036 0.123 7.31 3.34 14.33
1/12/2021 3:45:00 AM 0.01 32.018 0.123 7.31 3.36 14.33
1/12/2021 4:00:00 AM 0.02 32.036 0.123 7.31 3.32 14.33
1/12/2021 4:15:00 AM 0.02 32.036 0.123 7.31 3.29 14.33
1/12/2021 4:30:00 AM 0.02 32.036 0.123 7.31 3.27 14.33
1/12/2021 4:45:00 AM 0.01 32.018 0.123 7.31 3.26 14.33
1/12/2021 5:00:00 AM 0.01 32.018 0.123 7.31 3.46 14.33
1/12/2021 5:15:00 AM 0.01 32.018 0.123 7.31 3.15 14.33
1/12/2021 5:30:00 AM 0.01 32.018 0.123 7.31 3.44 14.34
1/12/2021 5:45:00 AM 0.01 32.018 0.123 7.31 3.31 14.33
1/12/2021 6:00:00 AM 0.01 32.018 0.123 7.32 3.34 14.33
1/12/2021 6:15:00 AM 0.01 32.018 0.123 7.31 3.1 14.34
1/12/2021 6:30:00 AM 0.01 32.018 0.123 7.31 3.54 14.33
1/12/2021 6:45:00 AM 0.01 32.018 0.123 7.31 3.4 14.34
1/12/2021 7:00:00 AM 0.01 32.018 0.123 7.31 3.47 14.33
1/12/2021 7:15:00 AM 0.01 32.018 0.123 7.31 3.53 14.34
1/12/2021 7:30:00 AM 0.01 32.018 0.123 7.31 3.32 14.33
1/12/2021 7:45:00 AM 0.01 32.018 0.123 7.31 3.46 14.33
1/12/2021 8:00:00 AM 0.02 32.036 0.123 7.31 3.41 14.34
1/12/2021 8:15:00 AM 0.02 32.036 0.123 7.31 3.29 14.35
1/12/2021 8:30:00 AM 0.02 32.036 0.123 7.31 3.13 14.35
1/12/2021 8:45:00 AM 0.03 32.054 0.123 7.32 3.11 14.35
1/12/2021 9:00:00 AM 0.03 32.054 0.123 7.32 3.28 14.36
1/12/2021 9:15:00 AM 0.04 32.072 0.123 7.32 3.2 14.35
1/12/2021 9:30:00 AM 0.04 32.072 0.123 7.32 3.31 14.35
1/12/2021 9:45:00 AM 0.04 32.072 0.123 7.32 3.08 14.34
1/12/2021 10:00:00 AM 0.04 32.072 0.123 7.32 3.16 14.34
1/12/2021 10:15:00 AM 0.05 32.09 0.123 7.32 3.6 14.34
1/12/2021 10:30:00 AM 0.07 32.126 0.123 7.33 3.44 14.34
1/12/2021 10:45:00 AM 0.08 32.144 0.123 7.32 3.51 14.33
1/12/2021 11:00:00 AM 0.11 32.198 0.123 7.33 3.6 14.33
1/12/2021 11:15:00 AM 0.15 32.27 0.123 7.33 3.9 14.32
1/12/2021 11:30:00 AM 0.17 32.306 0.123 7.33 3.43 14.32
1/12/2021 11:45:00 AM 0.17 32.306 0.123 7.34 3.47 14.33
1/12/2021 12:00:00 PM 0.18 32.324 0.123 7.33 3.68 14.32
1/12/2021 12:15:00 PM 0.18 32.324 0.123 7.34 3.5 14.33
1/12/2021 12:30:00 PM 0.19 32.342 0.123 7.34 3.63 14.33
1/12/2021 12:45:00 PM 0.21 32.378 0.123 7.34 3.47 14.31
1/12/2021 1:00:00 PM 0.22 32.396 0.122 7.34 3.6 14.32
1/12/2021 1:15:00 PM 0.23 32.414 0.122 7.34 3.64 14.3
1/12/2021 1:30:00 PM 0.26 32.468 0.122 7.34 3.56 14.3
1/12/2021 1:45:00 PM 0.27 32.486 0.122 7.34 4.19 14.3
1/12/2021 2:00:00 PM 0.25 32.45 0.122 7.34 3.96 14.29
1/12/2021 2:15:00 PM 0.24 32.432 0.122 7.35 4.04 14.28
1/12/2021 2:30:00 PM 0.24 32.432 0.122 7.35 3.62 14.28
1/12/2021 2:45:00 PM 0.24 32.432 0.122 7.35 4.05 14.27
1/12/2021 3:00:00 PM 0.23 32.414 0.122 7.35 3.77 14.25
1/12/2021 3:15:00 PM 0.24 32.432 0.122 7.35 4.16 14.24
1/12/2021 3:30:00 PM 0.23 32.414 0.122 7.35 3.81 14.25
1/12/2021 3:45:00 PM 0.23 32.414 0.122 7.35 3.5 14.23
1/12/2021 4:00:00 PM 0.23 32.414 0.122 7.35 3.59 14.22
1/12/2021 4:15:00 PM 0.23 32.414 0.122 7.35 3.53 14.22
1/12/2021 4:30:00 PM 0.22 32.396 0.122 7.35 3.49 14.21
1/12/2021 4:45:00 PM 0.22 32.396 0.122 7.35 3.48 14.23
1/12/2021 5:00:00 PM 0.21 32.378 0.122 7.35 3.48 14.22
1/12/2021 5:15:00 PM 0.21 32.378 0.122 7.35 3.62 14.22
1/12/2021 5:30:00 PM 0.2 32.36 0.122 7.35 3.39 14.21
1/12/2021 5:45:00 PM 0.2 32.36 0.122 7.34 3.31 14.22
1/12/2021 6:00:00 PM 0.2 32.36 0.122 7.34 3.21 14.22
1/12/2021 6:15:00 PM 0.19 32.342 0.122 7.34 3.25 14.21
1/12/2021 6:30:00 PM 0.19 32.342 0.122 7.34 3.35 14.22
1/12/2021 6:45:00 PM 0.18 32.324 0.122 7.34 3.59 14.22
1/12/2021 7:00:00 PM 0.18 32.324 0.122 7.34 3.27 14.22
1/12/2021 7:15:00 PM 0.18 32.324 0.122 7.34 3.34 14.22
1/12/2021 7:30:00 PM 0.17 32.306 0.122 7.34 3.29 14.22
1/12/2021 7:45:00 PM 0.17 32.306 0.122 7.33 3.16 14.23
1/12/2021 8:00:00 PM 0.17 32.306 0.122 7.33 3.31 14.24
1/12/2021 8:15:00 PM 0.17 32.306 0.122 7.33 3.28 14.24
1/12/2021 8:30:00 PM 0.17 32.306 0.122 7.33 3.13 14.23
1/12/2021 8:45:00 PM 0.16 32.288 0.122 7.33 3.16 14.23
1/12/2021 9:00:00 PM 0.16 32.288 0.122 7.33 3.15 14.23
1/12/2021 9:15:00 PM 0.16 32.288 0.122 7.33 3.48 14.23
1/12/2021 9:30:00 PM 0.16 32.288 0.122 7.33 3.36 14.22
1/12/2021 9:45:00 PM 0.16 32.288 0.122 7.33 3.26 14.23
1/12/2021 10:00:00 PM 0.16 32.288 0.122 7.33 3.5 14.23
1/12/2021 10:15:00 PM 0.16 32.288 0.122 7.33 3.64 14.23
1/12/2021 10:30:00 PM 0.15 32.27 0.122 7.34 3.45 14.22
1/12/2021 10:45:00 PM 0.15 32.27 0.122 7.34 3.39 14.22
1/12/2021 11:00:00 PM 0.15 32.27 0.123 7.34 3.28 14.23
1/12/2021 11:15:00 PM 0.15 32.27 0.123 7.33 3.23 14.23
1/12/2021 11:30:00 PM 0.15 32.27 0.123 7.33 3.35 14.23
1/12/2021 11:45:00 PM 0.15 32.27 0.123 7.33 3.09 14.23
1/13/2021 12:00:00 AM 0.14 32.252 0.123 7.33 3.15 14.23
1/13/2021 12:15:00 AM 0.15 32.27 0.123 7.33 3.16 14.23
1/13/2021 12:30:00 AM 0.14 32.252 0.123 7.33 3.02 14.23
1/13/2021 12:45:00 AM 0.14 32.252 0.123 7.33 3.16 14.23
1/13/2021 1:00:00 AM 0.14 32.252 0.123 7.34 3.05 14.23
1/13/2021 1:15:00 AM 0.13 32.234 0.123 7.33 3.14 14.23
1/13/2021 1:30:00 AM 0.13 32.234 0.123 7.34 3.07 14.23
1/13/2021 1:45:00 AM 0.13 32.234 0.123 7.33 3.08 14.22
1/13/2021 2:00:00 AM 0.13 32.234 0.123 7.34 3.03 14.23
1/13/2021 2:15:00 AM 0.13 32.234 0.123 7.33 3.16 14.23
1/13/2021 2:30:00 AM 0.13 32.234 0.123 7.34 3.34 14.23
1/13/2021 2:45:00 AM 0.13 32.234 0.123 7.34 3.14 14.23
1/13/2021 3:00:00 AM 0.13 32.234 0.123 7.34 3 14.23
1/13/2021 3:15:00 AM 0.13 32.234 0.123 7.33 3.12 14.23
1/13/2021 3:30:00 AM 0.12 32.216 0.123 7.34 3.05 14.23
1/13/2021 3:45:00 AM 0.12 32.216 0.123 7.34 2.91 14.23
1/13/2021 4:00:00 AM 0.12 32.216 0.122 7.34 3.26 14.23
1/13/2021 4:15:00 AM 0.12 32.216 0.122 7.34 3.01 14.23
1/13/2021 4:30:00 AM 0.12 32.216 0.122 7.34 3.31 14.24
1/13/2021 4:45:00 AM 0.12 32.216 0.122 7.33 3.1 14.23
1/13/2021 5:00:00 AM 0.12 32.216 0.122 7.34 3.12 14.23
1/13/2021 5:15:00 AM 0.12 32.216 0.122 7.33 2.88 14.23
1/13/2021 5:30:00 AM 0.11 32.198 0.122 7.34 2.98 14.24
1/13/2021 5:45:00 AM 0.11 32.198 0.122 7.34 2.97 14.23
1/13/2021 6:00:00 AM 0.11 32.198 0.122 7.34 2.98 14.23
1/13/2021 6:15:00 AM 0.11 32.198 0.122 7.34 2.98 14.24
1/13/2021 6:30:00 AM 0.11 32.198 0.122 7.33 3.2 14.24
1/13/2021 6:45:00 AM 0.11 32.198 0.122 7.34 3.11 14.24
1/13/2021 7:00:00 AM 0.11 32.198 0.122 7.34 3.03 14.24
1/13/2021 7:15:00 AM 0.11 32.198 0.122 7.34 3.02 14.24
1/13/2021 7:30:00 AM 0.11 32.198 0.122 7.34 2.94 14.24
1/13/2021 7:45:00 AM 0.11 32.198 0.122 7.34 2.96 14.24
1/13/2021 8:00:00 AM 0.11 32.198 0.122 7.34 3.14 14.24
1/13/2021 8:15:00 AM 0.12 32.216 0.122 7.34 2.96 14.24
1/13/2021 8:30:00 AM 0.12 32.216 0.122 7.34 3.26 14.25
1/13/2021 8:45:00 AM 0.13 32.234 0.122 7.34 3.17 14.25
1/13/2021 9:00:00 AM 0.14 32.252 0.122 7.34 2.93 14.25
1/13/2021 9:15:00 AM 0.15 32.27 0.122 7.34 3.07 14.24
1/13/2021 9:30:00 AM 0.16 32.288 0.122 7.34 3 14.25
1/13/2021 9:45:00 AM 0.17 32.306 0.122 7.35 2.95 14.24
1/13/2021 10:00:00 AM 0.2 32.36 0.122 7.35 3.01 14.25
1/13/2021 10:15:00 AM 0.21 32.378 0.122 7.35 3.13 14.25
1/13/2021 10:30:00 AM 0.23 32.414 0.122 7.35 3.09 14.25
1/13/2021 10:45:00 AM 0.25 32.45 0.122 7.35 3 14.24
1/13/2021 11:00:00 AM 0.26 32.468 0.122 7.35 3.01 14.24
1/13/2021 11:15:00 AM 0.27 32.486 0.122 7.36 3.09 14.23
1/13/2021 11:30:00 AM 0.27 32.486 0.122 7.36 3.11 14.23
1/13/2021 11:45:00 AM 0.28 32.504 0.122 7.36 2.95 14.23
1/13/2021 12:00:00 PM 0.29 32.522 0.122 7.36 2.97 14.23
1/13/2021 12:15:00 PM 0.3 32.54 0.122 7.36 3.01 14.21
1/13/2021 12:30:00 PM 0.31 32.558 0.122 7.36 3.17 14.21
1/13/2021 12:45:00 PM 0.32 32.576 0.122 7.36 3.21 14.21
1/13/2021 1:00:00 PM 0.34 32.612 0.122 7.37 2.94 14.2
1/13/2021 1:15:00 PM 0.36 32.648 0.122 7.36 2.85 14.19
1/13/2021 1:30:00 PM 0.37 32.666 0.122 7.36 2.97 14.19
1/13/2021 1:45:00 PM 0.4 32.72 0.122 7.37 3.11 14.18
1/13/2021 2:00:00 PM 0.42 32.756 0.121 7.37 3.04 14.17
1/13/2021 2:15:00 PM 0.43 32.774 0.121 7.37 2.93 14.16
1/13/2021 2:30:00 PM 0.44 32.792 0.121 7.37 2.86 14.15
1/13/2021 2:45:00 PM 0.44 32.792 0.121 7.37 3.16 14.15
1/13/2021 3:00:00 PM 0.45 32.81 0.121 7.37 3.02 14.14
1/13/2021 3:15:00 PM 0.45 32.81 0.121 7.37 3.11 14.13
1/13/2021 3:30:00 PM 0.45 32.81 0.121 7.37 2.86 14.12
1/13/2021 3:45:00 PM 0.45 32.81 0.121 7.37 3.09 14.13
1/13/2021 4:00:00 PM 0.45 32.81 0.121 7.37 2.87 14.12
1/13/2021 4:15:00 PM 0.43 32.774 0.121 7.37 3.11 14.12
1/13/2021 4:30:00 PM 0.43 32.774 0.121 7.37 3.19 14.11
1/13/2021 4:45:00 PM 0.41 32.738 0.121 7.37 3 14.1
1/13/2021 5:00:00 PM 0.39 32.702 0.121 7.37 2.96 14.1
1/13/2021 5:15:00 PM 0.38 32.684 0.121 7.37 3.07 14.1
1/13/2021 5:30:00 PM 0.36 32.648 0.121 7.36 2.86 14.09
1/13/2021 5:45:00 PM 0.34 32.612 0.121 7.36 2.94 14.08
1/13/2021 6:00:00 PM 0.32 32.576 0.121 7.36 2.99 14.08
1/13/2021 6:15:00 PM 0.31 32.558 0.121 7.36 2.86 14.08
1/13/2021 6:30:00 PM 0.29 32.522 0.121 7.35 3.1 14.09
1/13/2021 6:45:00 PM 0.28 32.504 0.121 7.35 2.99 14.09
1/13/2021 7:00:00 PM 0.27 32.486 0.121 7.35 2.93 14.1
1/13/2021 7:15:00 PM 0.26 32.468 0.121 7.35 3.09 14.1
1/13/2021 7:30:00 PM 0.25 32.45 0.121 7.35 2.98 14.1
1/13/2021 7:45:00 PM 0.23 32.414 0.121 7.35 2.96 14.11
1/13/2021 8:00:00 PM 0.23 32.414 0.121 7.35 2.89 14.11
1/13/2021 8:15:00 PM 0.22 32.396 0.121 7.34 2.92 14.12
1/13/2021 8:30:00 PM 0.21 32.378 0.121 7.35 2.98 14.12
1/13/2021 8:45:00 PM 0.2 32.36 0.121 7.34 3.03 14.12
1/13/2021 9:00:00 PM 0.19 32.342 0.121 7.34 2.93 14.13
1/13/2021 9:15:00 PM 0.18 32.324 0.121 7.34 2.84 14.13
1/13/2021 9:30:00 PM 0.18 32.324 0.121 7.34 2.94 14.13
1/13/2021 9:45:00 PM 0.17 32.306 0.121 7.34 2.75 14.13
1/13/2021 10:00:00 PM 0.17 32.306 0.121 7.34 3.01 14.13
1/13/2021 10:15:00 PM 0.17 32.306 0.121 7.34 2.84 14.14
1/13/2021 10:30:00 PM 0.16 32.288 0.121 7.34 2.95 14.14
1/13/2021 10:45:00 PM 0.16 32.288 0.121 7.34 2.86 14.14
1/13/2021 11:00:00 PM 0.16 32.288 0.121 7.34 2.75 14.13
1/13/2021 11:15:00 PM 0.16 32.288 0.121 7.34 2.79 14.14
1/13/2021 11:30:00 PM 0.16 32.288 0.121 7.34 2.94 14.14
1/13/2021 11:45:00 PM 0.16 32.288 0.121 7.34 2.88 14.13
1/14/2021 12:00:00 AM 0.16 32.288 0.121 7.34 2.97 14.13
1/14/2021 12:15:00 AM 0.16 32.288 0.121 7.34 2.9 14.13
1/14/2021 12:30:00 AM 0.17 32.306 0.121 7.34 2.89 14.13
1/14/2021 12:45:00 AM 0.17 32.306 0.121 7.34 2.84 14.13
1/14/2021 1:00:00 AM 0.17 32.306 0.121 7.34 3.01 14.13
1/14/2021 1:15:00 AM 0.17 32.306 0.121 7.34 2.83 14.12
1/14/2021 1:30:00 AM 0.18 32.324 0.121 7.34 2.93 14.12
1/14/2021 1:45:00 AM 0.18 32.324 0.121 7.34 2.83 14.13
1/14/2021 2:00:00 AM 0.18 32.324 0.121 7.34 3.22 14.12
1/14/2021 2:15:00 AM 0.18 32.324 0.121 7.34 3.01 14.12
1/14/2021 2:30:00 AM 0.18 32.324 0.121 7.34 2.97 14.12
1/14/2021 2:45:00 AM 0.19 32.342 0.121 7.34 2.92 14.11
1/14/2021 3:00:00 AM 0.19 32.342 0.121 7.34 2.93 14.11
1/14/2021 3:15:00 AM 0.19 32.342 0.121 7.34 2.78 14.11
1/14/2021 3:30:00 AM 0.19 32.342 0.121 7.34 3.02 14.11
1/14/2021 3:45:00 AM 0.19 32.342 0.121 7.34 2.87 14.11
1/14/2021 4:00:00 AM 0.19 32.342 0.121 7.34 2.91 14.11
1/14/2021 4:15:00 AM 0.19 32.342 0.121 7.34 2.97 14.11
1/14/2021 4:30:00 AM 0.2 32.36 0.121 7.34 2.8 14.11
1/14/2021 4:45:00 AM 0.2 32.36 0.121 7.34 2.92 14.11
1/14/2021 5:00:00 AM 0.21 32.378 0.121 7.34 2.89 14.1
1/14/2021 5:15:00 AM 0.2 32.36 0.121 7.34 2.83 14.1
1/14/2021 5:30:00 AM 0.2 32.36 0.121 7.34 2.86 14.11
1/14/2021 5:45:00 AM 0.21 32.378 0.121 7.34 2.99 14.1
1/14/2021 6:00:00 AM 0.21 32.378 0.121 7.34 2.96 14.1
1/14/2021 6:15:00 AM 0.21 32.378 0.121 7.33 3 14.11
1/14/2021 6:30:00 AM 0.21 32.378 0.121 7.34 3 14.1
1/14/2021 6:45:00 AM 0.22 32.396 0.121 7.34 3.03 14.1
1/14/2021 7:00:00 AM 0.21 32.378 0.121 7.34 3 14.1
1/14/2021 7:15:00 AM 0.22 32.396 0.121 7.34 3.08 14.1
1/14/2021 7:30:00 AM 0.22 32.396 0.121 7.34 2.94 14.11
1/14/2021 7:45:00 AM 0.22 32.396 0.121 7.34 2.91 14.1
1/14/2021 8:00:00 AM 0.23 32.414 0.121 7.33 2.98 14.1
1/14/2021 8:15:00 AM 0.23 32.414 0.121 7.34 2.86 14.1
1/14/2021 8:30:00 AM 0.23 32.414 0.121 7.33 2.94 14.11
1/14/2021 8:45:00 AM 0.25 32.45 0.121 7.34 3 14.11
1/14/2021 9:00:00 AM 0.27 32.486 0.121 7.34 2.89 14.11
1/14/2021 9:15:00 AM 0.28 32.504 0.121 7.34 2.88 14.12
1/14/2021 9:30:00 AM 0.3 32.54 0.121 7.34 2.94 14.13
1/14/2021 9:45:00 AM 0.32 32.576 0.121 7.34 3.43 14.13
1/14/2021 10:00:00 AM 0.35 32.63 0.121 7.34 3.17 14.12
1/14/2021 10:15:00 AM 0.38 32.684 0.121 7.34 2.86 14.12
1/14/2021 10:30:00 AM 0.4 32.72 0.12 7.34 3.3 14.13
1/14/2021 10:45:00 AM 0.41 32.738 0.12 7.35 3.08 14.12
1/14/2021 11:00:00 AM 0.45 32.81 0.12 7.35 3.04 14.12
1/14/2021 11:15:00 AM 0.47 32.846 0.12 7.35 2.95 14.12
1/14/2021 11:30:00 AM 0.5 32.9 0.12 7.35 2.97 14.1
1/14/2021 11:45:00 AM 0.55 32.99 0.12 7.35 3.08 14.09
1/14/2021 12:00:00 PM 0.59 33.062 0.12 7.35 3.14 14.08
1/14/2021 12:15:00 PM 0.62 33.116 0.12 7.36 2.99 14.07
1/14/2021 12:30:00 PM 0.67 33.206 0.12 7.36 2.96 14.06
1/14/2021 12:45:00 PM 0.72 33.296 0.12 7.36 3.11 14.05
1/14/2021 1:00:00 PM 0.78 33.404 0.12 7.36 3.19 14.02
1/14/2021 1:15:00 PM 0.82 33.476 0.12 7.37 3.26 14
1/14/2021 1:30:00 PM 0.83 33.494 0.12 7.37 3.41 13.99
1/14/2021 1:45:00 PM 0.86 33.548 0.12 7.37 3.33 13.98
1/14/2021 2:00:00 PM 0.86 33.548 0.12 7.37 3.66 13.97
1/14/2021 2:15:00 PM 0.86 33.548 0.12 7.38 3.68 13.96
1/14/2021 2:30:00 PM 0.88 33.584 0.12 7.38 3.78 13.94
1/14/2021 2:45:00 PM 0.89 33.602 0.12 7.38 4.07 13.95
1/14/2021 3:00:00 PM 0.87 33.566 0.12 7.38 4.3 13.93
1/14/2021 3:15:00 PM 0.87 33.566 0.12 7.38 3.92 13.95
1/14/2021 3:30:00 PM 0.85 33.53 0.12 7.38 4.1 13.93
1/14/2021 3:45:00 PM 0.86 33.548 0.12 7.37 4.24 13.93
1/14/2021 4:00:00 PM 0.85 33.53 0.12 7.38 4.15 13.91
1/14/2021 4:15:00 PM 0.83 33.494 0.12 7.37 4.26 13.92
1/14/2021 4:30:00 PM 0.82 33.476 0.12 7.37 4.42 13.91
1/14/2021 4:45:00 PM 0.8 33.44 0.12 7.37 4.71 13.93
1/14/2021 5:00:00 PM 0.79 33.422 0.12 7.37 4.5 13.92
1/14/2021 5:15:00 PM 0.77 33.386 0.12 7.36 4.47 13.92
1/14/2021 5:30:00 PM 0.75 33.35 0.12 7.36 4.72 13.92
1/14/2021 5:45:00 PM 0.73 33.314 0.12 7.36 4.66 13.92
1/14/2021 6:00:00 PM 0.72 33.296 0.12 7.35 4.4 13.93
1/14/2021 6:15:00 PM 0.7 33.26 0.12 7.36 4.75 13.93
1/14/2021 6:30:00 PM 0.69 33.242 0.12 7.35 4.6 13.93
1/14/2021 6:45:00 PM 0.68 33.224 0.12 7.35 4.27 13.95
1/14/2021 7:00:00 PM 0.67 33.206 0.12 7.35 4.15 13.95
1/14/2021 7:15:00 PM 0.66 33.188 0.12 7.35 4.26 13.95
1/14/2021 7:30:00 PM 0.65 33.17 0.12 7.35 4.03 13.96
1/14/2021 7:45:00 PM 0.65 33.17 0.12 7.34 4.04 13.95
1/14/2021 8:00:00 PM 0.65 33.17 0.12 7.34 4.07 13.96
1/14/2021 8:15:00 PM 0.65 33.17 0.12 7.34 3.97 13.96
1/14/2021 8:30:00 PM 0.65 33.17 0.12 7.34 4.12 13.96
1/14/2021 8:45:00 PM 0.66 33.188 0.12 7.34 4.38 13.96
1/14/2021 9:00:00 PM 0.66 33.188 0.12 7.34 4 13.96
1/14/2021 9:15:00 PM 0.67 33.206 0.12 7.34 4.5 13.95
1/14/2021 9:30:00 PM 0.68 33.224 0.12 7.33 4.19 13.94
1/14/2021 9:45:00 PM 0.69 33.242 0.12 7.33 4.08 13.95
1/14/2021 10:00:00 PM 0.7 33.26 0.12 7.33 4.21 13.94
1/14/2021 10:15:00 PM 0.71 33.278 0.12 7.33 4.18 13.93
1/14/2021 10:30:00 PM 0.72 33.296 0.12 7.33 4.13 13.93
1/14/2021 10:45:00 PM 0.74 33.332 0.12 7.33 4.17 13.93
1/14/2021 11:00:00 PM 0.76 33.368 0.121 7.33 4.03 13.92
1/14/2021 11:15:00 PM 0.77 33.386 0.121 7.33 3.93 13.92
1/14/2021 11:30:00 PM 0.79 33.422 0.121 7.33 3.91 13.92
1/14/2021 11:45:00 PM 0.79 33.422 0.121 7.33 3.95 13.91
1/15/2021 12:00:00 AM 0.81 33.458 0.121 7.33 4.06 13.91
1/15/2021 12:15:00 AM 0.81 33.458 0.121 7.33 3.92 13.91
1/15/2021 12:30:00 AM 0.82 33.476 0.121 7.33 4.14 13.9
1/15/2021 12:45:00 AM 0.84 33.512 0.121 7.33 3.68 13.89
1/15/2021 1:00:00 AM 0.84 33.512 0.121 7.33 3.59 13.89
1/15/2021 1:15:00 AM 0.85 33.53 0.121 7.33 3.69 13.89
1/15/2021 1:30:00 AM 0.87 33.566 0.121 7.33 3.77 13.88
1/15/2021 1:45:00 AM 0.88 33.584 0.121 7.33 3.73 13.88
1/15/2021 2:00:00 AM 0.89 33.602 0.121 7.33 3.76 13.87
1/15/2021 2:15:00 AM 0.9 33.62 0.121 7.33 3.66 13.87
1/15/2021 2:30:00 AM 0.9 33.62 0.121 7.33 3.77 13.87
1/15/2021 2:45:00 AM 0.89 33.602 0.121 7.33 3.76 13.87
1/15/2021 3:00:00 AM 0.89 33.602 0.121 7.32 3.8 13.87
1/15/2021 3:15:00 AM 0.89 33.602 0.121 7.33 3.7 13.87
1/15/2021 3:30:00 AM 0.89 33.602 0.121 7.33 4.01 13.87
1/15/2021 3:45:00 AM 0.89 33.602 0.121 7.33 4 13.87
1/15/2021 4:00:00 AM 0.88 33.584 0.121 7.33 4.01 13.87
1/15/2021 4:15:00 AM 0.87 33.566 0.121 7.33 3.91 13.87
1/15/2021 4:30:00 AM 0.87 33.566 0.122 7.33 3.95 13.88
1/15/2021 4:45:00 AM 0.85 33.53 0.122 7.33 3.71 13.88
1/15/2021 5:00:00 AM 0.84 33.512 0.122 7.33 3.86 13.88
1/15/2021 5:15:00 AM 0.83 33.494 0.122 7.33 3.71 13.88
1/15/2021 5:30:00 AM 0.82 33.476 0.122 7.33 3.86 13.88
1/15/2021 5:45:00 AM 0.81 33.458 0.122 7.33 4.14 13.89
1/15/2021 6:00:00 AM 0.79 33.422 0.122 7.33 3.67 13.9
1/15/2021 6:15:00 AM 0.77 33.386 0.122 7.33 3.87 13.9
1/15/2021 6:30:00 AM 0.76 33.368 0.122 7.33 3.84 13.91
1/15/2021 6:45:00 AM 0.75 33.35 0.122 7.33 4.08 13.91
1/15/2021 7:00:00 AM 0.74 33.332 0.122 7.33 3.8 13.91
1/15/2021 7:15:00 AM 0.74 33.332 0.122 7.33 3.9 13.91
1/15/2021 7:30:00 AM 0.74 33.332 0.122 7.33 3.94 13.92
1/15/2021 7:45:00 AM 0.75 33.35 0.122 7.33 4.42 13.92
1/15/2021 8:00:00 AM 0.75 33.35 0.122 7.33 3.98 13.92
1/15/2021 8:15:00 AM 0.76 33.368 0.122 7.33 4.24 13.92
1/15/2021 8:30:00 AM 0.78 33.404 0.122 7.34 4.03 13.93
1/15/2021 8:45:00 AM 0.79 33.422 0.122 7.33 4.44 13.93
1/15/2021 9:00:00 AM 0.81 33.458 0.122 7.34 4.34 13.93
1/15/2021 9:15:00 AM 0.83 33.494 0.122 7.34 5.03 13.94
1/15/2021 9:30:00 AM 0.86 33.548 0.122 7.34 5.15 13.93
1/15/2021 9:45:00 AM 0.89 33.602 0.122 7.34 5.02 13.93
1/15/2021 10:00:00 AM 0.94 33.692 0.122 7.34 5.02 13.93
1/15/2021 10:15:00 AM 0.98 33.764 0.122 7.34 4.8 13.92
1/15/2021 10:30:00 AM 1.04 33.872 0.122 7.35 5.06 13.92
1/15/2021 10:45:00 AM 1.08 33.944 0.122 7.35 4.96 13.91
1/15/2021 11:00:00 AM 1.14 34.052 0.122 7.35 5.01 13.9
1/15/2021 11:15:00 AM 1.21 34.178 0.122 7.35 5.35 13.88
1/15/2021 11:30:00 AM 1.27 34.286 0.122 7.36 4.77 13.86
1/15/2021 11:45:00 AM 1.31 34.358 0.122 7.36 4.73 13.84
1/15/2021 12:00:00 PM 1.35 34.43 0.122 7.36 5.14 13.82
1/15/2021 12:15:00 PM 1.38 34.484 0.122 7.37 4.81 13.8
1/15/2021 12:30:00 PM 1.41 34.538 0.122 7.37 4.61 13.79
1/15/2021 12:45:00 PM 1.45 34.61 0.122 7.37 4.94 13.78
1/15/2021 1:00:00 PM 1.48 34.664 0.122 7.37 5.07 13.76
1/15/2021 1:15:00 PM 1.52 34.736 0.122 7.37 4.85 13.75
1/15/2021 1:30:00 PM 1.55 34.79 0.122 7.37 5.19 13.73
1/15/2021 1:45:00 PM 1.59 34.862 0.122 7.37 4.92 13.72
1/15/2021 2:00:00 PM 1.63 34.934 0.122 7.37 4.79 13.7
1/15/2021 2:15:00 PM 1.64 34.952 0.122 7.38 5.19 13.69
1/15/2021 2:30:00 PM 1.64 34.952 0.122 7.38 4.8 13.68
1/15/2021 2:45:00 PM 1.65 34.97 0.122 7.38 4.69 13.66
1/15/2021 3:00:00 PM 1.65 34.97 0.122 7.38 4.93 13.66
1/15/2021 3:15:00 PM 1.65 34.97 0.121 7.37 4.99 13.65
1/15/2021 3:30:00 PM 1.65 34.97 0.121 7.37 5.5 13.64
1/15/2021 3:45:00 PM 1.64 34.952 0.121 7.37 4.57 13.63
1/15/2021 4:00:00 PM 1.64 34.952 0.121 7.37 5.03 13.63
1/15/2021 4:15:00 PM 1.63 34.934 0.121 7.37 4.93 13.62
1/15/2021 4:30:00 PM 1.62 34.916 0.121 7.36 4.74 13.62
1/15/2021 4:45:00 PM 1.62 34.916 0.121 7.37 4.64 13.62
1/15/2021 5:00:00 PM 1.61 34.898 0.121 7.36 4.69 13.6
1/15/2021 5:15:00 PM 1.61 34.898 0.121 7.36 5.19 13.6
1/15/2021 5:30:00 PM 1.61 34.898 0.12 7.36 4.72 13.6
1/15/2021 5:45:00 PM 1.6 34.88 0.12 7.36 4.92 13.6
1/15/2021 6:00:00 PM 1.6 34.88 0.12 7.36 4.93 13.59
1/15/2021 6:15:00 PM 1.61 34.898 0.12 7.36 5.16 13.59
1/15/2021 6:30:00 PM 1.61 34.898 0.12 7.36 5.6 13.59
1/15/2021 6:45:00 PM 1.62 34.916 0.12 7.35 5.58 13.58
1/15/2021 7:00:00 PM 1.63 34.934 0.12 7.35 5.41 13.59
1/15/2021 7:15:00 PM 1.64 34.952 0.12 7.35 5.55 13.58
1/15/2021 7:30:00 PM 1.65 34.97 0.12 7.35 5.93 13.57
1/15/2021 7:45:00 PM 1.67 35.006 0.119 7.35 6.02 13.57
1/15/2021 8:00:00 PM 1.67 35.006 0.119 7.35 5.75 13.57
1/15/2021 8:15:00 PM 1.68 35.024 0.119 7.35 6.62 13.56
1/15/2021 8:30:00 PM 1.68 35.024 0.119 7.35 6.47 13.56
1/15/2021 8:45:00 PM 1.69 35.042 0.119 7.35 6.44 13.55
1/15/2021 9:00:00 PM 1.68 35.024 0.118 7.35 6.96 13.55
1/15/2021 9:15:00 PM 1.69 35.042 0.118 7.35 7.05 13.55
1/15/2021 9:30:00 PM 1.69 35.042 0.118 7.35 8.12 13.55
1/15/2021 9:45:00 PM 1.68 35.024 0.118 7.34 9.28 13.55
1/15/2021 10:00:00 PM 1.68 35.024 0.117 7.34 13.13 13.55
1/15/2021 10:15:00 PM 1.68 35.024 0.117 7.34 18.94 13.55
1/15/2021 10:30:00 PM 1.68 35.024 0.116 7.34 18.8 13.56
1/15/2021 10:45:00 PM 1.67 35.006 0.115 7.34 24.59 13.55
1/15/2021 11:00:00 PM 1.67 35.006 0.114 7.33 39.56 13.56
1/15/2021 11:15:00 PM 1.66 34.988 0.113 7.33 70.88 13.56
1/15/2021 11:30:00 PM 1.65 34.97 0.111 7.32 92.09 13.56
1/15/2021 11:45:00 PM 1.64 34.952 0.108 7.32 57.08 13.57
1/16/2021 12:00:00 AM 1.63 34.934 0.106 7.31 102.31 13.57
1/16/2021 12:15:00 AM 1.62 34.916 0.104 7.3 104.53 13.57
1/16/2021 12:30:00 AM 1.61 34.898 0.103 7.28 56.52 13.58
1/16/2021 12:45:00 AM 1.6 34.88 0.101 7.28 75.19 13.58
1/16/2021 1:00:00 AM 1.6 34.88 0.1 7.26 51.6 13.58
1/16/2021 1:15:00 AM 1.61 34.898 0.1 7.24 48.53 13.57
1/16/2021 1:30:00 AM 1.61 34.898 0.1 7.23 43.51 13.57
1/16/2021 1:45:00 AM 1.61 34.898 0.102 7.23 34.58 13.57
1/16/2021 2:00:00 AM 1.62 34.916 0.103 7.21 52.37 13.57
1/16/2021 2:15:00 AM 1.62 34.916 0.105 7.21 40.21 13.56
1/16/2021 2:30:00 AM 1.63 34.934 0.105 7.2 42.28 13.55
1/16/2021 2:45:00 AM 1.63 34.934 0.106 7.19 53.65 13.54
1/16/2021 3:00:00 AM 1.63 34.934 0.107 7.18 67.73 13.53
1/16/2021 3:15:00 AM 1.61 34.898 0.108 7.17 48.69 13.51
1/16/2021 3:30:00 AM 1.55 34.79 0.109 7.16 46.47 13.5
1/16/2021 3:45:00 AM 1.52 34.736 0.11 7.14 52.2 13.5
1/16/2021 4:00:00 AM 1.52 34.736 0.111 7.13 54.51 13.49
1/16/2021 4:15:00 AM 1.52 34.736 0.11 7.12 85.83 13.48
1/16/2021 4:30:00 AM 1.49 34.682 0.108 7.11 98.65 13.49
1/16/2021 4:45:00 AM 1.44 34.592 0.105 7.11 112.83 13.53
1/16/2021 5:00:00 AM 1.38 34.484 0.103 7.11 112.04 13.56
1/16/2021 5:15:00 AM 1.32 34.376 0.099 7.09 147.28 13.59
1/16/2021 5:30:00 AM 1.26 34.268 0.096 7.07 156.52 13.62
1/16/2021 5:45:00 AM 1.2 34.16 0.094 7.06 172.63 13.64
1/16/2021 6:00:00 AM 1.15 34.07 0.092 7.04 186.62 13.66
1/16/2021 6:15:00 AM 1.11 33.998 0.09 7.02 158.06 13.68
1/16/2021 6:30:00 AM 1.08 33.944 0.088 7.01 199.52 13.69
1/16/2021 6:45:00 AM 1.06 33.908 0.086 7 128.83 13.7
1/16/2021 7:00:00 AM 1.04 33.872 0.085 6.99 138.56 13.71
1/16/2021 7:15:00 AM 1.02 33.836 0.084 6.99 123.71 13.72
1/16/2021 7:30:00 AM 1 33.8 0.083 6.97 107.06 13.72
1/16/2021 7:45:00 AM 0.99 33.782 0.082 6.97 121.04 13.72
1/16/2021 8:00:00 AM 0.98 33.764 0.081 6.96 100.24 13.72
1/16/2021 8:15:00 AM 0.98 33.764 0.081 6.95 112.25 13.73
1/16/2021 8:30:00 AM 0.97 33.746 0.08 6.94 87.1 13.73
1/16/2021 8:45:00 AM 0.97 33.746 0.079 6.94 82.78 13.72
1/16/2021 9:00:00 AM 0.97 33.746 0.079 6.93 86.35 13.73
1/16/2021 9:15:00 AM 0.97 33.746 0.079 6.93 90.5 13.72
1/16/2021 9:30:00 AM 0.96 33.728 0.079 6.92 83.01 13.72
1/16/2021 9:45:00 AM 0.96 33.728 0.079 6.92 71.19 13.72
1/16/2021 10:00:00 AM 0.96 33.728 0.08 6.92 79.37 13.72
1/16/2021 10:15:00 AM 0.97 33.746 0.08 6.92 70.67 13.72
1/16/2021 10:30:00 AM 0.98 33.764 0.08 6.92 69.46 13.71
1/16/2021 10:45:00 AM 0.99 33.782 0.079 6.91 53.85 13.71
1/16/2021 11:00:00 AM 1.02 33.836 0.079 6.92 52.09 13.7
1/16/2021 11:15:00 AM 1.05 33.89 0.079 6.91 82.03 13.69
1/16/2021 11:30:00 AM 1.08 33.944 0.079 6.92 47.74 13.69
1/16/2021 11:45:00 AM 1.1 33.98 0.079 6.91 55.66 13.67
1/16/2021 12:00:00 PM 1.13 34.034 0.079 6.92 43.96 13.67
1/16/2021 12:15:00 PM 1.14 34.052 0.079 6.92 42.38 13.66
1/16/2021 12:30:00 PM 1.17 34.106 0.079 6.92 44.91 13.65
1/16/2021 12:45:00 PM 1.22 34.196 0.079 6.91 43.52 13.64
1/16/2021 1:00:00 PM 1.26 34.268 0.08 6.92 43.29 13.62
1/16/2021 1:15:00 PM 1.29 34.322 0.08 6.92 32.44 13.61
1/16/2021 1:30:00 PM 1.32 34.376 0.08 6.92 44.15 13.59
1/16/2021 1:45:00 PM 1.36 34.448 0.08 6.92 44.47 13.59
1/16/2021 2:00:00 PM 1.39 34.502 0.08 6.93 35.52 13.58
1/16/2021 2:15:00 PM 1.47 34.646 0.08 6.94 39.29 13.56
1/16/2021 2:30:00 PM 1.49 34.682 0.08 6.93 36.13 13.55
1/16/2021 2:45:00 PM 1.51 34.718 0.08 6.94 29.17 13.53
1/16/2021 3:00:00 PM 1.55 34.79 0.08 6.94 32.73 13.52
1/16/2021 3:15:00 PM 1.57 34.826 0.081 6.95 33.19 13.51
1/16/2021 3:30:00 PM 1.57 34.826 0.081 6.95 24.64 13.51
1/16/2021 3:45:00 PM 1.58 34.844 0.081 6.96 26.07 13.5
1/16/2021 4:00:00 PM 1.6 34.88 0.081 6.95 28.36 13.49
1/16/2021 4:15:00 PM 1.62 34.916 0.081 6.96 30.62 13.48
1/16/2021 4:30:00 PM 1.64 34.952 0.081 6.96 28.71 13.48
1/16/2021 4:45:00 PM 1.66 34.988 0.082 6.97 28.95 13.47
1/16/2021 5:00:00 PM 1.68 35.024 0.082 6.98 29.8 13.46
1/16/2021 5:15:00 PM 1.68 35.024 0.082 6.97 26.97 13.45
1/16/2021 5:30:00 PM 1.69 35.042 0.082 6.97 36.33 13.45
1/16/2021 5:45:00 PM 1.7 35.06 0.082 6.98 29.23 13.44
1/16/2021 6:00:00 PM 1.72 35.096 0.082 6.99 51.77 13.44
1/16/2021 6:15:00 PM 1.73 35.114 0.083 6.99 37.08 13.43
1/16/2021 6:30:00 PM 1.74 35.132 0.083 6.99 30.05 13.43
1/16/2021 6:45:00 PM 1.75 35.15 0.083 7 31.62 13.43
1/16/2021 7:00:00 PM 1.75 35.15 0.083 7.01 27.71 13.43
1/16/2021 7:15:00 PM 1.76 35.168 0.083 7 26.15 13.43
1/16/2021 7:30:00 PM 1.77 35.186 0.083 7.01 24.26 13.41
1/16/2021 7:45:00 PM 1.78 35.204 0.084 7.02 23.15 13.42
1/16/2021 8:00:00 PM 1.78 35.204 0.084 7.02 29.25 13.4
1/16/2021 8:15:00 PM 1.79 35.222 0.084 7.03 22.71 13.41
1/16/2021 8:30:00 PM 1.79 35.222 0.084 7.02 25.39 13.4
1/16/2021 8:45:00 PM 1.79 35.222 0.084 7.03 23.56 13.4
1/16/2021 9:00:00 PM 1.79 35.222 0.084 7.04 31.18 13.4
1/16/2021 9:15:00 PM 1.79 35.222 0.085 7.04 26.23 13.39
1/16/2021 9:30:00 PM 1.79 35.222 0.085 7.04 20.73 13.39
1/16/2021 9:45:00 PM 1.78 35.204 0.085 7.04 22.12 13.39
1/16/2021 10:00:00 PM 1.77 35.186 0.085 7.04 20.06 13.39
1/16/2021 10:15:00 PM 1.76 35.168 0.085 7.05 19.92 13.4
1/16/2021 10:30:00 PM 1.75 35.15 0.085 7.05 21.53 13.4
1/16/2021 10:45:00 PM 1.73 35.114 0.085 7.05 23.67 13.4
1/16/2021 11:00:00 PM 1.72 35.096 0.085 7.05 30.89 13.41
1/16/2021 11:15:00 PM 1.7 35.06 0.086 7.05 24 13.42
1/16/2021 11:30:00 PM 1.68 35.024 0.086 7.05 22.86 13.42
1/16/2021 11:45:00 PM 1.66 34.988 0.086 7.05 19.7 13.43
1/17/2021 12:00:00 AM 1.63 34.934 0.086 7.06 16.53 13.44
1/17/2021 12:15:00 AM 1.61 34.898 0.086 7.06 18.94 13.45
1/17/2021 12:30:00 AM 1.59 34.862 0.086 7.05 23.24 13.45
1/17/2021 12:45:00 AM 1.56 34.808 0.086 7.06 19.5 13.46
1/17/2021 1:00:00 AM 1.54 34.772 0.086 7.05 20.58 13.47
1/17/2021 1:15:00 AM 1.52 34.736 0.086 7.06 17.81 13.48
1/17/2021 1:30:00 AM 1.51 34.718 0.086 7.07 18.64 13.49
1/17/2021 1:45:00 AM 1.49 34.682 0.087 7.07 14.69 13.5
1/17/2021 2:00:00 AM 1.47 34.646 0.087 7.07 21.35 13.51
1/17/2021 2:15:00 AM 1.45 34.61 0.087 7.07 24.14 13.52
1/17/2021 2:30:00 AM 1.43 34.574 0.087 7.07 18.15 13.53
1/17/2021 2:45:00 AM 1.42 34.556 0.087 7.07 16.38 13.53
1/17/2021 3:00:00 AM 1.4 34.52 0.087 7.07 16.97 13.54
1/17/2021 3:15:00 AM 1.38 34.484 0.087 7.06 17.39 13.55
1/17/2021 3:30:00 AM 1.36 34.448 0.087 7.06 17.75 13.56
1/17/2021 3:45:00 AM 1.34 34.412 0.087 7.07 17.5 13.57
1/17/2021 4:00:00 AM 1.32 34.376 0.087 7.07 16.76 13.58
1/17/2021 4:15:00 AM 1.29 34.322 0.087 7.07 14.95 13.59
1/17/2021 4:30:00 AM 1.26 34.268 0.087 7.07 17.09 13.6
1/17/2021 4:45:00 AM 1.23 34.214 0.087 7.07 15.35 13.62
1/17/2021 5:00:00 AM 1.21 34.178 0.087 7.06 16.08 13.63
1/17/2021 5:15:00 AM 1.18 34.124 0.087 7.07 17.11 13.64
1/17/2021 5:30:00 AM 1.16 34.088 0.087 7.07 16.16 13.65
1/17/2021 5:45:00 AM 1.15 34.07 0.087 7.07 15.11 13.66
1/17/2021 6:00:00 AM 1.13 34.034 0.087 7.07 15.22 13.67
1/17/2021 6:15:00 AM 1.13 34.034 0.087 7.07 14.67 13.68
1/17/2021 6:30:00 AM 1.12 34.016 0.087 7.07 14.82 13.68
1/17/2021 6:45:00 AM 1.1 33.98 0.087 7.08 12.93 13.69
1/17/2021 7:00:00 AM 1.1 33.98 0.087 7.07 15.48 13.7
1/17/2021 7:15:00 AM 1.09 33.962 0.087 7.08 14.25 13.7
1/17/2021 7:30:00 AM 1.08 33.944 0.088 7.08 14.1 13.7
1/17/2021 7:45:00 AM 1.07 33.926 0.088 7.08 13.9 13.71
1/17/2021 8:00:00 AM 1.05 33.89 0.088 7.09 18.65 13.72
1/17/2021 8:15:00 AM 1.05 33.89 0.088 7.08 14.11 13.72
1/17/2021 8:30:00 AM 1.05 33.89 0.088 7.08 12.9 13.73
1/17/2021 8:45:00 AM 1.05 33.89 0.088 7.09 13.63 13.74
1/17/2021 9:00:00 AM 1.06 33.908 0.088 7.09 15.21 13.74
1/17/2021 9:15:00 AM 1.08 33.944 0.088 7.09 13.7 13.75
1/17/2021 9:30:00 AM 1.08 33.944 0.088 7.09 13.55 13.75
1/17/2021 9:45:00 AM 1.09 33.962 0.088 7.09 13.37 13.76
1/17/2021 10:00:00 AM 1.11 33.998 0.088 7.09 13.47 13.76
1/17/2021 10:15:00 AM 1.12 34.016 0.088 7.1 13.38 13.76
1/17/2021 10:30:00 AM 1.12 34.016 0.088 7.1 13.31 13.76
1/17/2021 10:45:00 AM 1.14 34.052 0.088 7.1 12.87 13.76
1/17/2021 11:00:00 AM 1.16 34.088 0.088 7.1 12.38 13.75
1/17/2021 11:15:00 AM 1.22 34.196 0.088 7.1 12.37 13.74
1/17/2021 11:30:00 AM 1.26 34.268 0.088 7.1 12.08 13.74
1/17/2021 11:45:00 AM 1.34 34.412 0.088 7.1 12.22 13.72
1/17/2021 12:00:00 PM 1.34 34.412 0.088 7.11 12.11 13.71
1/17/2021 12:15:00 PM 1.36 34.448 0.088 7.11 11.67 13.71
1/17/2021 12:30:00 PM 1.39 34.502 0.088 7.11 11.63 13.7
1/17/2021 12:45:00 PM 1.45 34.61 0.088 7.11 11.84 13.68
1/17/2021 1:00:00 PM 1.48 34.664 0.088 7.12 11.73 13.67
1/17/2021 1:15:00 PM 1.5 34.7 0.088 7.12 11.46 13.67
1/17/2021 1:30:00 PM 1.51 34.718 0.088 7.13 11.79 13.67
1/17/2021 1:45:00 PM 1.51 34.718 0.088 7.13 11.55 13.66
1/17/2021 2:00:00 PM 1.52 34.736 0.088 7.12 12.62 13.66
1/17/2021 2:15:00 PM 1.53 34.754 0.088 7.12 10.68 13.65
1/17/2021 2:30:00 PM 1.54 34.772 0.089 7.12 11.25 13.65
1/17/2021 2:45:00 PM 1.56 34.808 0.089 7.13 11.46 13.64
1/17/2021 3:00:00 PM 1.57 34.826 0.089 7.12 10.88 13.63
1/17/2021 3:15:00 PM 1.58 34.844 0.089 7.13 10.83 13.63
1/17/2021 3:30:00 PM 1.59 34.862 0.089 7.13 10.66 13.63
1/17/2021 3:45:00 PM 1.58 34.844 0.089 7.13 10.98 13.63
1/17/2021 4:00:00 PM 1.59 34.862 0.089 7.13 10.88 13.61
1/17/2021 4:15:00 PM 1.59 34.862 0.089 7.13 11.04 13.61
1/17/2021 4:30:00 PM 1.6 34.88 0.089 7.13 10.58 13.61
1/17/2021 4:45:00 PM 1.61 34.898 0.089 7.12 11.28 13.6
1/17/2021 5:00:00 PM 1.61 34.898 0.089 7.13 10.47 13.6
1/17/2021 5:15:00 PM 1.61 34.898 0.089 7.12 10.56 13.59
1/17/2021 5:30:00 PM 1.62 34.916 0.089 7.13 10.4 13.58
1/17/2021 5:45:00 PM 1.62 34.916 0.089 7.12 10.75 13.58
1/17/2021 6:00:00 PM 1.63 34.934 0.089 7.12 10.25 13.58
1/17/2021 6:15:00 PM 1.64 34.952 0.089 7.12 10.67 13.57
1/17/2021 6:30:00 PM 1.65 34.97 0.089 7.12 10.41 13.57
1/17/2021 6:45:00 PM 1.66 34.988 0.089 7.12 10.72 13.56
1/17/2021 7:00:00 PM 1.67 35.006 0.089 7.12 10.49 13.56
1/17/2021 7:15:00 PM 1.68 35.024 0.089 7.12 10.08 13.55
1/17/2021 7:30:00 PM 1.69 35.042 0.089 7.12 10.08 13.55
1/17/2021 7:45:00 PM 1.69 35.042 0.089 7.12 9.84 13.55
1/17/2021 8:00:00 PM 1.7 35.06 0.089 7.12 10.08 13.54
1/17/2021 8:15:00 PM 1.71 35.078 0.089 7.13 9.67 13.54
1/17/2021 8:30:00 PM 1.71 35.078 0.089 7.12 9.98 13.53
1/17/2021 8:45:00 PM 1.72 35.096 0.089 7.13 10.1 13.53
1/17/2021 9:00:00 PM 1.73 35.114 0.089 7.12 9.63 13.53
1/17/2021 9:15:00 PM 1.73 35.114 0.089 7.13 9.36 13.52
1/17/2021 9:30:00 PM 1.74 35.132 0.089 7.13 9.61 13.52
1/17/2021 9:45:00 PM 1.74 35.132 0.089 7.12 9.59 13.52
1/17/2021 10:00:00 PM 1.75 35.15 0.089 7.13 9.27 13.51
1/17/2021 10:15:00 PM 1.76 35.168 0.089 7.13 9.68 13.5
1/17/2021 10:30:00 PM 1.77 35.186 0.089 7.14 9.4 13.49
1/17/2021 10:45:00 PM 1.78 35.204 0.089 7.13 9.63 13.5
1/17/2021 11:00:00 PM 1.79 35.222 0.09 7.13 9.42 13.49
1/17/2021 11:15:00 PM 1.8 35.24 0.09 7.13 9.59 13.49
1/17/2021 11:30:00 PM 1.81 35.258 0.09 7.13 9.53 13.47
1/17/2021 11:45:00 PM 1.81 35.258 0.09 7.14 9.48 13.48
1/18/2021 12:00:00 AM 1.81 35.258 0.09 7.13 9.44 13.47
1/18/2021 12:15:00 AM 1.81 35.258 0.09 7.14 9.66 13.48
1/18/2021 12:30:00 AM 1.81 35.258 0.09 7.13 9.98 13.47
1/18/2021 12:45:00 AM 1.79 35.222 0.09 7.13 9.57 13.47
1/18/2021 1:00:00 AM 1.78 35.204 0.09 7.13 9.5 13.47
1/18/2021 1:15:00 AM 1.76 35.168 0.09 7.13 9.52 13.48
1/18/2021 1:30:00 AM 1.74 35.132 0.09 7.13 9.3 13.49
1/18/2021 1:45:00 AM 1.72 35.096 0.09 7.13 8.97 13.49
1/18/2021 2:00:00 AM 1.71 35.078 0.09 7.13 9.19 13.49
1/18/2021 2:15:00 AM 1.69 35.042 0.09 7.14 9.14 13.5
1/18/2021 2:30:00 AM 1.67 35.006 0.09 7.13 9.43 13.5
1/18/2021 2:45:00 AM 1.67 35.006 0.09 7.13 9.26 13.51
1/18/2021 3:00:00 AM 1.65 34.97 0.09 7.14 9.3 13.51
1/18/2021 3:15:00 AM 1.64 34.952 0.09 7.13 9.06 13.52
1/18/2021 3:30:00 AM 1.62 34.916 0.09 7.14 9.23 13.52
1/18/2021 3:45:00 AM 1.61 34.898 0.09 7.14 8.86 13.52
1/18/2021 4:00:00 AM 1.6 34.88 0.09 7.13 8.87 13.53
1/18/2021 4:15:00 AM 1.59 34.862 0.09 7.14 9.09 13.53
1/18/2021 4:30:00 AM 1.58 34.844 0.09 7.14 9.33 13.54
1/18/2021 4:45:00 AM 1.57 34.826 0.09 7.13 8.98 13.54
1/18/2021 5:00:00 AM 1.55 34.79 0.09 7.13 9.59 13.54
1/18/2021 5:15:00 AM 1.54 34.772 0.091 7.14 9.09 13.55
1/18/2021 5:30:00 AM 1.53 34.754 0.091 7.13 8.61 13.56
1/18/2021 5:45:00 AM 1.51 34.718 0.091 7.14 8.62 13.56
1/18/2021 6:00:00 AM 1.5 34.7 0.091 7.14 8.86 13.57
1/18/2021 6:15:00 AM 1.49 34.682 0.091 7.14 8.86 13.57
1/18/2021 6:30:00 AM 1.47 34.646 0.091 7.14 8.76 13.58
1/18/2021 6:45:00 AM 1.46 34.628 0.091 7.14 8.63 13.58
1/18/2021 7:00:00 AM 1.44 34.592 0.091 7.14 8.69 13.58
1/18/2021 7:15:00 AM 1.42 34.556 0.091 7.14 8.33 13.6
1/18/2021 7:30:00 AM 1.41 34.538 0.091 7.14 8.3 13.61
1/18/2021 7:45:00 AM 1.4 34.52 0.091 7.13 8.38 13.61
1/18/2021 8:00:00 AM 1.39 34.502 0.091 7.13 8.15 13.62
1/18/2021 8:15:00 AM 1.38 34.484 0.091 7.14 8.24 13.62
1/18/2021 8:30:00 AM 1.38 34.484 0.091 7.13 8.59 13.64
1/18/2021 8:45:00 AM 1.39 34.502 0.091 7.13 8.78 13.64
1/18/2021 9:00:00 AM 1.41 34.538 0.091 7.15 8.12 13.65
1/18/2021 9:15:00 AM 1.42 34.556 0.091 7.15 8.01 13.65
1/18/2021 9:30:00 AM 1.43 34.574 0.091 7.15 7.93 13.66
1/18/2021 9:45:00 AM 1.44 34.592 0.091 7.15 7.84 13.66
1/18/2021 10:00:00 AM 1.48 34.664 0.091 7.15 7.81 13.66
1/18/2021 10:15:00 AM 1.51 34.718 0.091 7.15 7.86 13.67
1/18/2021 10:30:00 AM 1.53 34.754 0.091 7.16 7.72 13.66
1/18/2021 10:45:00 AM 1.55 34.79 0.091 7.15 7.85 13.66
1/18/2021 11:00:00 AM 1.6 34.88 0.091 7.16 8.38 13.66
1/18/2021 11:15:00 AM 1.62 34.916 0.091 7.16 8.29 13.65
1/18/2021 11:30:00 AM 1.63 34.934 0.091 7.17 7.94 13.65
1/18/2021 11:45:00 AM 1.65 34.97 0.091 7.17 7.8 13.65
1/18/2021 12:00:00 PM 1.66 34.988 0.091 7.17 7.98 13.65
1/18/2021 12:15:00 PM 1.69 35.042 0.091 7.17 7.65 13.63
1/18/2021 12:30:00 PM 1.77 35.186 0.092 7.17 7.68 13.63
1/18/2021 12:45:00 PM 1.76 35.168 0.092 7.17 7.64 13.62
1/18/2021 1:00:00 PM 1.78 35.204 0.092 7.17 7.72 13.61
1/18/2021 1:15:00 PM 1.78 35.204 0.092 7.18 7.61 13.62
1/18/2021 1:30:00 PM 1.72 35.096 0.092 7.18 7.66 13.61
1/18/2021 1:45:00 PM 1.64 34.952 0.092 7.18 7.09 13.61
1/18/2021 2:00:00 PM 1.66 34.988 0.092 7.18 7.24 13.61
1/18/2021 2:15:00 PM 1.69 35.042 0.092 7.18 7.48 13.62
1/18/2021 2:30:00 PM 1.7 35.06 0.092 7.18 7.67 13.62
1/18/2021 2:45:00 PM 1.71 35.078 0.092 7.18 7.26 13.62
1/18/2021 3:00:00 PM 1.71 35.078 0.092 7.18 7.68 13.62
1/18/2021 3:15:00 PM 1.71 35.078 0.092 7.18 7.11 13.62
1/18/2021 3:30:00 PM 1.72 35.096 0.092 7.18 7.38 13.62
1/18/2021 3:45:00 PM 1.73 35.114 0.092 7.18 7.11 13.62
1/18/2021 4:00:00 PM 1.74 35.132 0.092 7.18 7.14 13.62
1/18/2021 4:15:00 PM 1.75 35.15 0.092 7.18 7.14 13.61
1/18/2021 4:30:00 PM 1.74 35.132 0.092 7.18 7.06 13.61
1/18/2021 4:45:00 PM 1.74 35.132 0.092 7.18 6.78 13.6
1/18/2021 5:00:00 PM 1.74 35.132 0.092 7.18 6.92 13.6
1/18/2021 5:15:00 PM 1.68 35.024 0.092 7.18 7.16 13.59
1/18/2021 5:30:00 PM 1.67 35.006 0.092 7.18 6.94 13.6
1/18/2021 5:45:00 PM 1.64 34.952 0.092 7.18 6.91 13.61
1/18/2021 6:00:00 PM 1.65 34.97 0.092 7.18 6.83 13.61
1/18/2021 6:15:00 PM 1.63 34.934 0.092 7.17 6.8 13.62
1/18/2021 6:30:00 PM 1.64 34.952 0.092 7.18 6.78 13.62
1/18/2021 6:45:00 PM 1.65 34.97 0.092 7.18 7.43 13.62
1/18/2021 7:00:00 PM 1.66 34.988 0.092 7.18 6.87 13.62
1/18/2021 7:15:00 PM 1.67 35.006 0.092 7.17 6.89 13.62
1/18/2021 7:30:00 PM 1.67 35.006 0.092 7.17 7.28 13.62
1/18/2021 7:45:00 PM 1.68 35.024 0.092 7.17 6.7 13.61
1/18/2021 8:00:00 PM 1.7 35.06 0.092 7.17 7.11 13.61
1/18/2021 8:15:00 PM 1.71 35.078 0.092 7.17 6.9 13.61
1/18/2021 8:30:00 PM 1.72 35.096 0.092 7.17 6.69 13.61
1/18/2021 8:45:00 PM 1.72 35.096 0.092 7.17 6.74 13.61
1/18/2021 9:00:00 PM 1.71 35.078 0.092 7.17 6.79 13.61
1/18/2021 9:15:00 PM 1.7 35.06 0.092 7.18 6.51 13.61
1/18/2021 9:30:00 PM 1.7 35.06 0.092 7.18 6.62 13.61
1/18/2021 9:45:00 PM 1.69 35.042 0.092 7.17 7.13 13.61
1/18/2021 10:00:00 PM 1.68 35.024 0.092 7.17 6.9 13.62
1/18/2021 10:15:00 PM 1.67 35.006 0.092 7.17 6.57 13.62
1/18/2021 10:30:00 PM 1.67 35.006 0.092 7.18 6.64 13.62
1/18/2021 10:45:00 PM 1.66 34.988 0.092 7.18 6.64 13.63
1/18/2021 11:00:00 PM 1.65 34.97 0.092 7.18 6.27 13.62
1/18/2021 11:15:00 PM 1.65 34.97 0.092 7.17 7.01 13.64
1/18/2021 11:30:00 PM 1.65 34.97 0.092 7.17 6.52 13.64
1/18/2021 11:45:00 PM 1.64 34.952 0.092 7.17 6.69 13.64
1/19/2021 12:00:00 AM 1.63 34.934 0.092 7.17 6.95 13.63
1/19/2021 12:15:00 AM 1.63 34.934 0.092 7.18 6.53 13.64
1/19/2021 12:30:00 AM 1.62 34.916 0.093 7.17 7.26 13.64
1/19/2021 12:45:00 AM 1.6 34.88 0.093 7.17 6.88 13.65
1/19/2021 1:00:00 AM 1.6 34.88 0.093 7.16 6.56 13.65
1/19/2021 1:15:00 AM 1.59 34.862 0.093 7.17 7.24 13.66
1/19/2021 1:30:00 AM 1.58 34.844 0.093 7.17 7.09 13.65
1/19/2021 1:45:00 AM 1.58 34.844 0.093 7.17 6.51 13.66
1/19/2021 2:00:00 AM 1.57 34.826 0.093 7.17 7.28 13.66
1/19/2021 2:15:00 AM 1.57 34.826 0.093 7.17 7.29 13.66
1/19/2021 2:30:00 AM 1.55 34.79 0.093 7.17 6.84 13.67
1/19/2021 2:45:00 AM 1.55 34.79 0.093 7.17 6.76 13.67
1/19/2021 3:00:00 AM 1.54 34.772 0.093 7.17 7.01 13.68
1/19/2021 3:15:00 AM 1.54 34.772 0.093 7.17 6.76 13.68
1/19/2021 3:30:00 AM 1.53 34.754 0.093 7.17 7.04 13.68
1/19/2021 3:45:00 AM 1.52 34.736 0.093 7.17 7.06 13.68
1/19/2021 4:00:00 AM 1.51 34.718 0.093 7.17 6.91 13.69
1/19/2021 4:15:00 AM 1.49 34.682 0.093 7.17 7.19 13.69
1/19/2021 4:30:00 AM 1.48 34.664 0.093 7.17 7.02 13.7
1/19/2021 4:45:00 AM 1.47 34.646 0.093 7.17 7.25 13.71
1/19/2021 5:00:00 AM 1.45 34.61 0.093 7.17 6.57 13.71
1/19/2021 5:15:00 AM 1.45 34.61 0.093 7.18 7 13.73
1/19/2021 5:30:00 AM 1.43 34.574 0.093 7.17 6.62 13.74
1/19/2021 5:45:00 AM 1.41 34.538 0.093 7.17 6.43 13.74
1/19/2021 6:00:00 AM 1.39 34.502 0.093 7.17 6.68 13.75
1/19/2021 6:15:00 AM 1.37 34.466 0.093 7.17 6.71 13.76
1/19/2021 6:30:00 AM 1.35 34.43 0.093 7.18 6.59 13.77
1/19/2021 6:45:00 AM 1.33 34.394 0.093 7.17 6.37 13.78
1/19/2021 7:00:00 AM 1.31 34.358 0.093 7.18 6.92 13.79
1/19/2021 7:15:00 AM 1.29 34.322 0.093 7.18 6.41 13.8
1/19/2021 7:30:00 AM 1.28 34.304 0.093 7.18 6.85 13.81
1/19/2021 7:45:00 AM 1.26 34.268 0.093 7.18 6.67 13.82
1/19/2021 8:00:00 AM 1.24 34.232 0.093 7.17 6.12 13.84
1/19/2021 8:15:00 AM 1.23 34.214 0.093 7.18 6.68 13.84
1/19/2021 8:30:00 AM 1.21 34.178 0.093 7.18 6.32 13.86
1/19/2021 8:45:00 AM 1.2 34.16 0.093 7.18 6.66 13.87
1/19/2021 9:00:00 AM 1.22 34.196 0.093 7.18 6.19 13.88
1/19/2021 9:15:00 AM 1.23 34.214 0.093 7.18 6.18 13.89
1/19/2021 9:30:00 AM 1.25 34.25 0.094 7.18 6.65 13.89
1/19/2021 9:45:00 AM 1.28 34.304 0.094 7.19 6.29 13.89
1/19/2021 10:00:00 AM 1.3 34.34 0.094 7.19 6.48 13.89
1/19/2021 10:15:00 AM 1.32 34.376 0.094 7.19 6.7 13.89
1/19/2021 10:30:00 AM 1.34 34.412 0.094 7.2 6.19 13.89
1/19/2021 10:45:00 AM 1.36 34.448 0.094 7.2 6.51 13.89
1/19/2021 11:00:00 AM 1.39 34.502 0.094 7.2 6.84 13.88
1/19/2021 11:15:00 AM 1.42 34.556 0.094 7.2 6.18 13.88
1/19/2021 11:30:00 AM 1.43 34.574 0.094 7.2 6.47 13.87
1/19/2021 11:45:00 AM 1.44 34.592 0.094 7.2 6.28 13.86
1/19/2021 12:00:00 PM 1.44 34.592 0.094 7.21 6.3 13.87
1/19/2021 12:15:00 PM 1.46 34.628 0.094 7.21 6.29 13.86
1/19/2021 12:30:00 PM 1.47 34.646 0.094 7.21 6.09 13.86
1/19/2021 12:45:00 PM 1.48 34.664 0.094 7.21 6.52 13.85
1/19/2021 1:00:00 PM 1.51 34.718 0.094 7.22 6.2 13.85
1/19/2021 1:15:00 PM 1.53 34.754 0.094 7.21 6.16 13.84
1/19/2021 1:30:00 PM 1.6 34.88 0.094 7.22 5.94 13.84
1/19/2021 1:45:00 PM 1.66 34.988 0.094 7.22 6.04 13.83
1/19/2021 2:00:00 PM 1.65 34.97 0.094 7.22 6.53 13.82
1/19/2021 2:15:00 PM 1.67 35.006 0.094 7.22 5.78 13.81
1/19/2021 2:30:00 PM 1.69 35.042 0.094 7.22 6.23 13.81
1/19/2021 2:45:00 PM 1.65 34.97 0.094 7.22 6.29 13.8
1/19/2021 3:00:00 PM 1.64 34.952 0.094 7.22 6.07 13.81
1/19/2021 3:15:00 PM 1.64 34.952 0.094 7.23 5.68 13.79
1/19/2021 3:30:00 PM 1.68 35.024 0.094 7.23 5.94 13.79
1/19/2021 3:45:00 PM 1.7 35.06 0.094 7.23 5.64 13.79
1/19/2021 4:00:00 PM 1.69 35.042 0.094 7.23 5.82 13.78
1/19/2021 4:15:00 PM 1.67 35.006 0.095 7.23 5.55 13.78
1/19/2021 4:30:00 PM 1.65 34.97 0.095 7.23 5.56 13.78
1/19/2021 4:45:00 PM 1.63 34.934 0.095 7.23 5.91 13.79
1/19/2021 5:00:00 PM 1.6 34.88 0.095 7.22 5.7 13.78
1/19/2021 5:15:00 PM 1.59 34.862 0.095 7.22 6.59 13.78
1/19/2021 5:30:00 PM 1.57 34.826 0.095 7.22 5.82 13.77
1/19/2021 5:45:00 PM 1.56 34.808 0.095 7.22 5.99 13.78
1/19/2021 6:00:00 PM 1.57 34.826 0.095 7.22 5.82 13.77
1/19/2021 6:15:00 PM 1.57 34.826 0.095 7.22 6.21 13.77
1/19/2021 6:30:00 PM 1.57 34.826 0.095 7.22 5.67 13.76
1/19/2021 6:45:00 PM 1.57 34.826 0.095 7.22 5.71 13.76
1/19/2021 7:00:00 PM 1.58 34.844 0.095 7.21 5.64 13.76
1/19/2021 7:15:00 PM 1.57 34.826 0.095 7.22 5.67 13.76
1/19/2021 7:30:00 PM 1.57 34.826 0.095 7.21 5.59 13.76
1/19/2021 7:45:00 PM 1.57 34.826 0.095 7.22 5.65 13.76
1/19/2021 8:00:00 PM 1.57 34.826 0.095 7.21 5.39 13.76
1/19/2021 8:15:00 PM 1.57 34.826 0.095 7.22 5.61 13.75
1/19/2021 8:30:00 PM 1.56 34.808 0.095 7.21 5.59 13.76
1/19/2021 8:45:00 PM 1.56 34.808 0.095 7.21 5.48 13.76
1/19/2021 9:00:00 PM 1.55 34.79 0.095 7.21 5.5 13.76
1/19/2021 9:15:00 PM 1.54 34.772 0.095 7.22 5.4 13.76
1/19/2021 9:30:00 PM 1.54 34.772 0.095 7.21 5.6 13.75
1/19/2021 9:45:00 PM 1.53 34.754 0.095 7.21 5.52 13.75
1/19/2021 10:00:00 PM 1.53 34.754 0.095 7.21 5.63 13.75
1/19/2021 10:15:00 PM 1.52 34.736 0.096 7.21 5.3 13.75
1/19/2021 10:30:00 PM 1.51 34.718 0.096 7.21 5.48 13.75
1/19/2021 10:45:00 PM 1.5 34.7 0.096 7.21 5.69 13.75
1/19/2021 11:00:00 PM 1.49 34.682 0.096 7.22 5.47 13.75
1/19/2021 11:15:00 PM 1.48 34.664 0.096 7.21 5.63 13.75
1/19/2021 11:30:00 PM 1.47 34.646 0.096 7.21 5.29 13.75
1/19/2021 11:45:00 PM 1.46 34.628 0.096 7.22 5.4 13.75
1/20/2021 12:00:00 AM 1.45 34.61 0.096 7.21 5.46 13.75
1/20/2021 12:15:00 AM 1.45 34.61 0.096 7.21 5.16 13.75
1/20/2021 12:30:00 AM 1.44 34.592 0.096 7.21 5.39 13.75
1/20/2021 12:45:00 AM 1.43 34.574 0.096 7.21 5.3 13.75
1/20/2021 1:00:00 AM 1.42 34.556 0.096 7.21 5.05 13.75
1/20/2021 1:15:00 AM 1.41 34.538 0.096 7.21 5.35 13.75
1/20/2021 1:30:00 AM 1.4 34.52 0.096 7.21 5.19 13.75
1/20/2021 1:45:00 AM 1.39 34.502 0.096 7.21 5.44 13.75
1/20/2021 2:00:00 AM 1.39 34.502 0.096 7.21 5.27 13.75
1/20/2021 2:15:00 AM 1.39 34.502 0.096 7.21 5.37 13.74
1/20/2021 2:30:00 AM 1.39 34.502 0.096 7.21 5.26 13.74
1/20/2021 2:45:00 AM 1.38 34.484 0.096 7.21 5.23 13.74
1/20/2021 3:00:00 AM 1.38 34.484 0.096 7.21 5.27 13.73
1/20/2021 3:15:00 AM 1.37 34.466 0.096 7.21 5.4 13.74
1/20/2021 3:30:00 AM 1.37 34.466 0.097 7.21 5.56 13.73
1/20/2021 3:45:00 AM 1.37 34.466 0.097 7.21 5.3 13.73
1/20/2021 4:00:00 AM 1.37 34.466 0.097 7.21 5.68 13.72
1/20/2021 4:15:00 AM 1.37 34.466 0.097 7.21 5.54 13.73
1/20/2021 4:30:00 AM 1.36 34.448 0.097 7.22 5.9 13.72
1/20/2021 4:45:00 AM 1.36 34.448 0.097 7.22 5.39 13.72
1/20/2021 5:00:00 AM 1.35 34.43 0.097 7.22 5.64 13.73
1/20/2021 5:15:00 AM 1.33 34.394 0.097 7.21 5.46 13.73
1/20/2021 5:30:00 AM 1.31 34.358 0.097 7.21 5.83 13.73
1/20/2021 5:45:00 AM 1.31 34.358 0.097 7.21 5.38 13.74
1/20/2021 6:00:00 AM 1.29 34.322 0.097 7.21 5.33 13.75
1/20/2021 6:15:00 AM 1.29 34.322 0.097 7.21 5.61 13.74
1/20/2021 6:30:00 AM 1.27 34.286 0.097 7.21 5.32 13.75
1/20/2021 6:45:00 AM 1.26 34.268 0.097 7.21 5.29 13.75
1/20/2021 7:00:00 AM 1.24 34.232 0.097 7.21 5.12 13.76
1/20/2021 7:15:00 AM 1.24 34.232 0.097 7.21 5.45 13.77
1/20/2021 7:30:00 AM 1.19 34.142 0.097 7.22 5.29 13.78
1/20/2021 7:45:00 AM 1.18 34.124 0.097 7.21 5.42 13.79
1/20/2021 8:00:00 AM 1.17 34.106 0.097 7.21 5.37 13.8
1/20/2021 8:15:00 AM 1.17 34.106 0.097 7.21 5.27 13.82
1/20/2021 8:30:00 AM 1.17 34.106 0.097 7.22 5.08 13.82
1/20/2021 8:45:00 AM 1.15 34.07 0.097 7.21 5.43 13.84
1/20/2021 9:00:00 AM 1.15 34.07 0.097 7.22 5.5 13.86
1/20/2021 9:15:00 AM 1.15 34.07 0.097 7.22 5.27 13.86
1/20/2021 9:30:00 AM 1.16 34.088 0.097 7.22 5.27 13.87
1/20/2021 9:45:00 AM 1.14 34.052 0.097 7.22 5.26 13.89
1/20/2021 10:00:00 AM 1.13 34.034 0.097 7.22 5.15 13.9
1/20/2021 10:15:00 AM 1.11 33.998 0.097 7.23 4.88 13.91
1/20/2021 10:30:00 AM 1.1 33.98 0.097 7.23 4.94 13.93
1/20/2021 10:45:00 AM 1.09 33.962 0.097 7.23 4.99 13.94
1/20/2021 11:00:00 AM 1.07 33.926 0.097 7.24 5.07 13.95
1/20/2021 11:15:00 AM 1.11 33.998 0.097 7.24 5.14 13.95
1/20/2021 11:30:00 AM 1.09 33.962 0.097 7.24 4.82 13.95
1/20/2021 11:45:00 AM 1.12 34.016 0.097 7.24 4.96 13.95
1/20/2021 12:00:00 PM 1.15 34.07 0.097 7.24 5.03 13.95
1/20/2021 12:15:00 PM 1.13 34.034 0.097 7.25 5.24 13.95
1/20/2021 12:30:00 PM 1.13 34.034 0.097 7.24 5.08 13.96
1/20/2021 12:45:00 PM 1.13 34.034 0.097 7.25 5.23 13.97
1/20/2021 1:00:00 PM 1.12 34.016 0.097 7.25 5.11 13.97
1/20/2021 1:15:00 PM 1.11 33.998 0.097 7.25 4.86 13.97
1/20/2021 1:30:00 PM 1.11 33.998 0.097 7.25 4.88 13.97
1/20/2021 1:45:00 PM 1.11 33.998 0.097 7.25 5.06 13.98
1/20/2021 2:00:00 PM 1.1 33.98 0.097 7.25 4.98 13.98
1/20/2021 2:15:00 PM 1.12 34.016 0.097 7.26 4.77 13.98
1/20/2021 2:30:00 PM 1.12 34.016 0.097 7.25 4.98 13.98
1/20/2021 2:45:00 PM 1.09 33.962 0.097 7.26 4.96 14
1/20/2021 3:00:00 PM 1.08 33.944 0.098 7.26 5.06 13.99
1/20/2021 3:15:00 PM 1.05 33.89 0.098 7.26 5.04 14.01
1/20/2021 3:30:00 PM 1.04 33.872 0.098 7.26 4.87 14.01
1/20/2021 3:45:00 PM 1 33.8 0.098 7.25 4.78 14.02
1/20/2021 4:00:00 PM 0.99 33.782 0.098 7.26 4.99 14.03
1/20/2021 4:15:00 PM 0.98 33.764 0.098 7.26 5.2 14.02
1/20/2021 4:30:00 PM 0.94 33.692 0.098 7.26 5.01 14.02
1/20/2021 4:45:00 PM 0.92 33.656 0.098 7.26 5.01 14.04
1/20/2021 5:00:00 PM 0.87 33.566 0.098 7.26 4.83 14.03
1/20/2021 5:15:00 PM 0.85 33.53 0.098 7.25 4.89 14.03
1/20/2021 5:30:00 PM 0.81 33.458 0.098 7.25 4.68 14.03
1/20/2021 5:45:00 PM 0.77 33.386 0.098 7.25 4.88 14.04
1/20/2021 6:00:00 PM 0.75 33.35 0.098 7.25 4.78 14.05
1/20/2021 6:15:00 PM 0.73 33.314 0.098 7.25 4.56 14.05
1/20/2021 6:30:00 PM 0.72 33.296 0.098 7.24 4.66 14.06
1/20/2021 6:45:00 PM 0.7 33.26 0.098 7.25 4.62 14.06
1/20/2021 7:00:00 PM 0.68 33.224 0.098 7.25 4.46 14.07
1/20/2021 7:15:00 PM 0.66 33.188 0.098 7.25 4.68 14.08
1/20/2021 7:30:00 PM 0.64 33.152 0.098 7.25 4.58 14.08
1/20/2021 7:45:00 PM 0.61 33.098 0.098 7.24 4.72 14.08
1/20/2021 8:00:00 PM 0.6 33.08 0.098 7.24 4.72 14.09
1/20/2021 8:15:00 PM 0.58 33.044 0.098 7.24 4.46 14.09
1/20/2021 8:30:00 PM 0.56 33.008 0.098 7.24 4.74 14.1
1/20/2021 8:45:00 PM 0.56 33.008 0.099 7.24 4.61 14.11
1/20/2021 9:00:00 PM 0.54 32.972 0.099 7.24 4.5 14.11
1/20/2021 9:15:00 PM 0.52 32.936 0.099 7.24 4.69 14.12
1/20/2021 9:30:00 PM 0.51 32.918 0.099 7.24 4.65 14.13
1/20/2021 9:45:00 PM 0.49 32.882 0.099 7.24 4.78 14.12
1/20/2021 10:00:00 PM 0.49 32.882 0.099 7.24 4.69 14.14
1/20/2021 10:15:00 PM 0.47 32.846 0.099 7.24 4.77 14.14
1/20/2021 10:30:00 PM 0.45 32.81 0.099 7.24 4.6 14.14
1/20/2021 10:45:00 PM 0.43 32.774 0.099 7.24 4.94 14.16
1/20/2021 11:00:00 PM 0.4 32.72 0.099 7.24 4.49 14.16
1/20/2021 11:15:00 PM 0.39 32.702 0.099 7.24 4.59 14.16
1/20/2021 11:30:00 PM 0.37 32.666 0.099 7.23 4.54 14.16
1/20/2021 11:45:00 PM 0.33 32.594 0.099 7.24 4.76 14.18
1/21/2021 12:00:00 AM 0.29 32.522 0.099 7.24 4.65 14.18
1/21/2021 12:15:00 AM 0.26 32.468 0.099 7.24 4.41 14.19
1/21/2021 12:30:00 AM 0.21 32.378 0.099 7.24 4.39 14.2
1/21/2021 12:45:00 AM 0.17 32.306 0.099 7.24 4.46 14.21
1/21/2021 1:00:00 AM 0.13 32.234 0.099 7.24 4.65 14.22
1/21/2021 1:15:00 AM 0.09 32.162 0.099 7.24 4.39 14.23
1/21/2021 1:30:00 AM 0.06 32.108 0.099 7.23 4.54 14.25
1/21/2021 1:45:00 AM 0.04 32.072 0.099 7.24 4.57 14.25
1/21/2021 2:00:00 AM 0.02 32.036 0.099 7.24 4.56 14.26
1/21/2021 2:15:00 AM -0.01 31.982 0.1 7.23 4.52 14.26
1/21/2021 2:30:00 AM -0.03 31.946 0.1 7.24 4.73 14.27
1/21/2021 2:45:00 AM -0.02 31.964 0.1 7.24 4.81 14.28
1/21/2021 3:00:00 AM -0.02 31.964 0.1 7.24 4.58 14.29
1/21/2021 3:15:00 AM -0.02 31.964 0.1 7.24 4.91 14.29
1/21/2021 3:30:00 AM -0.02 31.964 0.1 7.24 4.87 14.3
1/21/2021 3:45:00 AM -0.02 31.964 0.1 7.23 5.03 14.29
1/21/2021 4:00:00 AM -0.02 31.964 0.1 7.24 4.95 14.29
1/21/2021 4:15:00 AM -0.02 31.964 0.1 7.24 4.85 14.29
1/21/2021 4:30:00 AM -0.02 31.964 0.101 7.24 4.91 14.29
1/21/2021 4:45:00 AM -0.02 31.964 0.101 7.24 4.88 14.28
1/21/2021 5:00:00 AM -0.02 31.964 0.101 7.23 4.59 14.28
1/21/2021 5:15:00 AM -0.02 31.964 0.101 7.24 4.71 14.28
1/21/2021 5:30:00 AM -0.01 31.982 0.101 7.24 4.98 14.27
1/21/2021 5:45:00 AM -0.01 31.982 0.101 7.24 4.59 14.26
1/21/2021 6:00:00 AM -0.01 31.982 0.101 7.24 4.4 14.25
1/21/2021 6:15:00 AM 0 32 0.101 7.24 4.39 14.24
1/21/2021 6:30:00 AM 0 32 0.101 7.24 4.92 14.23
1/21/2021 6:45:00 AM 0.01 32.018 0.101 7.24 4.49 14.21
1/21/2021 7:00:00 AM 0.01 32.018 0.101 7.24 4.41 14.22
1/21/2021 7:15:00 AM 0.01 32.018 0.101 7.24 4.3 14.21
1/21/2021 7:30:00 AM 0.01 32.018 0.101 7.24 4.7 14.2
1/21/2021 7:45:00 AM 0.01 32.018 0.101 7.24 4.34 14.2
1/21/2021 8:00:00 AM 0.01 32.018 0.101 7.24 4.09 14.19
1/21/2021 8:15:00 AM 0.02 32.036 0.101 7.24 4.48 14.2
1/21/2021 8:30:00 AM 0.02 32.036 0.101 7.25 4.34 14.19
1/21/2021 8:45:00 AM 0.02 32.036 0.101 7.25 4.4 14.2
1/21/2021 9:00:00 AM 0.02 32.036 0.101 7.25 4.3 14.21
1/21/2021 9:15:00 AM 0.02 32.036 0.101 7.25 4.5 14.21
1/21/2021 9:30:00 AM 0.02 32.036 0.101 7.25 4.56 14.22
1/21/2021 9:45:00 AM 0.03 32.054 0.101 7.26 4.63 14.23
1/21/2021 10:00:00 AM 0.02 32.036 0.101 7.26 4.43 14.22
1/21/2021 10:15:00 AM 0.02 32.036 0.101 7.26 4.44 14.24
1/21/2021 10:30:00 AM 0.01 32.018 0.101 7.26 4.48 14.25
1/21/2021 10:45:00 AM 0.01 32.018 0.101 7.26 4.84 14.25
1/21/2021 11:00:00 AM 0.02 32.036 0.101 7.27 4.97 14.26
1/21/2021 11:15:00 AM 0.02 32.036 0.101 7.27 5.27 14.27
1/21/2021 11:30:00 AM 0.03 32.054 0.101 7.26 5.03 14.27
1/21/2021 11:45:00 AM 0.02 32.036 0.101 7.27 5.36 14.26
1/21/2021 12:00:00 PM 0.03 32.054 0.101 7.26 5.52 14.26
1/21/2021 12:15:00 PM 0.05 32.09 0.101 7.26 5.77 14.25
1/21/2021 12:30:00 PM 0.09 32.162 0.101 7.26 5.81 14.24
1/21/2021 12:45:00 PM 0.14 32.252 0.101 7.26 6.01 14.22
1/21/2021 1:00:00 PM 0.17 32.306 0.1 7.25 6.28 14.2
1/21/2021 1:15:00 PM 0.2 32.36 0.1 7.25 6.08 14.19
1/21/2021 1:30:00 PM 0.24 32.432 0.1 7.26 6.26 14.18
1/21/2021 1:45:00 PM 0.3 32.54 0.1 7.25 6.26 14.16
1/21/2021 2:00:00 PM 0.34 32.612 0.1 7.25 6.35 14.15
1/21/2021 2:15:00 PM 0.37 32.666 0.1 7.25 6.8 14.13
1/21/2021 2:30:00 PM 0.38 32.684 0.1 7.25 7.14 14.12
1/21/2021 2:45:00 PM 0.4 32.72 0.101 7.25 6.92 14.12
1/21/2021 3:00:00 PM 0.4 32.72 0.101 7.26 6.59 14.11
1/21/2021 3:15:00 PM 0.4 32.72 0.101 7.25 6.45 14.1
1/21/2021 3:30:00 PM 0.4 32.72 0.101 7.25 6.24 14.1
1/21/2021 3:45:00 PM 0.4 32.72 0.102 7.25 6.29 14.09
1/21/2021 4:00:00 PM 0.4 32.72 0.102 7.26 6.02 14.08
1/21/2021 4:15:00 PM 0.39 32.702 0.102 7.26 5.66 14.07
1/21/2021 4:30:00 PM 0.38 32.684 0.103 7.26 5.94 14.06
1/21/2021 4:45:00 PM 0.37 32.666 0.103 7.26 5.07 14.05
1/21/2021 5:00:00 PM 0.35 32.63 0.103 7.25 5.5 14.05
1/21/2021 5:15:00 PM 0.33 32.594 0.103 7.25 4.97 14.04
1/21/2021 5:30:00 PM 0.31 32.558 0.103 7.25 5.71 14.04
1/21/2021 5:45:00 PM 0.3 32.54 0.103 7.25 5.9 14.04
1/21/2021 6:00:00 PM 0.28 32.504 0.103 7.25 5.83 14.04
1/21/2021 6:15:00 PM 0.27 32.486 0.103 7.25 6.44 14.04
1/21/2021 6:30:00 PM 0.25 32.45 0.103 7.25 6.43 14.05
1/21/2021 6:45:00 PM 0.24 32.432 0.103 7.25 6.06 14.05
1/21/2021 7:00:00 PM 0.22 32.396 0.103 7.25 6.46 14.06
1/21/2021 7:15:00 PM 0.23 32.414 0.103 7.25 6.22 14.07
1/21/2021 7:30:00 PM 0.23 32.414 0.103 7.25 5.81 14.06
1/21/2021 7:45:00 PM 0.25 32.45 0.103 7.25 5.82 14.06
1/21/2021 8:00:00 PM 0.26 32.468 0.103 7.26 5.45 14.06
1/21/2021 8:15:00 PM 0.26 32.468 0.103 7.26 5.47 14.06
1/21/2021 8:30:00 PM 0.27 32.486 0.103 7.26 5.3 14.06
1/21/2021 8:45:00 PM 0.28 32.504 0.103 7.26 5.23 14.05
1/21/2021 9:00:00 PM 0.29 32.522 0.103 7.26 5.29 14.05
1/21/2021 9:15:00 PM 0.29 32.522 0.103 7.26 5.16 14.05
1/21/2021 9:30:00 PM 0.29 32.522 0.103 7.26 4.92 14.05
1/21/2021 9:45:00 PM 0.3 32.54 0.103 7.26 4.97 14.04
1/21/2021 10:00:00 PM 0.29 32.522 0.103 7.27 5.32 14.04
1/21/2021 10:15:00 PM 0.26 32.468 0.103 7.26 5.17 14.04
1/21/2021 10:30:00 PM 0.25 32.45 0.104 7.26 4.8 14.04
1/21/2021 10:45:00 PM 0.22 32.396 0.104 7.26 5.14 14.05
1/21/2021 11:00:00 PM 0.2 32.36 0.104 7.26 4.66 14.06
1/21/2021 11:15:00 PM 0.18 32.324 0.104 7.27 4.76 14.06
1/21/2021 11:30:00 PM 0.16 32.288 0.104 7.27 4.86 14.07
1/21/2021 11:45:00 PM 0.16 32.288 0.104 7.26 4.59 14.07
1/22/2021 12:00:00 AM 0.16 32.288 0.104 7.26 4.45 14.08
1/22/2021 12:15:00 AM 0.16 32.288 0.104 7.26 4.68 14.08
1/22/2021 12:30:00 AM 0.16 32.288 0.104 7.27 4.79 14.08
1/22/2021 12:45:00 AM 0.16 32.288 0.104 7.27 4.62 14.09
1/22/2021 1:00:00 AM 0.16 32.288 0.104 7.26 4.61 14.09
1/22/2021 1:15:00 AM 0.15 32.27 0.104 7.26 4.69 14.09
1/22/2021 1:30:00 AM 0.13 32.234 0.104 7.26 4.67 14.09
1/22/2021 1:45:00 AM 0.13 32.234 0.104 7.26 4.52 14.09
1/22/2021 2:00:00 AM 0.14 32.252 0.104 7.26 4.55 14.1
1/22/2021 2:15:00 AM 0.14 32.252 0.104 7.26 4.69 14.09
1/22/2021 2:30:00 AM 0.12 32.216 0.104 7.26 4.69 14.09
1/22/2021 2:45:00 AM 0.12 32.216 0.104 7.26 4.31 14.1
1/22/2021 3:00:00 AM 0.12 32.216 0.104 7.26 4.61 14.1
1/22/2021 3:15:00 AM 0.12 32.216 0.104 7.26 4.7 14.09
1/22/2021 3:30:00 AM 0.11 32.198 0.104 7.26 4.59 14.1
1/22/2021 3:45:00 AM 0.1 32.18 0.104 7.26 4.44 14.1
1/22/2021 4:00:00 AM 0.1 32.18 0.104 7.26 4.54 14.11
1/22/2021 4:15:00 AM 0.1 32.18 0.104 7.26 4.23 14.11
1/22/2021 4:30:00 AM 0.11 32.198 0.104 7.26 4.42 14.11
1/22/2021 4:45:00 AM 0.11 32.198 0.103 7.26 4.51 14.11
1/22/2021 5:00:00 AM 0.11 32.198 0.103 7.26 4.64 14.11
1/22/2021 5:15:00 AM 0.12 32.216 0.103 7.26 4.51 14.11
1/22/2021 5:30:00 AM 0.13 32.234 0.103 7.26 4.53 14.1
1/22/2021 5:45:00 AM 0.13 32.234 0.103 7.26 4.44 14.1
1/22/2021 6:00:00 AM 0.14 32.252 0.103 7.26 4.25 14.1
1/22/2021 6:15:00 AM 0.15 32.27 0.103 7.26 4.74 14.09
1/22/2021 6:30:00 AM 0.16 32.288 0.103 7.26 4.53 14.09
1/22/2021 6:45:00 AM 0.17 32.306 0.103 7.26 4.4 14.09
1/22/2021 7:00:00 AM 0.18 32.324 0.103 7.26 5 14.08
1/22/2021 7:15:00 AM 0.19 32.342 0.103 7.26 4.36 14.08
1/22/2021 7:30:00 AM 0.2 32.36 0.103 7.26 4.98 14.08
1/22/2021 7:45:00 AM 0.21 32.378 0.103 7.26 4.31 14.08
1/22/2021 8:00:00 AM 0.22 32.396 0.103 7.26 4.37 14.08
1/22/2021 8:15:00 AM 0.23 32.414 0.103 7.26 4.33 14.09
1/22/2021 8:30:00 AM 0.24 32.432 0.103 7.26 4.52 14.09
1/22/2021 8:45:00 AM 0.26 32.468 0.103 7.27 4.58 14.1
1/22/2021 9:00:00 AM 0.28 32.504 0.103 7.27 4.53 14.1
1/22/2021 9:15:00 AM 0.3 32.54 0.103 7.27 4.31 14.11
1/22/2021 9:30:00 AM 0.32 32.576 0.103 7.27 4.36 14.12
1/22/2021 9:45:00 AM 0.34 32.612 0.103 7.27 4.43 14.12
1/22/2021 10:00:00 AM 0.37 32.666 0.103 7.28 4.3 14.12
1/22/2021 10:15:00 AM 0.4 32.72 0.103 7.28 4.29 14.12
1/22/2021 10:30:00 AM 0.44 32.792 0.103 7.28 4.34 14.13
1/22/2021 10:45:00 AM 0.47 32.846 0.103 7.29 4.35 14.12
1/22/2021 11:00:00 AM 0.52 32.936 0.103 7.29 4.06 14.12
1/22/2021 11:15:00 AM 0.57 33.026 0.103 7.29 4.46 14.11
1/22/2021 11:30:00 AM 0.63 33.134 0.103 7.29 4.19 14.09
1/22/2021 11:45:00 AM 0.7 33.26 0.103 7.29 4.25 14.08
1/22/2021 12:00:00 PM 0.8 33.44 0.102 7.3 4.13 14.05
1/22/2021 12:15:00 PM 0.85 33.53 0.102 7.3 4.05 14.04
1/22/2021 12:30:00 PM 0.9 33.62 0.102 7.3 4.14 14.02
1/22/2021 12:45:00 PM 0.93 33.674 0.102 7.31 4.46 14.01
1/22/2021 1:00:00 PM 0.93 33.674 0.102 7.31 4.23 13.99
1/22/2021 1:15:00 PM 0.91 33.638 0.103 7.31 4.24 13.99
1/22/2021 1:30:00 PM 0.9 33.62 0.103 7.31 4.29 13.99
1/22/2021 1:45:00 PM 0.89 33.602 0.103 7.31 4.11 13.98
1/22/2021 2:00:00 PM 0.88 33.584 0.103 7.31 4.39 13.98
1/22/2021 2:15:00 PM 0.88 33.584 0.103 7.31 4.21 13.97
1/22/2021 2:30:00 PM 0.89 33.602 0.103 7.31 4.12 13.97
1/22/2021 2:45:00 PM 0.91 33.638 0.103 7.31 4.4 13.98
1/22/2021 3:00:00 PM 0.9 33.62 0.103 7.31 4.3 13.97
1/22/2021 3:15:00 PM 0.88 33.584 0.103 7.31 4.31 13.97
1/22/2021 3:30:00 PM 0.88 33.584 0.103 7.31 4.37 13.97
1/22/2021 3:45:00 PM 0.86 33.548 0.103 7.31 4.16 13.98
1/22/2021 4:00:00 PM 0.84 33.512 0.103 7.31 4.17 13.98
1/22/2021 4:15:00 PM 0.83 33.494 0.103 7.31 4.34 13.98
1/22/2021 4:30:00 PM 0.82 33.476 0.103 7.31 4.35 13.98
1/22/2021 4:45:00 PM 0.81 33.458 0.103 7.31 4.27 13.98
1/22/2021 5:00:00 PM 0.79 33.422 0.103 7.3 4.3 13.98
1/22/2021 5:15:00 PM 0.78 33.404 0.103 7.3 3.93 13.97
1/22/2021 5:30:00 PM 0.78 33.404 0.103 7.3 4.28 13.97
1/22/2021 5:45:00 PM 0.77 33.386 0.103 7.3 4.16 13.97
1/22/2021 6:00:00 PM 0.77 33.386 0.103 7.3 4.46 13.97
1/22/2021 6:15:00 PM 0.76 33.368 0.103 7.3 4.25 13.97
1/22/2021 6:30:00 PM 0.76 33.368 0.103 7.3 4.39 13.96
1/22/2021 6:45:00 PM 0.75 33.35 0.103 7.29 4.38 13.96
1/22/2021 7:00:00 PM 0.75 33.35 0.103 7.29 4.36 13.96
1/22/2021 7:15:00 PM 0.75 33.35 0.103 7.29 4.34 13.97
1/22/2021 7:30:00 PM 0.74 33.332 0.103 7.29 4.1 13.97
1/22/2021 7:45:00 PM 0.73 33.314 0.103 7.29 4.08 13.97
1/22/2021 8:00:00 PM 0.73 33.314 0.103 7.29 3.85 13.97
1/22/2021 8:15:00 PM 0.72 33.296 0.103 7.29 3.98 13.98
1/22/2021 8:30:00 PM 0.7 33.26 0.103 7.29 4.13 13.98
1/22/2021 8:45:00 PM 0.7 33.26 0.103 7.29 3.95 13.98
1/22/2021 9:00:00 PM 0.68 33.224 0.103 7.29 3.97 14
1/22/2021 9:15:00 PM 0.67 33.206 0.103 7.29 3.96 13.99
1/22/2021 9:30:00 PM 0.64 33.152 0.104 7.29 4.02 14.01
1/22/2021 9:45:00 PM 0.63 33.134 0.104 7.29 3.87 14.01
1/22/2021 10:00:00 PM 0.61 33.098 0.104 7.29 3.87 14.01
1/22/2021 10:15:00 PM 0.59 33.062 0.104 7.29 3.95 14.02
1/22/2021 10:30:00 PM 0.57 33.026 0.104 7.29 3.91 14.04
1/22/2021 10:45:00 PM 0.56 33.008 0.104 7.29 3.99 14.04
1/22/2021 11:00:00 PM 0.55 32.99 0.104 7.29 3.74 14.04
1/22/2021 11:15:00 PM 0.53 32.954 0.104 7.29 3.92 14.04
1/22/2021 11:30:00 PM 0.53 32.954 0.104 7.29 4.08 14.05
1/22/2021 11:45:00 PM 0.5 32.9 0.104 7.29 3.72 14.06
1/23/2021 12:00:00 AM 0.47 32.846 0.104 7.29 3.82 14.07
1/23/2021 12:15:00 AM 0.46 32.828 0.104 7.29 3.73 14.07
1/23/2021 12:30:00 AM 0.43 32.774 0.104 7.29 3.87 14.08
1/23/2021 12:45:00 AM 0.42 32.756 0.104 7.29 3.9 14.09
1/23/2021 1:00:00 AM 0.4 32.72 0.104 7.29 3.87 14.1
1/23/2021 1:15:00 AM 0.37 32.666 0.104 7.28 3.96 14.11
1/23/2021 1:30:00 AM 0.35 32.63 0.104 7.29 4.03 14.12
1/23/2021 1:45:00 AM 0.32 32.576 0.104 7.29 3.81 14.13
1/23/2021 2:00:00 AM 0.3 32.54 0.104 7.28 3.86 14.13
1/23/2021 2:15:00 AM 0.29 32.522 0.104 7.29 3.92 14.14
1/23/2021 2:30:00 AM 0.26 32.468 0.104 7.29 3.65 14.15
1/23/2021 2:45:00 AM 0.24 32.432 0.104 7.29 3.84 14.16
1/23/2021 3:00:00 AM 0.2 32.36 0.104 7.28 3.88 14.17
1/23/2021 3:15:00 AM 0.16 32.288 0.104 7.28 3.67 14.18
1/23/2021 3:30:00 AM 0.12 32.216 0.104 7.29 4.03 14.2
1/23/2021 3:45:00 AM 0.09 32.162 0.104 7.29 3.86 14.21
1/23/2021 4:00:00 AM 0.07 32.126 0.104 7.28 3.87 14.22
1/23/2021 4:15:00 AM 0.04 32.072 0.105 7.28 3.93 14.23
1/23/2021 4:30:00 AM 0.02 32.036 0.105 7.28 3.83 14.24
1/23/2021 4:45:00 AM -0.01 31.982 0.105 7.28 3.72 14.26
1/23/2021 5:00:00 AM -0.03 31.946 0.105 7.29 3.71 14.26
1/23/2021 5:15:00 AM -0.03 31.946 0.105 7.29 3.9 14.28
1/23/2021 5:30:00 AM -0.02 31.964 0.105 7.28 4.25 14.29
1/23/2021 5:45:00 AM -0.01 31.982 0.105 7.28 3.89 14.3
1/23/2021 6:00:00 AM -0.01 31.982 0.105 7.28 4.11 14.3
1/23/2021 6:15:00 AM -0.02 31.964 0.105 7.28 4.35 14.31
1/23/2021 6:30:00 AM -0.01 31.982 0.105 7.28 4.18 14.32
1/23/2021 6:45:00 AM -0.01 31.982 0.105 7.28 4.04 14.32
1/23/2021 7:00:00 AM -0.02 31.964 0.105 7.28 4.23 14.32
1/23/2021 7:15:00 AM -0.01 31.982 0.105 7.28 4.42 14.33
1/23/2021 7:30:00 AM -0.01 31.982 0.105 7.28 4.32 14.34
1/23/2021 7:45:00 AM -0.01 31.982 0.105 7.28 4.45 14.34
1/23/2021 8:00:00 AM -0.01 31.982 0.105 7.28 4.1 14.35
1/23/2021 8:15:00 AM 0 32 0.105 7.28 3.92 14.36
1/23/2021 8:30:00 AM 0 32 0.105 7.29 4.27 14.36
1/23/2021 8:45:00 AM 0 32 0.105 7.29 4.28 14.36
1/23/2021 9:00:00 AM 0.01 32.018 0.105 7.29 4.05 14.37
1/23/2021 9:15:00 AM 0.01 32.018 0.105 7.29 3.96 14.37
1/23/2021 9:30:00 AM 0.02 32.036 0.105 7.29 4.08 14.37
1/23/2021 9:45:00 AM 0.01 32.018 0.105 7.29 4.17 14.37
1/23/2021 10:00:00 AM 0.02 32.036 0.105 7.29 3.96 14.37
1/23/2021 10:15:00 AM 0.03 32.054 0.105 7.3 3.94 14.37
1/23/2021 10:30:00 AM 0.03 32.054 0.105 7.3 4 14.38
1/23/2021 10:45:00 AM 0.03 32.054 0.105 7.3 3.87 14.4
1/23/2021 11:00:00 AM 0.03 32.054 0.105 7.3 4.15 14.4
1/23/2021 11:15:00 AM 0.03 32.054 0.105 7.31 4.2 14.41
1/23/2021 11:30:00 AM 0.02 32.036 0.105 7.32 4.19 14.43
1/23/2021 11:45:00 AM 0.01 32.018 0.105 7.32 3.98 14.45
1/23/2021 12:00:00 PM 0.02 32.036 0.105 7.32 4.11 14.46
1/23/2021 12:15:00 PM 0.01 32.018 0.105 7.32 4.24 14.48
1/23/2021 12:30:00 PM 0.03 32.054 0.105 7.32 4.02 14.49
1/23/2021 12:45:00 PM 0.04 32.072 0.105 7.33 4.01 14.48
1/23/2021 1:00:00 PM 0.05 32.09 0.105 7.33 4.14 14.48
1/23/2021 1:15:00 PM 0.08 32.144 0.105 7.33 4.03 14.47
1/23/2021 1:30:00 PM 0.1 32.18 0.105 7.33 3.97 14.47
1/23/2021 1:45:00 PM 0.12 32.216 0.105 7.33 4.08 14.45
1/23/2021 2:00:00 PM 0.1 32.18 0.105 7.32 4.37 14.46
1/23/2021 2:15:00 PM 0.09 32.162 0.105 7.33 4.31 14.46
1/23/2021 2:30:00 PM 0.11 32.198 0.105 7.33 4.24 14.46
1/23/2021 2:45:00 PM 0.14 32.252 0.105 7.32 4.07 14.46
1/23/2021 3:00:00 PM 0.13 32.234 0.105 7.32 4.13 14.46
1/23/2021 3:15:00 PM 0.1 32.18 0.106 7.33 4.2 14.46
1/23/2021 3:30:00 PM 0.05 32.09 0.106 7.33 4.21 14.46
1/23/2021 3:45:00 PM 0.04 32.072 0.106 7.33 4.32 14.46
1/23/2021 4:00:00 PM 0.03 32.054 0.106 7.32 4.35 14.46
1/23/2021 4:15:00 PM 0.01 32.018 0.106 7.32 4.25 14.46
1/23/2021 4:30:00 PM 0 32 0.106 7.32 4.45 14.46
1/23/2021 4:45:00 PM -0.01 31.982 0.106 7.32 4.51 14.46
1/23/2021 5:00:00 PM -0.02 31.964 0.105 7.32 4.44 14.45
1/23/2021 5:15:00 PM -0.02 31.964 0.105 7.31 4.43 14.45
1/23/2021 5:30:00 PM -0.03 31.946 0.105 7.3 4.33 14.45
1/23/2021 5:45:00 PM -0.03 31.946 0.105 7.3 4.29 14.44
1/23/2021 6:00:00 PM -0.03 31.946 0.105 7.3 4.62 14.44
1/23/2021 6:15:00 PM -0.03 31.946 0.105 7.29 4.19 14.44
1/23/2021 6:30:00 PM -0.02 31.964 0.105 7.29 4.43 14.45
1/23/2021 6:45:00 PM -0.02 31.964 0.105 7.29 4.16 14.45
1/23/2021 7:00:00 PM -0.02 31.964 0.105 7.29 4.19 14.45
1/23/2021 7:15:00 PM -0.02 31.964 0.106 7.29 4.26 14.46
1/23/2021 7:30:00 PM -0.02 31.964 0.106 7.29 4.24 14.45
1/23/2021 7:45:00 PM -0.01 31.982 0.106 7.29 4.13 14.46
1/23/2021 8:00:00 PM -0.01 31.982 0.106 7.28 3.96 14.45
1/23/2021 8:15:00 PM -0.01 31.982 0.106 7.28 4.14 14.45
1/23/2021 8:30:00 PM -0.01 31.982 0.106 7.28 4.06 14.46
1/23/2021 8:45:00 PM -0.01 31.982 0.107 7.28 4.14 14.45
1/23/2021 9:00:00 PM -0.01 31.982 0.107 7.28 3.89 14.45
1/23/2021 9:15:00 PM -0.01 31.982 0.107 7.28 4.27 14.45
1/23/2021 9:30:00 PM -0.01 31.982 0.107 7.28 3.79 14.45
1/23/2021 9:45:00 PM -0.01 31.982 0.108 7.28 4.01 14.45
1/23/2021 10:00:00 PM -0.01 31.982 0.108 7.28 4.15 14.44
1/23/2021 10:15:00 PM -0.01 31.982 0.108 7.28 4.13 14.45
1/23/2021 10:30:00 PM 0 32 0.108 7.28 3.99 14.44
1/23/2021 10:45:00 PM 0 32 0.109 7.28 3.98 14.44
1/23/2021 11:00:00 PM 0 32 0.109 7.28 3.86 14.43
1/23/2021 11:15:00 PM 0 32 0.109 7.28 4.24 14.43
1/23/2021 11:30:00 PM 0 32 0.109 7.28 4.1 14.43
1/23/2021 11:45:00 PM 0 32 0.109 7.28 4.01 14.42
1/24/2021 12:00:00 AM 0.01 32.018 0.109 7.28 3.78 14.42
1/24/2021 12:15:00 AM 0.01 32.018 0.109 7.28 4.01 14.42
1/24/2021 12:30:00 AM 0.01 32.018 0.109 7.29 3.77 14.41
1/24/2021 12:45:00 AM 0 32 0.109 7.28 4.18 14.42
1/24/2021 1:00:00 AM 0.01 32.018 0.109 7.29 3.91 14.41
1/24/2021 1:15:00 AM 0.01 32.018 0.109 7.29 3.84 14.41
1/24/2021 1:30:00 AM 0.01 32.018 0.109 7.29 3.92 14.42
1/24/2021 1:45:00 AM 0.01 32.018 0.109 7.29 3.74 14.41
1/24/2021 2:00:00 AM 0.01 32.018 0.109 7.29 4.12 14.42
1/24/2021 2:15:00 AM 0.01 32.018 0.109 7.29 4.06 14.41
1/24/2021 2:30:00 AM 0.02 32.036 0.109 7.29 3.91 14.41
1/24/2021 2:45:00 AM 0.02 32.036 0.109 7.29 3.82 14.41
1/24/2021 3:00:00 AM 0.01 32.018 0.109 7.29 3.79 14.41
1/24/2021 3:15:00 AM 0.01 32.018 0.109 7.29 3.76 14.42
1/24/2021 3:30:00 AM 0.02 32.036 0.109 7.29 3.85 14.41
1/24/2021 3:45:00 AM 0.01 32.018 0.109 7.29 3.68 14.41
1/24/2021 4:00:00 AM 0.02 32.036 0.11 7.29 3.46 14.4
1/24/2021 4:15:00 AM 0.02 32.036 0.11 7.29 3.8 14.42
1/24/2021 4:30:00 AM 0.02 32.036 0.11 7.29 3.6 14.41
1/24/2021 4:45:00 AM 0.01 32.018 0.11 7.29 3.68 14.41
1/24/2021 5:00:00 AM 0.01 32.018 0.11 7.29 3.86 14.42
1/24/2021 5:15:00 AM 0.01 32.018 0.11 7.29 3.81 14.42
1/24/2021 5:30:00 AM 0.01 32.018 0.11 7.3 3.68 14.41
1/24/2021 5:45:00 AM 0.01 32.018 0.11 7.29 3.75 14.42
1/24/2021 6:00:00 AM 0.02 32.036 0.11 7.29 3.84 14.42
1/24/2021 6:15:00 AM 0.02 32.036 0.11 7.29 3.9 14.43
1/24/2021 6:30:00 AM 0.01 32.018 0.11 7.29 3.87 14.43
1/24/2021 6:45:00 AM 0.01 32.018 0.11 7.29 3.56 14.43
1/24/2021 7:00:00 AM 0.01 32.018 0.11 7.29 4.14 14.43
1/24/2021 7:15:00 AM 0.01 32.018 0.11 7.29 3.83 14.43
1/24/2021 7:30:00 AM 0.01 32.018 0.11 7.29 3.94 14.43
1/24/2021 7:45:00 AM 0.01 32.018 0.11 7.29 3.65 14.45
1/24/2021 8:00:00 AM 0.02 32.036 0.11 7.29 3.8 14.44
1/24/2021 8:15:00 AM 0.02 32.036 0.11 7.29 3.78 14.45
1/24/2021 8:30:00 AM 0.02 32.036 0.11 7.29 3.8 14.46
1/24/2021 8:45:00 AM 0.02 32.036 0.11 7.29 4 14.48
1/24/2021 9:00:00 AM 0.02 32.036 0.11 7.3 3.78 14.49
1/24/2021 9:15:00 AM 0.02 32.036 0.11 7.3 3.95 14.49
1/24/2021 9:30:00 AM 0.02 32.036 0.111 7.3 4.34 14.49
1/24/2021 9:45:00 AM 0.02 32.036 0.11 7.31 4.08 14.5
1/24/2021 10:00:00 AM 0.02 32.036 0.11 7.31 4.14 14.52
1/24/2021 10:15:00 AM 0.02 32.036 0.11 7.31 4.08 14.52
1/24/2021 10:30:00 AM 0.02 32.036 0.11 7.31 3.99 14.5
1/24/2021 10:45:00 AM 0.02 32.036 0.11 7.31 3.89 14.53
1/24/2021 11:00:00 AM 0.01 32.018 0.11 7.32 4.32 14.52
1/24/2021 11:15:00 AM 0.01 32.018 0.11 7.32 4.13 14.52
1/24/2021 11:30:00 AM 0 32 0.11 7.32 3.97 14.53
1/24/2021 11:45:00 AM 0.01 32.018 0.11 7.32 4 14.51
1/24/2021 12:00:00 PM 0.01 32.018 0.11 7.33 4.54 14.52
1/24/2021 12:15:00 PM 0.01 32.018 0.11 7.32 4.55 14.52
1/24/2021 12:30:00 PM 0.01 32.018 0.11 7.32 5.14 14.51
1/24/2021 12:45:00 PM 0 32 0.11 7.32 4.98 14.51
1/24/2021 1:00:00 PM 0.02 32.036 0.11 7.33 4.81 14.49
1/24/2021 1:15:00 PM 0.04 32.072 0.11 7.33 5.2 14.48
1/24/2021 1:30:00 PM 0.05 32.09 0.11 7.33 4.94 14.49
1/24/2021 1:45:00 PM 0.07 32.126 0.11 7.32 5.3 14.49
1/24/2021 2:00:00 PM 0.09 32.162 0.11 7.32 5.16 14.49
1/24/2021 2:15:00 PM 0.11 32.198 0.11 7.32 5.33 14.49
1/24/2021 2:30:00 PM 0.1 32.18 0.11 7.32 5.36 14.49
1/24/2021 2:45:00 PM 0.1 32.18 0.11 7.33 4.9 14.5
1/24/2021 3:00:00 PM 0.08 32.144 0.11 7.32 4.83 14.49
1/24/2021 3:15:00 PM 0.08 32.144 0.11 7.32 4.86 14.49
1/24/2021 3:30:00 PM 0.07 32.126 0.111 7.32 4.71 14.49
1/24/2021 3:45:00 PM 0.06 32.108 0.111 7.32 4.61 14.49
1/24/2021 4:00:00 PM 0.07 32.126 0.111 7.32 4.6 14.5
1/24/2021 4:15:00 PM 0.04 32.072 0.111 7.32 4.52 14.49
1/24/2021 4:30:00 PM 0.03 32.054 0.111 7.33 4.72 14.49
1/24/2021 4:45:00 PM 0.01 32.018 0.111 7.32 4.78 14.49
1/24/2021 5:00:00 PM 0 32 0.111 7.32 4.7 14.47
1/24/2021 5:15:00 PM 0 32 0.111 7.32 4.24 14.45
1/24/2021 5:30:00 PM -0.01 31.982 0.111 7.31 4.37 14.45
1/24/2021 5:45:00 PM -0.02 31.964 0.112 7.31 4.3 14.45
1/24/2021 6:00:00 PM -0.02 31.964 0.112 7.31 4.14 14.43
1/24/2021 6:15:00 PM -0.02 31.964 0.112 7.31 4.35 14.42
1/24/2021 6:30:00 PM -0.02 31.964 0.112 7.3 4.1 14.42
1/24/2021 6:45:00 PM -0.02 31.964 0.112 7.3 4.01 14.42
1/24/2021 7:00:00 PM -0.02 31.964 0.112 7.29 4.33 14.41
1/24/2021 7:15:00 PM -0.02 31.964 0.112 7.29 4.14 14.4
1/24/2021 7:30:00 PM -0.03 31.946 0.112 7.29 4.35 14.41
1/24/2021 7:45:00 PM -0.02 31.964 0.112 7.28 3.94 14.4
1/24/2021 8:00:00 PM -0.02 31.964 0.113 7.28 4.12 14.4
1/24/2021 8:15:00 PM -0.02 31.964 0.113 7.28 4.05 14.39
1/24/2021 8:30:00 PM -0.02 31.964 0.113 7.28 3.91 14.4
1/24/2021 8:45:00 PM -0.02 31.964 0.113 7.28 3.93 14.39
1/24/2021 9:00:00 PM -0.02 31.964 0.113 7.28 4.14 14.4
1/24/2021 9:15:00 PM -0.01 31.982 0.113 7.28 3.96 14.4
1/24/2021 9:30:00 PM -0.01 31.982 0.113 7.28 3.93 14.39
1/24/2021 9:45:00 PM -0.01 31.982 0.113 7.28 3.88 14.39
1/24/2021 10:00:00 PM -0.01 31.982 0.113 7.28 3.7 14.39
1/24/2021 10:15:00 PM 0 32 0.113 7.28 3.94 14.4
1/24/2021 10:30:00 PM 0 32 0.113 7.28 3.78 14.39
1/24/2021 10:45:00 PM -0.01 31.982 0.113 7.28 3.84 14.38
1/24/2021 11:00:00 PM -0.01 31.982 0.113 7.28 3.88 14.38
1/24/2021 11:15:00 PM 0 32 0.113 7.28 3.72 14.39
1/24/2021 11:30:00 PM 0 32 0.113 7.28 3.85 14.39
1/24/2021 11:45:00 PM 0 32 0.114 7.28 3.88 14.37
1/25/2021 12:00:00 AM 0 32 0.114 7.28 3.72 14.38
1/25/2021 12:15:00 AM 0 32 0.114 7.28 3.6 14.38
1/25/2021 12:30:00 AM 0 32 0.114 7.28 3.66 14.38
1/25/2021 12:45:00 AM 0.01 32.018 0.114 7.3 3.67 14.36
1/25/2021 1:00:00 AM 0.01 32.018 0.114 7.28 3.77 14.36
1/25/2021 1:15:00 AM 0 32 0.114 7.28 3.72 14.36
1/25/2021 1:30:00 AM 0.01 32.018 0.114 7.29 3.85 14.36
1/25/2021 1:45:00 AM 0 32 0.114 7.29 3.71 14.36
1/25/2021 2:00:00 AM 0 32 0.114 7.29 3.72 14.37
1/25/2021 2:15:00 AM 0 32 0.115 7.29 3.93 14.36
1/25/2021 2:30:00 AM 0.01 32.018 0.115 7.29 3.83 14.37
1/25/2021 2:45:00 AM 0 32 0.115 7.29 3.54 14.37
1/25/2021 3:00:00 AM 0 32 0.115 7.29 3.89 14.37
1/25/2021 3:15:00 AM 0 32 0.115 7.29 3.58 14.37
1/25/2021 3:30:00 AM 0.01 32.018 0.115 7.29 3.79 14.38
1/25/2021 3:45:00 AM 0 32 0.115 7.29 3.75 14.38
1/25/2021 4:00:00 AM 0.01 32.018 0.115 7.29 3.57 14.36
1/25/2021 4:15:00 AM 0.01 32.018 0.115 7.29 3.51 14.36
1/25/2021 4:30:00 AM 0.01 32.018 0.115 7.29 3.4 14.36
1/25/2021 4:45:00 AM 0.02 32.036 0.116 7.29 3.66 14.35
1/25/2021 5:00:00 AM 0.01 32.018 0.116 7.29 3.34 14.36
1/25/2021 5:15:00 AM 0.02 32.036 0.116 7.29 3.75 14.34
1/25/2021 5:30:00 AM 0.02 32.036 0.116 7.29 3.47 14.36
1/25/2021 5:45:00 AM 0.03 32.054 0.116 7.29 3.43 14.36
1/25/2021 6:00:00 AM 0.01 32.018 0.116 7.29 3.6 14.36
1/25/2021 6:15:00 AM 0.02 32.036 0.116 7.29 3.34 14.36
1/25/2021 6:30:00 AM 0.02 32.036 0.116 7.29 3.57 14.36
1/25/2021 6:45:00 AM 0.02 32.036 0.116 7.29 3.36 14.36
1/25/2021 7:00:00 AM 0.01 32.018 0.117 7.29 3.58 14.36
1/25/2021 7:15:00 AM 0.02 32.036 0.117 7.29 3.38 14.36
1/25/2021 7:30:00 AM 0.02 32.036 0.117 7.29 3.46 14.36
1/25/2021 7:45:00 AM 0.02 32.036 0.117 7.29 3.48 14.36
1/25/2021 8:00:00 AM 0.03 32.054 0.117 7.29 3.42 14.36
1/25/2021 8:15:00 AM 0.03 32.054 0.117 7.29 3.37 14.37
1/25/2021 8:30:00 AM 0.03 32.054 0.117 7.29 3.35 14.4
1/25/2021 8:45:00 AM 0.03 32.054 0.117 7.3 3.38 14.39
1/25/2021 9:00:00 AM 0.04 32.072 0.117 7.3 3.69 14.4
1/25/2021 9:15:00 AM 0.04 32.072 0.117 7.3 3.61 14.42
1/25/2021 9:30:00 AM 0.04 32.072 0.117 7.31 3.46 14.42
1/25/2021 9:45:00 AM 0.04 32.072 0.117 7.31 3.62 14.43
1/25/2021 10:00:00 AM 0.04 32.072 0.117 7.31 3.78 14.42
1/25/2021 10:15:00 AM 0.04 32.072 0.117 7.31 3.56 14.43
1/25/2021 10:30:00 AM 0.04 32.072 0.117 7.32 3.8 14.43
1/25/2021 10:45:00 AM 0.04 32.072 0.117 7.32 3.54 14.44
1/25/2021 11:00:00 AM 0.05 32.09 0.117 7.33 3.39 14.44
1/25/2021 11:15:00 AM 0.04 32.072 0.117 7.33 3.58 14.45
1/25/2021 11:30:00 AM 0.04 32.072 0.117 7.33 3.98 14.44
1/25/2021 11:45:00 AM 0.04 32.072 0.117 7.34 3.79 14.45
1/25/2021 12:00:00 PM 0.04 32.072 0.117 7.34 3.99 14.44
1/25/2021 12:15:00 PM 0.04 32.072 0.117 7.35 3.85 14.44
1/25/2021 12:30:00 PM 0.05 32.09 0.117 7.35 3.99 14.43
1/25/2021 12:45:00 PM 0.06 32.108 0.117 7.35 4.36 14.41
1/25/2021 1:00:00 PM 0.07 32.126 0.117 7.35 3.95 14.39
1/25/2021 1:15:00 PM 0.08 32.144 0.117 7.35 4.13 14.4
1/25/2021 1:30:00 PM 0.1 32.18 0.117 7.35 4.06 14.42
1/25/2021 1:45:00 PM 0.13 32.234 0.117 7.36 3.96 14.42
1/25/2021 2:00:00 PM 0.14 32.252 0.117 7.35 4.09 14.42
1/25/2021 2:15:00 PM 0.14 32.252 0.117 7.36 3.97 14.41
1/25/2021 2:30:00 PM 0.14 32.252 0.117 7.35 3.97 14.42
1/25/2021 2:45:00 PM 0.15 32.27 0.117 7.35 3.81 14.43
1/25/2021 3:00:00 PM 0.15 32.27 0.117 7.35 3.67 14.42
1/25/2021 3:15:00 PM 0.14 32.252 0.117 7.36 3.96 14.43
1/25/2021 3:30:00 PM 0.13 32.234 0.117 7.35 3.75 14.42
1/25/2021 3:45:00 PM 0.11 32.198 0.117 7.36 3.71 14.42
1/25/2021 4:00:00 PM 0.1 32.18 0.117 7.35 3.91 14.41
1/25/2021 4:15:00 PM 0.09 32.162 0.117 7.36 4.1 14.41
1/25/2021 4:30:00 PM 0.07 32.126 0.117 7.35 3.8 14.41
1/25/2021 4:45:00 PM 0.06 32.108 0.117 7.35 4.07 14.4
1/25/2021 5:00:00 PM 0.04 32.072 0.117 7.35 3.61 14.38
1/25/2021 5:15:00 PM 0.04 32.072 0.117 7.35 3.79 14.38
1/25/2021 5:30:00 PM 0.03 32.054 0.117 7.34 3.56 14.36
1/25/2021 5:45:00 PM 0.03 32.054 0.117 7.34 3.77 14.35
1/25/2021 6:00:00 PM 0.01 32.018 0.117 7.34 3.85 14.34
1/25/2021 6:15:00 PM 0.01 32.018 0.117 7.33 3.92 14.34
1/25/2021 6:30:00 PM 0.01 32.018 0.117 7.33 4.01 14.33
1/25/2021 6:45:00 PM 0.01 32.018 0.117 7.33 3.61 14.32
1/25/2021 7:00:00 PM 0.02 32.036 0.117 7.32 3.7 14.32
1/25/2021 7:15:00 PM 0.01 32.018 0.117 7.32 3.79 14.31
1/25/2021 7:30:00 PM 0.01 32.018 0.118 7.32 3.72 14.31
1/25/2021 7:45:00 PM 0.01 32.018 0.118 7.32 3.76 14.31
1/25/2021 8:00:00 PM 0.01 32.018 0.118 7.32 3.55 14.31
1/25/2021 8:15:00 PM 0.01 32.018 0.118 7.31 3.99 14.29
1/25/2021 8:30:00 PM 0.01 32.018 0.118 7.31 3.52 14.3
1/25/2021 8:45:00 PM 0.01 32.018 0.118 7.31 3.54 14.3
1/25/2021 9:00:00 PM 0.01 32.018 0.118 7.31 3.7 14.3
1/25/2021 9:15:00 PM 0.01 32.018 0.117 7.31 3.73 14.28
1/25/2021 9:30:00 PM 0.01 32.018 0.117 7.31 3.74 14.29
1/25/2021 9:45:00 PM 0.01 32.018 0.117 7.31 3.58 14.28
1/25/2021 10:00:00 PM 0.02 32.036 0.117 7.31 3.87 14.28
1/25/2021 10:15:00 PM 0.02 32.036 0.117 7.3 4.11 14.29
1/25/2021 10:30:00 PM 0.01 32.018 0.117 7.3 3.57 14.29
1/25/2021 10:45:00 PM 0.02 32.036 0.117 7.31 3.5 14.29
1/25/2021 11:00:00 PM 0.02 32.036 0.117 7.3 3.39 14.28
1/25/2021 11:15:00 PM 0.01 32.018 0.117 7.3 3.67 14.28
1/25/2021 11:30:00 PM 0.01 32.018 0.117 7.3 3.6 14.28
1/25/2021 11:45:00 PM 0.01 32.018 0.117 7.3 3.52 14.28
1/26/2021 12:00:00 AM 0.02 32.036 0.117 7.3 3.66 14.28
1/26/2021 12:15:00 AM 0.02 32.036 0.117 7.3 3.69 14.27
1/26/2021 12:30:00 AM 0.02 32.036 0.117 7.3 4.09 14.27
1/26/2021 12:45:00 AM 0.02 32.036 0.117 7.3 3.55 14.27
1/26/2021 1:00:00 AM 0.02 32.036 0.118 7.3 3.42 14.26
1/26/2021 1:15:00 AM 0.02 32.036 0.118 7.3 3.44 14.26
1/26/2021 1:30:00 AM 0.02 32.036 0.118 7.3 3.43 14.26
1/26/2021 1:45:00 AM 0.02 32.036 0.118 7.3 3.54 14.25
1/26/2021 2:00:00 AM 0.02 32.036 0.118 7.3 3.4 14.26
1/26/2021 2:15:00 AM 0.01 32.018 0.118 7.3 3.56 14.26
1/26/2021 2:30:00 AM 0.01 32.018 0.118 7.3 3.48 14.26
1/26/2021 2:45:00 AM 0.02 32.036 0.118 7.3 3.46 14.26
1/26/2021 3:00:00 AM 0.02 32.036 0.118 7.31 3.52 14.26
1/26/2021 3:15:00 AM 0.02 32.036 0.118 7.3 3.6 14.26
1/26/2021 3:30:00 AM 0.02 32.036 0.119 7.31 3.51 14.26
1/26/2021 3:45:00 AM 0.02 32.036 0.119 7.31 3.73 14.26
1/26/2021 4:00:00 AM 0.02 32.036 0.119 7.31 3.47 14.25
1/26/2021 4:15:00 AM 0.02 32.036 0.118 7.31 3.36 14.25
1/26/2021 4:30:00 AM 0.02 32.036 0.118 7.31 3.53 14.25
1/26/2021 4:45:00 AM 0.02 32.036 0.118 7.31 3.61 14.25
1/26/2021 5:00:00 AM 0.02 32.036 0.118 7.31 3.27 14.25
1/26/2021 5:15:00 AM 0.03 32.054 0.118 7.31 3.44 14.24
1/26/2021 5:30:00 AM 0.03 32.054 0.118 7.31 3.48 14.24
1/26/2021 5:45:00 AM 0.02 32.036 0.118 7.31 3.56 14.24
1/26/2021 6:00:00 AM 0.03 32.054 0.118 7.32 3.65 14.23
1/26/2021 6:15:00 AM 0.03 32.054 0.118 7.31 3.63 14.24
1/26/2021 6:30:00 AM 0.03 32.054 0.118 7.32 3.59 14.23
1/26/2021 6:45:00 AM 0.03 32.054 0.118 7.32 3.81 14.24
1/26/2021 7:00:00 AM 0.03 32.054 0.118 7.32 3.7 14.23
1/26/2021 7:15:00 AM 0.02 32.036 0.118 7.31 3.52 14.23
1/26/2021 7:30:00 AM 0.03 32.054 0.118 7.32 3.57 14.23
1/26/2021 7:45:00 AM 0.03 32.054 0.118 7.32 3.64 14.23
1/26/2021 8:00:00 AM 0.03 32.054 0.119 7.32 3.68 14.23
1/26/2021 8:15:00 AM 0.04 32.072 0.118 7.32 3.5 14.23
1/26/2021 8:30:00 AM 0.04 32.072 0.119 7.33 3.5 14.24
1/26/2021 8:45:00 AM 0.01 32.018 0.118 7.32 3.76 14.24
1/26/2021 9:00:00 AM 0 32 0.119 7.32 3.73 14.26
1/26/2021 9:15:00 AM 0.01 32.018 0.119 7.33 3.49 14.26
1/26/2021 9:30:00 AM 0 32 0.119 7.33 3.54 14.26
1/26/2021 9:45:00 AM 0.01 32.018 0.119 7.33 3.79 14.26
1/26/2021 10:00:00 AM 0.01 32.018 0.119 7.33 3.77 14.29
1/26/2021 10:15:00 AM 0.02 32.036 0.119 7.34 3.46 14.27
1/26/2021 10:30:00 AM 0.02 32.036 0.119 7.34 3.61 14.28
1/26/2021 10:45:00 AM 0.03 32.054 0.119 7.34 3.83 14.28
1/26/2021 11:00:00 AM 0.03 32.054 0.119 7.34 3.62 14.29
1/26/2021 11:15:00 AM 0.01 32.018 0.119 7.35 3.5 14.28
1/26/2021 11:30:00 AM 0.02 32.036 0.119 7.35 3.67 14.28
1/26/2021 11:45:00 AM 0.03 32.054 0.119 7.35 3.7 14.31
1/26/2021 12:00:00 PM 0.04 32.072 0.119 7.35 3.55 14.3
1/26/2021 12:15:00 PM 0.04 32.072 0.119 7.35 3.53 14.3
1/26/2021 12:30:00 PM 0.05 32.09 0.119 7.35 3.55 14.3
1/26/2021 12:45:00 PM 0.04 32.072 0.119 7.36 3.58 14.29
1/26/2021 1:00:00 PM 0.02 32.036 0.119 7.35 3.54 14.29
1/26/2021 1:15:00 PM 0.04 32.072 0.119 7.36 3.37 14.29
1/26/2021 1:30:00 PM 0.03 32.054 0.119 7.36 3.31 14.28
1/26/2021 1:45:00 PM 0.03 32.054 0.119 7.36 3.29 14.29
1/26/2021 2:00:00 PM 0.03 32.054 0.119 7.36 3.68 14.28
1/26/2021 2:15:00 PM 0.05 32.09 0.119 7.36 3.59 14.27
1/26/2021 2:30:00 PM 0.04 32.072 0.119 7.36 3.39 14.27
1/26/2021 2:45:00 PM 0.05 32.09 0.119 7.36 3.53 14.26
1/26/2021 3:00:00 PM 0.05 32.09 0.119 7.35 3.29 14.25
1/26/2021 3:15:00 PM 0.07 32.126 0.119 7.35 3.39 14.26
1/26/2021 3:30:00 PM 0.07 32.126 0.119 7.35 3.33 14.25
1/26/2021 3:45:00 PM 0.06 32.108 0.119 7.35 3.58 14.25
1/26/2021 4:00:00 PM 0.05 32.09 0.119 7.35 3.39 14.24
1/26/2021 4:15:00 PM 0.06 32.108 0.119 7.35 3.89 14.25
1/26/2021 4:30:00 PM 0.04 32.072 0.119 7.35 3.64 14.23
1/26/2021 4:45:00 PM 0.05 32.09 0.119 7.35 3.76 14.23
1/26/2021 5:00:00 PM 0.05 32.09 0.119 7.34 3.47 14.21
1/26/2021 5:15:00 PM 0.04 32.072 0.119 7.34 3.95 14.2
1/26/2021 5:30:00 PM 0.04 32.072 0.119 7.34 3.48 14.2
1/26/2021 5:45:00 PM 0.04 32.072 0.119 7.34 3.33 14.19
1/26/2021 6:00:00 PM 0.04 32.072 0.119 7.33 3.76 14.18
1/26/2021 6:15:00 PM 0.04 32.072 0.119 7.33 3.46 14.17
1/26/2021 6:30:00 PM 0.04 32.072 0.119 7.33 3.51 14.18
1/26/2021 6:45:00 PM 0.04 32.072 0.119 7.33 3.59 14.17
1/26/2021 7:00:00 PM 0.05 32.09 0.118 7.33 3.52 14.17
1/26/2021 7:15:00 PM 0.04 32.072 0.119 7.33 3.67 14.16
1/26/2021 7:30:00 PM 0.04 32.072 0.118 7.32 3.78 14.17
1/26/2021 7:45:00 PM 0.04 32.072 0.118 7.32 3.37 14.16
1/26/2021 8:00:00 PM 0.04 32.072 0.118 7.32 3.46 14.16
1/26/2021 8:15:00 PM 0.04 32.072 0.118 7.32 3.89 14.15
1/26/2021 8:30:00 PM 0.05 32.09 0.118 7.32 3.57 14.15
1/26/2021 8:45:00 PM 0.04 32.072 0.118 7.32 3.29 14.15
1/26/2021 9:00:00 PM 0.04 32.072 0.118 7.32 3.55 14.16
1/26/2021 9:15:00 PM 0.04 32.072 0.118 7.32 3.43 14.16
1/26/2021 9:30:00 PM 0.04 32.072 0.118 7.31 3.37 14.15
1/26/2021 9:45:00 PM 0.04 32.072 0.118 7.31 3.91 14.16
1/26/2021 10:00:00 PM 0.04 32.072 0.118 7.32 3.73 14.15
1/26/2021 10:15:00 PM 0.04 32.072 0.118 7.31 3.57 14.15
1/26/2021 10:30:00 PM 0.04 32.072 0.117 7.31 3.72 14.15
1/26/2021 10:45:00 PM 0.04 32.072 0.117 7.31 3.86 14.15
1/26/2021 11:00:00 PM 0.04 32.072 0.117 7.31 3.69 14.14
1/26/2021 11:15:00 PM 0.04 32.072 0.116 7.31 3.87 14.15
1/26/2021 11:30:00 PM 0.04 32.072 0.116 7.31 3.78 14.15
1/26/2021 11:45:00 PM 0.04 32.072 0.116 7.31 3.79 14.15
1/27/2021 12:00:00 AM 0.04 32.072 0.116 7.31 3.78 14.16
1/27/2021 12:15:00 AM 0.04 32.072 0.116 7.31 3.88 14.14
1/27/2021 12:30:00 AM 0.04 32.072 0.115 7.31 3.75 14.15
1/27/2021 12:45:00 AM 0.03 32.054 0.115 7.31 3.67 14.15
1/27/2021 1:00:00 AM 0.04 32.072 0.115 7.31 3.86 14.15
1/27/2021 1:15:00 AM 0.04 32.072 0.115 7.3 3.89 14.15
1/27/2021 1:30:00 AM 0.03 32.054 0.115 7.31 3.86 14.16
1/27/2021 1:45:00 AM 0.04 32.072 0.115 7.3 3.91 14.15
1/27/2021 2:00:00 AM 0.04 32.072 0.115 7.31 3.75 14.16
1/27/2021 2:15:00 AM 0.04 32.072 0.115 7.3 3.88 14.16
1/27/2021 2:30:00 AM 0.04 32.072 0.115 7.31 4.02 14.16
1/27/2021 2:45:00 AM 0.04 32.072 0.115 7.3 4 14.17
1/27/2021 3:00:00 AM 0.04 32.072 0.115 7.31 3.86 14.16
1/27/2021 3:15:00 AM 0.04 32.072 0.115 7.31 4.01 14.17
1/27/2021 3:30:00 AM 0.04 32.072 0.115 7.31 3.87 14.17
1/27/2021 3:45:00 AM 0.04 32.072 0.115 7.31 3.72 14.17
1/27/2021 4:00:00 AM 0.04 32.072 0.115 7.31 3.83 14.18
1/27/2021 4:15:00 AM 0.04 32.072 0.115 7.31 3.69 14.19
1/27/2021 4:30:00 AM 0.04 32.072 0.115 7.31 3.82 14.19
1/27/2021 4:45:00 AM 0.04 32.072 0.115 7.31 3.76 14.19
1/27/2021 5:00:00 AM 0.03 32.054 0.115 7.31 3.91 14.2
1/27/2021 5:15:00 AM 0.03 32.054 0.115 7.32 3.83 14.2
1/27/2021 5:30:00 AM 0.03 32.054 0.115 7.32 3.91 14.2
1/27/2021 5:45:00 AM 0.02 32.036 0.115 7.31 3.92 14.21
1/27/2021 6:00:00 AM 0.02 32.036 0.115 7.31 3.87 14.21
1/27/2021 6:15:00 AM 0.02 32.036 0.115 7.32 3.96 14.21
1/27/2021 6:30:00 AM 0.02 32.036 0.115 7.31 3.56 14.23
1/27/2021 6:45:00 AM 0.02 32.036 0.115 7.32 4 14.22
1/27/2021 7:00:00 AM 0.02 32.036 0.115 7.32 3.88 14.22
1/27/2021 7:15:00 AM 0.02 32.036 0.115 7.32 3.94 14.23
1/27/2021 7:30:00 AM 0.02 32.036 0.115 7.32 3.71 14.23
1/27/2021 7:45:00 AM 0.02 32.036 0.115 7.32 3.73 14.25
1/27/2021 8:00:00 AM 0.02 32.036 0.115 7.32 3.9 14.26
1/27/2021 8:15:00 AM 0.02 32.036 0.115 7.32 3.78 14.26
1/27/2021 8:30:00 AM 0.03 32.054 0.115 7.32 3.87 14.26
1/27/2021 8:45:00 AM 0.02 32.036 0.115 7.32 3.72 14.28
1/27/2021 9:00:00 AM 0.03 32.054 0.115 7.33 3.78 14.29
1/27/2021 9:15:00 AM 0.03 32.054 0.115 7.33 3.8 14.31
1/27/2021 9:30:00 AM 0.05 32.09 0.115 7.33 4.04 14.32
1/27/2021 9:45:00 AM 0.05 32.09 0.115 7.34 3.73 14.33
1/27/2021 10:00:00 AM 0.05 32.09 0.115 7.34 3.9 14.35
1/27/2021 10:15:00 AM 0.06 32.108 0.115 7.34 3.69 14.36
1/27/2021 10:30:00 AM 0.06 32.108 0.115 7.35 4 14.37
1/27/2021 10:45:00 AM 0.07 32.126 0.115 7.35 3.87 14.38
1/27/2021 11:00:00 AM 0.07 32.126 0.115 7.35 3.77 14.39
1/27/2021 11:15:00 AM 0.07 32.126 0.115 7.35 3.83 14.4
1/27/2021 11:30:00 AM 0.06 32.108 0.115 7.36 3.48 14.4
1/27/2021 11:45:00 AM 0.06 32.108 0.115 7.36 3.49 14.41
1/27/2021 12:00:00 PM 0.07 32.126 0.115 7.36 3.56 14.42
1/27/2021 12:15:00 PM 0.06 32.108 0.115 7.36 3.82 14.42
1/27/2021 12:30:00 PM 0.06 32.108 0.115 7.36 3.44 14.41
1/27/2021 12:45:00 PM 0.06 32.108 0.115 7.36 3.62 14.42
1/27/2021 1:00:00 PM 0.05 32.09 0.115 7.37 3.7 14.42
1/27/2021 1:15:00 PM 0.05 32.09 0.115 7.37 3.76 14.42
1/27/2021 1:30:00 PM 0.06 32.108 0.115 7.37 3.58 14.43
1/27/2021 1:45:00 PM 0.07 32.126 0.115 7.37 3.65 14.43
1/27/2021 2:00:00 PM 0.07 32.126 0.115 7.37 3.72 14.43
1/27/2021 2:15:00 PM 0.08 32.144 0.115 7.37 3.98 14.43
1/27/2021 2:30:00 PM 0.08 32.144 0.115 7.37 3.61 14.43
1/27/2021 2:45:00 PM 0.07 32.126 0.115 7.37 3.52 14.43
1/27/2021 3:00:00 PM 0.06 32.108 0.115 7.37 3.6 14.43
1/27/2021 3:15:00 PM 0.05 32.09 0.115 7.37 3.61 14.43
1/27/2021 3:30:00 PM 0.05 32.09 0.115 7.38 3.6 14.43
1/27/2021 3:45:00 PM 0.04 32.072 0.115 7.37 3.69 14.42
1/27/2021 4:00:00 PM 0.04 32.072 0.115 7.37 3.61 14.42
1/27/2021 4:15:00 PM 0.04 32.072 0.116 7.37 3.6 14.41
1/27/2021 4:30:00 PM 0.03 32.054 0.116 7.37 3.38 14.4
1/27/2021 4:45:00 PM 0.03 32.054 0.116 7.37 3.42 14.39
1/27/2021 5:00:00 PM 0.03 32.054 0.116 7.37 3.8 14.38
1/27/2021 5:15:00 PM 0.02 32.036 0.116 7.36 3.52 14.38
1/27/2021 5:30:00 PM 0.02 32.036 0.116 7.36 3.42 14.36
1/27/2021 5:45:00 PM 0.02 32.036 0.116 7.36 3.32 14.36
1/27/2021 6:00:00 PM 0.02 32.036 0.116 7.36 3.39 14.35
1/27/2021 6:15:00 PM 0.02 32.036 0.116 7.35 3.6 14.35
1/27/2021 6:30:00 PM 0.02 32.036 0.116 7.35 3.36 14.35
1/27/2021 6:45:00 PM 0.02 32.036 0.116 7.35 3.29 14.34
1/27/2021 7:00:00 PM 0.01 32.018 0.116 7.35 3.53 14.35
1/27/2021 7:15:00 PM 0.02 32.036 0.116 7.35 3.42 14.34
1/27/2021 7:30:00 PM 0.01 32.018 0.116 7.34 3.72 14.34
1/27/2021 7:45:00 PM 0.01 32.018 0.116 7.34 3.52 14.34
1/27/2021 8:00:00 PM 0.01 32.018 0.116 7.34 3.41 14.34
1/27/2021 8:15:00 PM 0.01 32.018 0.116 7.34 3.41 14.34
1/27/2021 8:30:00 PM 0.01 32.018 0.116 7.34 3.63 14.34
1/27/2021 8:45:00 PM 0.01 32.018 0.116 7.34 3.36 14.35
1/27/2021 9:00:00 PM 0.01 32.018 0.116 7.34 3.58 14.34
1/27/2021 9:15:00 PM 0.01 32.018 0.116 7.34 3.48 14.35
1/27/2021 9:30:00 PM 0.01 32.018 0.116 7.33 3.58 14.34
1/27/2021 9:45:00 PM 0.01 32.018 0.116 7.34 3.65 14.35
1/27/2021 10:00:00 PM 0 32 0.116 7.34 3.33 14.35
1/27/2021 10:15:00 PM 0.01 32.018 0.116 7.34 3.51 14.34
1/27/2021 10:30:00 PM 0 32 0.116 7.34 3.79 14.35
1/27/2021 10:45:00 PM 0 32 0.116 7.34 3.47 14.34
1/27/2021 11:00:00 PM 0.01 32.018 0.116 7.34 3.53 14.34
1/27/2021 11:15:00 PM 0 32 0.116 7.33 3.51 14.35
1/27/2021 11:30:00 PM 0 32 0.116 7.34 3.63 14.36
1/27/2021 11:45:00 PM 0 32 0.116 7.33 3.41 14.36
1/28/2021 12:00:00 AM -0.01 31.982 0.116 7.34 3.36 14.36
1/28/2021 12:15:00 AM -0.01 31.982 0.116 7.33 3.57 14.36
1/28/2021 12:30:00 AM -0.01 31.982 0.116 7.33 3.63 14.36
1/28/2021 12:45:00 AM -0.01 31.982 0.116 7.33 4.01 14.36
1/28/2021 1:00:00 AM 0 32 0.116 7.33 3.26 14.35
1/28/2021 1:15:00 AM 0 32 0.116 7.33 3.46 14.36
1/28/2021 1:30:00 AM 0 32 0.116 7.33 3.49 14.36
1/28/2021 1:45:00 AM 0 32 0.116 7.33 3.57 14.36
1/28/2021 2:00:00 AM 0 32 0.116 7.33 3.49 14.37
1/28/2021 2:15:00 AM 0 32 0.116 7.33 3.43 14.36
1/28/2021 2:30:00 AM 0.01 32.018 0.116 7.33 3.58 14.36
1/28/2021 2:45:00 AM 0.01 32.018 0.116 7.33 3.29 14.35
1/28/2021 3:00:00 AM 0.01 32.018 0.116 7.33 3.48 14.36
1/28/2021 3:15:00 AM 0.01 32.018 0.116 7.33 3.21 14.34
1/28/2021 3:30:00 AM 0.01 32.018 0.116 7.33 3.37 14.35
1/28/2021 3:45:00 AM 0.01 32.018 0.116 7.32 3.59 14.35
1/28/2021 4:00:00 AM 0.02 32.036 0.116 7.33 3.79 14.34
1/28/2021 4:15:00 AM 0.02 32.036 0.116 7.33 3.43 14.34
1/28/2021 4:30:00 AM 0.02 32.036 0.116 7.32 3.38 14.33
1/28/2021 4:45:00 AM 0.02 32.036 0.116 7.33 3.36 14.34
1/28/2021 5:00:00 AM 0.02 32.036 0.116 7.33 3.46 14.34
1/28/2021 5:15:00 AM 0.02 32.036 0.116 7.32 3.49 14.33
1/28/2021 5:30:00 AM 0.02 32.036 0.116 7.33 3.39 14.34
1/28/2021 5:45:00 AM 0.02 32.036 0.116 7.32 3.51 14.32
1/28/2021 6:00:00 AM 0.02 32.036 0.116 7.33 3.47 14.34
1/28/2021 6:15:00 AM 0.02 32.036 0.116 7.33 3.29 14.34
1/28/2021 6:30:00 AM 0.02 32.036 0.116 7.33 3.48 14.34
1/28/2021 6:45:00 AM 0.02 32.036 0.116 7.33 3.64 14.33
1/28/2021 7:00:00 AM 0.01 32.018 0.116 7.33 3.38 14.35
1/28/2021 7:15:00 AM 0.02 32.036 0.116 7.33 3.55 14.34
1/28/2021 7:30:00 AM 0.02 32.036 0.116 7.33 3.52 14.34
1/28/2021 7:45:00 AM 0.02 32.036 0.117 7.33 3.53 14.35
1/28/2021 8:00:00 AM 0.02 32.036 0.116 7.33 3.49 14.37
1/28/2021 8:15:00 AM 0.02 32.036 0.117 7.33 3.54 14.37
1/28/2021 8:30:00 AM 0.02 32.036 0.117 7.33 3.55 14.4
1/28/2021 8:45:00 AM 0.02 32.036 0.117 7.34 3.39 14.41
1/28/2021 9:00:00 AM 0.03 32.054 0.117 7.34 3.48 14.42
1/28/2021 9:15:00 AM 0.03 32.054 0.117 7.34 3.51 14.44
1/28/2021 9:30:00 AM 0.03 32.054 0.117 7.34 3.45 14.46
1/28/2021 9:45:00 AM 0.03 32.054 0.117 7.35 3.75 14.45
1/28/2021 10:00:00 AM 0.03 32.054 0.116 7.35 3.76 14.49
1/28/2021 10:15:00 AM 0.03 32.054 0.117 7.36 3.52 14.48
1/28/2021 10:30:00 AM 0.02 32.036 0.117 7.36 3.55 14.49
1/28/2021 10:45:00 AM 0.03 32.054 0.116 7.37 3.62 14.5
1/28/2021 11:00:00 AM 0.03 32.054 0.116 7.37 3.86 14.5
1/28/2021 11:15:00 AM 0.03 32.054 0.116 7.37 3.86 14.49
1/28/2021 11:30:00 AM 0.03 32.054 0.116 7.37 3.65 14.51
1/28/2021 11:45:00 AM 0.04 32.072 0.116 7.38 3.62 14.52
1/28/2021 12:00:00 PM 0.06 32.108 0.116 7.38 4.16 14.52
1/28/2021 12:15:00 PM 0.13 32.234 0.116 7.38 3.77 14.52
1/28/2021 12:30:00 PM 0.16 32.288 0.116 7.38 3.9 14.5
1/28/2021 12:45:00 PM 0.17 32.306 0.116 7.38 3.56 14.51
1/28/2021 1:00:00 PM 0.16 32.288 0.116 7.39 3.66 14.5
1/28/2021 1:15:00 PM 0.16 32.288 0.116 7.39 3.94 14.53
1/28/2021 1:30:00 PM 0.15 32.27 0.116 7.39 3.61 14.53
1/28/2021 1:45:00 PM 0.15 32.27 0.116 7.39 3.98 14.52
1/28/2021 2:00:00 PM 0.15 32.27 0.116 7.39 3.57 14.52
1/28/2021 2:15:00 PM 0.14 32.252 0.117 7.39 3.75 14.53
1/28/2021 2:30:00 PM 0.13 32.234 0.117 7.39 3.77 14.53
1/28/2021 2:45:00 PM 0.11 32.198 0.117 7.39 3.7 14.52
1/28/2021 3:00:00 PM 0.09 32.162 0.117 7.39 3.59 14.53
1/28/2021 3:15:00 PM 0.07 32.126 0.117 7.39 3.56 14.52
1/28/2021 3:30:00 PM 0.06 32.108 0.117 7.39 3.43 14.53
1/28/2021 3:45:00 PM 0.03 32.054 0.117 7.39 3.57 14.53
1/28/2021 4:00:00 PM 0.02 32.036 0.118 7.39 3.29 14.52
1/28/2021 4:15:00 PM 0 32 0.118 7.39 3.51 14.52
1/28/2021 4:30:00 PM -0.01 31.982 0.118 7.38 3.59 14.52
1/28/2021 4:45:00 PM -0.02 31.964 0.118 7.38 3.41 14.51
1/28/2021 5:00:00 PM -0.02 31.964 0.118 7.38 3.34 14.51
1/28/2021 5:15:00 PM -0.01 31.982 0.118 7.37 3.49 14.48
1/28/2021 5:30:00 PM 0 32 0.118 7.37 3.92 14.48
1/28/2021 5:45:00 PM 0 32 0.119 7.36 3.5 14.47
1/28/2021 6:00:00 PM 0.01 32.018 0.119 7.36 3.48 14.45
1/28/2021 6:15:00 PM 0 32 0.119 7.35 3.31 14.44
1/28/2021 6:30:00 PM 0 32 0.119 7.35 3.35 14.45
1/28/2021 6:45:00 PM 0.01 32.018 0.119 7.35 3.57 14.43
1/28/2021 7:00:00 PM 0.01 32.018 0.119 7.34 3.43 14.42
1/28/2021 7:15:00 PM 0.01 32.018 0.119 7.34 3.69 14.41
1/28/2021 7:30:00 PM 0.01 32.018 0.12 7.34 3.53 14.41
1/28/2021 7:45:00 PM 0.01 32.018 0.12 7.34 3.42 14.4
1/28/2021 8:00:00 PM 0.01 32.018 0.12 7.33 3.3 14.4
1/28/2021 8:15:00 PM 0 32 0.12 7.33 3.81 14.41
1/28/2021 8:30:00 PM 0.01 32.018 0.12 7.33 3.38 14.4
1/28/2021 8:45:00 PM 0.01 32.018 0.12 7.33 3.46 14.39
1/28/2021 9:00:00 PM 0.01 32.018 0.12 7.33 3.35 14.39
1/28/2021 9:15:00 PM 0.01 32.018 0.12 7.33 3.48 14.39
1/28/2021 9:30:00 PM 0.02 32.036 0.12 7.33 3.43 14.38
1/28/2021 9:45:00 PM 0.02 32.036 0.12 7.32 3.49 14.38
1/28/2021 10:00:00 PM 0.01 32.018 0.121 7.32 3.48 14.38
1/28/2021 10:15:00 PM 0.02 32.036 0.121 7.32 3.73 14.37
1/28/2021 10:30:00 PM 0.01 32.018 0.121 7.32 3.41 14.37
1/28/2021 10:45:00 PM 0.02 32.036 0.121 7.32 3.21 14.36
1/28/2021 11:00:00 PM 0.02 32.036 0.121 7.32 3.54 14.36
1/28/2021 11:15:00 PM 0.02 32.036 0.121 7.32 3.35 14.35
1/28/2021 11:30:00 PM 0.02 32.036 0.121 7.32 3.2 14.35
1/28/2021 11:45:00 PM 0.02 32.036 0.121 7.32 3.53 14.34
1/29/2021 12:00:00 AM 0.03 32.054 0.121 7.32 3.49 14.34
1/29/2021 12:15:00 AM 0.02 32.036 0.121 7.32 3.65 14.33
1/29/2021 12:30:00 AM 0.03 32.054 0.121 7.31 3.44 14.33
1/29/2021 12:45:00 AM 0.02 32.036 0.121 7.32 3.5 14.33
1/29/2021 1:00:00 AM 0.02 32.036 0.121 7.32 3.38 14.33
1/29/2021 1:15:00 AM 0.02 32.036 0.121 7.31 3.52 14.32
1/29/2021 1:30:00 AM 0.02 32.036 0.121 7.31 3.7 14.32
1/29/2021 1:45:00 AM 0.03 32.054 0.121 7.31 3.59 14.32
1/29/2021 2:00:00 AM 0.03 32.054 0.121 7.31 3.38 14.32
1/29/2021 2:15:00 AM 0.03 32.054 0.121 7.31 3.5 14.3
1/29/2021 2:30:00 AM 0.03 32.054 0.122 7.31 3.58 14.3
1/29/2021 2:45:00 AM 0.04 32.072 0.122 7.31 3.55 14.29
1/29/2021 3:00:00 AM 0.04 32.072 0.122 7.31 3.36 14.29
1/29/2021 3:15:00 AM 0.04 32.072 0.122 7.31 3.37 14.29
1/29/2021 3:30:00 AM 0.04 32.072 0.122 7.31 3.27 14.29
1/29/2021 3:45:00 AM 0.03 32.054 0.122 7.31 3.48 14.28
1/29/2021 4:00:00 AM 0.04 32.072 0.122 7.31 3.25 14.28
1/29/2021 4:15:00 AM 0.04 32.072 0.122 7.31 3.18 14.29
1/29/2021 4:30:00 AM 0.04 32.072 0.122 7.31 3.51 14.29
1/29/2021 4:45:00 AM 0.04 32.072 0.122 7.31 3.46 14.29
1/29/2021 5:00:00 AM 0.04 32.072 0.122 7.31 3.18 14.27
1/29/2021 5:15:00 AM 0.04 32.072 0.122 7.3 3.46 14.29
1/29/2021 5:30:00 AM 0.03 32.054 0.123 7.31 3.42 14.29
1/29/2021 5:45:00 AM 0.04 32.072 0.123 7.3 3.28 14.29
1/29/2021 6:00:00 AM 0.04 32.072 0.123 7.31 3.17 14.29
1/29/2021 6:15:00 AM 0.04 32.072 0.123 7.3 3.2 14.28
1/29/2021 6:30:00 AM 0.02 32.036 0.123 7.31 3.4 14.33
1/29/2021 6:45:00 AM 0.04 32.072 0.123 7.3 3.35 14.31
1/29/2021 7:00:00 AM 0.04 32.072 0.123 7.3 3.21 14.3
1/29/2021 7:15:00 AM 0.04 32.072 0.124 7.3 3.31 14.29
1/29/2021 7:30:00 AM 0.05 32.09 0.124 7.3 3.22 14.3
1/29/2021 7:45:00 AM 0.04 32.072 0.124 7.31 3.2 14.31
1/29/2021 8:00:00 AM 0.05 32.09 0.124 7.3 3.31 14.32
1/29/2021 8:15:00 AM 0.05 32.09 0.124 7.3 3.37 14.33
1/29/2021 8:30:00 AM 0.06 32.108 0.124 7.3 3.4 14.34
1/29/2021 8:45:00 AM 0.06 32.108 0.124 7.31 3.46 14.38
1/29/2021 9:00:00 AM 0.06 32.108 0.124 7.31 3.34 14.37
1/29/2021 9:15:00 AM 0.06 32.108 0.124 7.31 3.42 14.38
1/29/2021 9:30:00 AM 0.06 32.108 0.124 7.32 3.4 14.4
1/29/2021 9:45:00 AM 0.06 32.108 0.124 7.32 3.43 14.42
1/29/2021 10:00:00 AM 0.06 32.108 0.124 7.33 3.36 14.44
1/29/2021 10:15:00 AM 0.07 32.126 0.124 7.32 3.7 14.43
1/29/2021 10:30:00 AM 0.07 32.126 0.124 7.33 3.74 14.46
1/29/2021 10:45:00 AM 0.07 32.126 0.124 7.33 3.66 14.47
1/29/2021 11:00:00 AM 0.06 32.108 0.124 7.34 3.41 14.49
1/29/2021 11:15:00 AM 0.08 32.144 0.124 7.34 3.64 14.49
1/29/2021 11:30:00 AM 0.07 32.126 0.124 7.35 3.8 14.51
1/29/2021 11:45:00 AM 0.07 32.126 0.124 7.35 3.55 14.51
1/29/2021 12:00:00 PM 0.07 32.126 0.124 7.35 3.71 14.54
1/29/2021 12:15:00 PM 0.06 32.108 0.124 7.36 3.67 14.52
1/29/2021 12:30:00 PM 0.07 32.126 0.124 7.36 3.64 14.53
1/29/2021 12:45:00 PM 0.07 32.126 0.124 7.36 3.66 14.53
1/29/2021 1:00:00 PM 0.07 32.126 0.124 7.36 3.7 14.53
1/29/2021 1:15:00 PM 0.07 32.126 0.124 7.36 3.74 14.54
1/29/2021 1:30:00 PM 0.07 32.126 0.124 7.36 3.77 14.53
1/29/2021 1:45:00 PM 0.07 32.126 0.124 7.37 3.71 14.55
1/29/2021 2:00:00 PM 0.06 32.108 0.124 7.37 3.75 14.56
1/29/2021 2:15:00 PM 0.06 32.108 0.124 7.37 3.57 14.54
1/29/2021 2:30:00 PM 0.07 32.126 0.124 7.37 3.59 14.54
1/29/2021 2:45:00 PM 0.06 32.108 0.124 7.37 3.57 14.55
1/29/2021 3:00:00 PM 0.06 32.108 0.124 7.37 3.77 14.54
1/29/2021 3:15:00 PM 0.06 32.108 0.124 7.37 3.62 14.54
1/29/2021 3:30:00 PM 0.06 32.108 0.124 7.37 3.77 14.55
1/29/2021 3:45:00 PM 0.06 32.108 0.124 7.37 3.54 14.55
1/29/2021 4:00:00 PM 0.06 32.108 0.124 7.37 3.44 14.55
1/29/2021 4:15:00 PM 0.07 32.126 0.124 7.37 3.72 14.53
1/29/2021 4:30:00 PM 0.06 32.108 0.124 7.36 3.52 14.51
1/29/2021 4:45:00 PM 0.05 32.09 0.124 7.36 3.58 14.5
1/29/2021 5:00:00 PM 0.05 32.09 0.124 7.36 3.44 14.5
1/29/2021 5:15:00 PM 0.04 32.072 0.125 7.35 3.39 14.5
1/29/2021 5:30:00 PM 0.04 32.072 0.125 7.35 3.68 14.47
1/29/2021 5:45:00 PM 0.04 32.072 0.125 7.35 3.68 14.46
1/29/2021 6:00:00 PM 0.04 32.072 0.125 7.34 3.75 14.43
1/29/2021 6:15:00 PM 0.05 32.09 0.125 7.34 3.76 14.42
1/29/2021 6:30:00 PM 0.04 32.072 0.125 7.33 3.5 14.4
1/29/2021 6:45:00 PM 0.04 32.072 0.125 7.33 3.61 14.39
1/29/2021 7:00:00 PM 0.04 32.072 0.125 7.32 3.65 14.38
1/29/2021 7:15:00 PM 0.04 32.072 0.126 7.32 3.53 14.37
1/29/2021 7:30:00 PM 0.04 32.072 0.126 7.32 3.67 14.35
1/29/2021 7:45:00 PM 0.04 32.072 0.126 7.31 3.6 14.35
1/29/2021 8:00:00 PM 0.04 32.072 0.126 7.31 3.57 14.35
1/29/2021 8:15:00 PM 0.04 32.072 0.126 7.31 3.51 14.33
1/29/2021 8:30:00 PM 0.04 32.072 0.126 7.3 3.69 14.33
1/29/2021 8:45:00 PM 0.04 32.072 0.126 7.3 3.64 14.32
1/29/2021 9:00:00 PM 0.04 32.072 0.126 7.3 3.52 14.32
1/29/2021 9:15:00 PM 0.05 32.09 0.126 7.29 3.28 14.3
1/29/2021 9:30:00 PM 0.04 32.072 0.127 7.29 3.73 14.3
1/29/2021 9:45:00 PM 0.04 32.072 0.127 7.29 3.54 14.29
1/29/2021 10:00:00 PM 0.04 32.072 0.127 7.29 3.66 14.29
1/29/2021 10:15:00 PM 0.04 32.072 0.127 7.29 3.56 14.28
1/29/2021 10:30:00 PM 0.04 32.072 0.127 7.28 3.46 14.28
1/29/2021 10:45:00 PM 0.04 32.072 0.127 7.28 3.64 14.27
1/29/2021 11:00:00 PM 0.04 32.072 0.127 7.28 3.43 14.27
1/29/2021 11:15:00 PM 0.04 32.072 0.127 7.28 3.53 14.26
1/29/2021 11:30:00 PM 0.04 32.072 0.127 7.27 3.66 14.26
1/29/2021 11:45:00 PM 0.04 32.072 0.127 7.28 3.58 14.26
1/30/2021 12:00:00 AM 0.04 32.072 0.127 7.27 3.63 14.26
1/30/2021 12:15:00 AM 0.04 32.072 0.127 7.27 3.62 14.25
1/30/2021 12:30:00 AM 0.04 32.072 0.127 7.27 3.51 14.25
1/30/2021 12:45:00 AM 0.04 32.072 0.127 7.27 3.53 14.25
1/30/2021 1:00:00 AM 0.04 32.072 0.127 7.27 3.39 14.25
1/30/2021 1:15:00 AM 0.04 32.072 0.127 7.27 3.65 14.24
1/30/2021 1:30:00 AM 0.04 32.072 0.127 7.27 3.47 14.25
1/30/2021 1:45:00 AM 0.04 32.072 0.127 7.27 3.44 14.23
1/30/2021 2:00:00 AM 0.04 32.072 0.127 7.27 3.19 14.24
1/30/2021 2:15:00 AM 0.04 32.072 0.127 7.27 3.55 14.25
1/30/2021 2:30:00 AM 0.03 32.054 0.127 7.27 3.4 14.24
1/30/2021 2:45:00 AM 0.04 32.072 0.127 7.27 3.36 14.23
1/30/2021 3:00:00 AM 0.04 32.072 0.127 7.27 3.36 14.23
1/30/2021 3:15:00 AM 0.04 32.072 0.127 7.26 3.42 14.23
1/30/2021 3:30:00 AM 0.05 32.09 0.127 7.27 3.3 14.23
1/30/2021 3:45:00 AM 0.04 32.072 0.127 7.26 3.36 14.22
1/30/2021 4:00:00 AM 0.05 32.09 0.127 7.26 3.41 14.23
1/30/2021 4:15:00 AM 0.05 32.09 0.127 7.26 3.3 14.23
1/30/2021 4:30:00 AM 0.04 32.072 0.127 7.26 3.23 14.23
1/30/2021 4:45:00 AM 0.04 32.072 0.127 7.26 3.17 14.23
1/30/2021 5:00:00 AM 0.04 32.072 0.127 7.26 3.2 14.23
1/30/2021 5:15:00 AM 0.04 32.072 0.127 7.26 3.4 14.23
1/30/2021 5:30:00 AM 0.04 32.072 0.128 7.26 3.31 14.23
1/30/2021 5:45:00 AM 0.04 32.072 0.128 7.26 3.52 14.23
1/30/2021 6:00:00 AM 0.05 32.09 0.128 7.26 3.26 14.22
1/30/2021 6:15:00 AM 0.04 32.072 0.128 7.26 3.3 14.22
1/30/2021 6:30:00 AM 0.04 32.072 0.128 7.26 3.54 14.22
1/30/2021 6:45:00 AM 0.05 32.09 0.128 7.26 3.38 14.22
1/30/2021 7:00:00 AM 0.04 32.072 0.128 7.26 3.32 14.22
1/30/2021 7:15:00 AM 0.04 32.072 0.128 7.26 3.17 14.23
1/30/2021 7:30:00 AM 0.04 32.072 0.128 7.26 3.4 14.22
1/30/2021 7:45:00 AM 0.04 32.072 0.128 7.26 3.34 14.24
1/30/2021 8:00:00 AM 0.05 32.09 0.128 7.26 3.29 14.25
1/30/2021 8:15:00 AM 0.04 32.072 0.129 7.27 3.23 14.27
1/30/2021 8:30:00 AM 0.04 32.072 0.129 7.27 3.25 14.26
1/30/2021 8:45:00 AM 0.04 32.072 0.129 7.27 3.36 14.28
1/30/2021 9:00:00 AM 0.04 32.072 0.129 7.27 3.27 14.3
1/30/2021 9:15:00 AM 0.04 32.072 0.129 7.28 3.6 14.27
1/30/2021 9:30:00 AM 0.05 32.09 0.129 7.28 3.38 14.29
1/30/2021 9:45:00 AM 0.05 32.09 0.129 7.28 3.67 14.32
1/30/2021 10:00:00 AM 0.04 32.072 0.129 7.29 3.46 14.28
1/30/2021 10:15:00 AM 0.05 32.09 0.129 7.29 3.61 14.33
1/30/2021 10:30:00 AM 0.05 32.09 0.129 7.3 3.47 14.35
1/30/2021 10:45:00 AM 0.05 32.09 0.129 7.3 3.62 14.36
1/30/2021 11:00:00 AM 0.05 32.09 0.129 7.31 3.72 14.39
1/30/2021 11:15:00 AM 0.06 32.108 0.129 7.31 3.44 14.44
1/30/2021 11:30:00 AM 0.06 32.108 0.129 7.31 3.59 14.45
1/30/2021 11:45:00 AM 0.06 32.108 0.128 7.32 3.9 14.45
1/30/2021 12:00:00 PM 0.07 32.126 0.128 7.32 3.5 14.46
1/30/2021 12:15:00 PM 0.06 32.108 0.128 7.33 3.48 14.45
1/30/2021 12:30:00 PM 0.06 32.108 0.128 7.33 3.62 14.48
1/30/2021 12:45:00 PM 0.06 32.108 0.128 7.33 3.81 14.47
1/30/2021 1:00:00 PM 0.07 32.126 0.128 7.33 3.67 14.47
1/30/2021 1:15:00 PM 0.06 32.108 0.128 7.34 3.7 14.46
1/30/2021 1:30:00 PM 0.06 32.108 0.128 7.34 3.9 14.45
1/30/2021 1:45:00 PM 0.07 32.126 0.128 7.34 3.8 14.46
1/30/2021 2:00:00 PM 0.08 32.144 0.128 7.33 3.98 14.46
1/30/2021 2:15:00 PM 0.09 32.162 0.128 7.34 3.86 14.45
1/30/2021 2:30:00 PM 0.09 32.162 0.128 7.34 3.73 14.46
1/30/2021 2:45:00 PM 0.09 32.162 0.128 7.34 3.75 14.46
1/30/2021 3:00:00 PM 0.08 32.144 0.128 7.35 3.61 14.49
1/30/2021 3:15:00 PM 0.08 32.144 0.129 7.35 3.95 14.49
1/30/2021 3:30:00 PM 0.08 32.144 0.129 7.35 3.6 14.49
1/30/2021 3:45:00 PM 0.07 32.126 0.129 7.35 3.59 14.49
1/30/2021 4:00:00 PM 0.07 32.126 0.129 7.35 3.48 14.49
1/30/2021 4:15:00 PM 0.06 32.108 0.129 7.35 3.49 14.47
1/30/2021 4:30:00 PM 0.05 32.09 0.129 7.35 3.56 14.46
1/30/2021 4:45:00 PM 0.04 32.072 0.129 7.35 3.97 14.44
1/30/2021 5:00:00 PM 0.04 32.072 0.13 7.35 3.89 14.42
1/30/2021 5:15:00 PM 0.04 32.072 0.13 7.34 3.4 14.4
1/30/2021 5:30:00 PM 0.02 32.036 0.13 7.34 3.47 14.37
1/30/2021 5:45:00 PM 0.03 32.054 0.13 7.33 3.72 14.38
1/30/2021 6:00:00 PM 0.02 32.036 0.13 7.33 3.56 14.37
1/30/2021 6:15:00 PM 0.02 32.036 0.13 7.33 3.47 14.35
1/30/2021 6:30:00 PM 0.02 32.036 0.13 7.32 3.42 14.35
1/30/2021 6:45:00 PM 0.02 32.036 0.13 7.32 3.51 14.34
1/30/2021 7:00:00 PM 0.02 32.036 0.131 7.32 3.48 14.33
1/30/2021 7:15:00 PM 0.02 32.036 0.131 7.31 3.57 14.32
1/30/2021 7:30:00 PM 0.02 32.036 0.131 7.31 3.56 14.31
1/30/2021 7:45:00 PM 0.02 32.036 0.131 7.31 3.36 14.31
1/30/2021 8:00:00 PM 0.02 32.036 0.131 7.3 3.73 14.3
1/30/2021 8:15:00 PM 0.02 32.036 0.131 7.3 3.46 14.3
1/30/2021 8:30:00 PM 0.02 32.036 0.132 7.3 3.74 14.3
1/30/2021 8:45:00 PM 0.02 32.036 0.132 7.3 3.59 14.3
1/30/2021 9:00:00 PM 0.02 32.036 0.132 7.3 3.5 14.29
1/30/2021 9:15:00 PM 0.02 32.036 0.132 7.29 3.6 14.29
1/30/2021 9:30:00 PM 0.02 32.036 0.132 7.29 3.68 14.28
1/30/2021 9:45:00 PM 0.02 32.036 0.132 7.29 3.63 14.28
1/30/2021 10:00:00 PM 0.02 32.036 0.132 7.29 3.64 14.28
1/30/2021 10:15:00 PM 0.02 32.036 0.133 7.29 3.51 14.28
1/30/2021 10:30:00 PM 0.02 32.036 0.133 7.29 3.43 14.26
1/30/2021 10:45:00 PM 0.02 32.036 0.133 7.28 3.53 14.26
1/30/2021 11:00:00 PM 0.02 32.036 0.133 7.28 3.58 14.26
1/30/2021 11:15:00 PM 0.02 32.036 0.133 7.28 3.44 14.25
1/30/2021 11:30:00 PM 0.02 32.036 0.133 7.28 3.45 14.25
1/30/2021 11:45:00 PM 0.02 32.036 0.133 7.28 3.45 14.25
1/31/2021 12:00:00 AM 0.02 32.036 0.133 7.27 3.63 14.25
1/31/2021 12:15:00 AM 0.03 32.054 0.133 7.27 3.31 14.24
1/31/2021 12:30:00 AM 0.03 32.054 0.133 7.27 3.45 14.23
1/31/2021 12:45:00 AM 0.03 32.054 0.133 7.27 3.61 14.24
1/31/2021 1:00:00 AM 0.03 32.054 0.133 7.27 3.28 14.23
1/31/2021 1:15:00 AM 0.03 32.054 0.133 7.27 3.3 14.22
1/31/2021 1:30:00 AM 0.03 32.054 0.133 7.27 3.35 14.22
1/31/2021 1:45:00 AM 0.03 32.054 0.133 7.26 3.37 14.22
1/31/2021 2:00:00 AM 0.03 32.054 0.133 7.26 3.32 14.22
1/31/2021 2:15:00 AM 0.03 32.054 0.133 7.26 3.22 14.21
1/31/2021 2:30:00 AM 0.03 32.054 0.133 7.26 3.49 14.21
1/31/2021 2:45:00 AM 0.04 32.072 0.133 7.26 3.36 14.2
1/31/2021 3:00:00 AM 0.04 32.072 0.133 7.26 3.42 14.2
1/31/2021 3:15:00 AM 0.03 32.054 0.133 7.26 3.35 14.2
1/31/2021 3:30:00 AM 0.03 32.054 0.133 7.26 3.41 14.2
1/31/2021 3:45:00 AM 0.04 32.072 0.133 7.26 3.39 14.19
1/31/2021 4:00:00 AM 0.04 32.072 0.133 7.26 3.33 14.19
1/31/2021 4:15:00 AM 0.03 32.054 0.133 7.26 3.51 14.2
1/31/2021 4:30:00 AM 0.03 32.054 0.133 7.26 3.43 14.19
1/31/2021 4:45:00 AM 0.04 32.072 0.133 7.26 3.32 14.18
1/31/2021 5:00:00 AM 0.03 32.054 0.133 7.26 3.72 14.17
1/31/2021 5:15:00 AM 0.04 32.072 0.133 7.25 3.56 14.18
1/31/2021 5:30:00 AM 0.04 32.072 0.133 7.26 3.35 14.16
1/31/2021 5:45:00 AM 0.04 32.072 0.132 7.25 3.64 14.16
1/31/2021 6:00:00 AM 0.04 32.072 0.133 7.25 3.29 14.16
1/31/2021 6:15:00 AM 0.04 32.072 0.132 7.25 3.79 14.16
1/31/2021 6:30:00 AM 0.03 32.054 0.133 7.25 3.51 14.15
1/31/2021 6:45:00 AM 0.04 32.072 0.132 7.25 3.49 14.15
1/31/2021 7:00:00 AM 0.04 32.072 0.132 7.25 3.56 14.15
1/31/2021 7:15:00 AM 0.05 32.09 0.132 7.25 3.57 14.15
1/31/2021 7:30:00 AM 0.04 32.072 0.133 7.25 3.55 14.14
1/31/2021 7:45:00 AM 0.04 32.072 0.132 7.25 3.24 14.15
1/31/2021 8:00:00 AM 0.04 32.072 0.133 7.25 3.37 14.14
1/31/2021 8:15:00 AM 0.04 32.072 0.133 7.25 3.25 14.17
1/31/2021 8:30:00 AM 0.04 32.072 0.133 7.26 3.55 14.17
1/31/2021 8:45:00 AM 0.05 32.09 0.132 7.26 3.56 14.19
1/31/2021 9:00:00 AM 0.05 32.09 0.132 7.26 3.04 14.21
1/31/2021 9:15:00 AM 0.05 32.09 0.132 7.26 3.44 14.23
1/31/2021 9:30:00 AM 0.05 32.09 0.133 7.27 3.35 14.24
1/31/2021 9:45:00 AM 0.05 32.09 0.132 7.27 3.41 14.26
1/31/2021 10:00:00 AM 0.05 32.09 0.132 7.27 3.36 14.27
1/31/2021 10:15:00 AM 0.05 32.09 0.132 7.28 3.6 14.28
1/31/2021 10:30:00 AM 0.05 32.09 0.132 7.28 3.41 14.31
1/31/2021 10:45:00 AM 0.06 32.108 0.132 7.28 3.28 14.32
1/31/2021 11:00:00 AM 0.05 32.09 0.132 7.29 3.6 14.34
1/31/2021 11:15:00 AM 0.05 32.09 0.132 7.29 3.46 14.35
1/31/2021 11:30:00 AM 0.06 32.108 0.132 7.3 3.72 14.36
1/31/2021 11:45:00 AM 0.05 32.09 0.132 7.3 3.64 14.37
1/31/2021 12:00:00 PM 0.05 32.09 0.132 7.3 3.43 14.38
1/31/2021 12:15:00 PM 0.05 32.09 0.132 7.31 3.67 14.4
1/31/2021 12:30:00 PM 0.05 32.09 0.132 7.31 3.66 14.4
1/31/2021 12:45:00 PM 0.05 32.09 0.132 7.31 3.71 14.42
1/31/2021 1:00:00 PM 0.05 32.09 0.132 7.31 3.69 14.42
1/31/2021 1:15:00 PM 0.05 32.09 0.132 7.32 3.7 14.42
1/31/2021 1:30:00 PM 0.05 32.09 0.132 7.32 3.71 14.41
1/31/2021 1:45:00 PM 0.04 32.072 0.132 7.32 4.03 14.42
1/31/2021 2:00:00 PM 0.05 32.09 0.132 7.33 4.05 14.43
1/31/2021 2:15:00 PM 0.05 32.09 0.132 7.33 3.79 14.44
1/31/2021 2:30:00 PM 0.05 32.09 0.132 7.33 4 14.44
1/31/2021 2:45:00 PM 0.04 32.072 0.132 7.33 3.72 14.44
1/31/2021 3:00:00 PM 0.04 32.072 0.132 7.33 3.81 14.43
1/31/2021 3:15:00 PM 0.05 32.09 0.132 7.34 3.88 14.44
1/31/2021 3:30:00 PM 0.05 32.09 0.132 7.34 3.98 14.43
1/31/2021 3:45:00 PM 0.05 32.09 0.132 7.34 3.68 14.42
1/31/2021 4:00:00 PM 0.04 32.072 0.132 7.34 3.67 14.42
1/31/2021 4:15:00 PM 0.04 32.072 0.132 7.34 3.44 14.41
1/31/2021 4:30:00 PM 0.05 32.09 0.132 7.33 3.79 14.4
1/31/2021 4:45:00 PM 0.04 32.072 0.132 7.33 3.92 14.39
1/31/2021 5:00:00 PM 0.04 32.072 0.132 7.33 3.88 14.35
1/31/2021 5:15:00 PM 0.04 32.072 0.132 7.32 3.65 14.34
1/31/2021 5:30:00 PM 0.04 32.072 0.132 7.32 3.72 14.32
1/31/2021 5:45:00 PM 0.03 32.054 0.132 7.32 3.91 14.3
1/31/2021 6:00:00 PM 0.04 32.072 0.132 7.31 3.72 14.28
1/31/2021 6:15:00 PM 0.03 32.054 0.132 7.31 3.62 14.25
1/31/2021 6:30:00 PM 0.04 32.072 0.132 7.3 3.85 14.24
1/31/2021 6:45:00 PM 0.04 32.072 0.132 7.3 3.54 14.22
1/31/2021 7:00:00 PM 0.03 32.054 0.133 7.3 3.74 14.2
1/31/2021 7:15:00 PM 0.04 32.072 0.132 7.29 3.62 14.19
1/31/2021 7:30:00 PM 0.04 32.072 0.133 7.29 3.82 14.16
1/31/2021 7:45:00 PM 0.03 32.054 0.133 7.29 3.77 14.16
1/31/2021 8:00:00 PM 0.03 32.054 0.133 7.28 3.7 14.15
1/31/2021 8:15:00 PM 0.03 32.054 0.133 7.28 3.47 14.13
1/31/2021 8:30:00 PM 0.04 32.072 0.133 7.27 3.71 14.13
1/31/2021 8:45:00 PM 0.04 32.072 0.133 7.27 3.63 14.11
1/31/2021 9:00:00 PM 0.04 32.072 0.133 7.27 3.8 14.11
1/31/2021 9:15:00 PM 0.04 32.072 0.133 7.27 3.57 14.1
1/31/2021 9:30:00 PM 0.03 32.054 0.133 7.27 3.44 14.09
1/31/2021 9:45:00 PM 0.03 32.054 0.133 7.26 3.65 14.08
1/31/2021 10:00:00 PM 0.03 32.054 0.133 7.26 3.78 14.07
1/31/2021 10:15:00 PM 0.03 32.054 0.133 7.26 3.39 14.07
1/31/2021 10:30:00 PM 0.03 32.054 0.133 7.26 3.65 14.06
1/31/2021 10:45:00 PM 0.03 32.054 0.133 7.26 3.38 14.07
1/31/2021 11:00:00 PM 0.03 32.054 0.133 7.26 3.54 14.06
1/31/2021 11:15:00 PM 0.03 32.054 0.133 7.25 3.44 14.04
1/31/2021 11:30:00 PM 0.04 32.072 0.133 7.25 3.46 14.04
1/31/2021 11:45:00 PM 0.03 32.054 0.133 7.25 3.83 14.04
2/1/2021 12:00:00 AM 0.03 32.054 0.133 7.25 3.46 14.03
2/1/2021 12:15:00 AM 0.03 32.054 0.133 7.25 3.57 14.03
2/1/2021 12:30:00 AM 0.03 32.054 0.133 7.24 3.55 14.02
2/1/2021 12:45:00 AM 0.04 32.072 0.133 7.24 3.53 14.02
2/1/2021 1:00:00 AM 0.03 32.054 0.133 7.25 3.56 14.03
2/1/2021 1:15:00 AM 0.03 32.054 0.133 7.24 3.52 14.02
2/1/2021 1:30:00 AM 0.03 32.054 0.133 7.24 3.78 14.02
2/1/2021 1:45:00 AM 0.03 32.054 0.133 7.24 3.45 14
2/1/2021 2:00:00 AM 0.03 32.054 0.133 7.24 3.56 14.02
2/1/2021 2:15:00 AM 0.03 32.054 0.133 7.24 3.77 14
2/1/2021 2:30:00 AM 0.03 32.054 0.133 7.24 3.38 14.01
2/1/2021 2:45:00 AM 0.04 32.072 0.133 7.24 3.39 14
2/1/2021 3:00:00 AM 0.04 32.072 0.133 7.23 3.5 14
2/1/2021 3:15:00 AM 0.04 32.072 0.133 7.24 3.46 14
2/1/2021 3:30:00 AM 0.04 32.072 0.133 7.23 3.36 13.99
2/1/2021 3:45:00 AM 0.04 32.072 0.133 7.23 3.52 13.98
2/1/2021 4:00:00 AM 0.03 32.054 0.133 7.23 3.5 13.99
2/1/2021 4:15:00 AM 0.03 32.054 0.133 7.23 3.3 13.99
2/1/2021 4:30:00 AM 0.03 32.054 0.133 7.23 3.63 13.97
2/1/2021 4:45:00 AM 0.03 32.054 0.133 7.23 3.62 13.98
2/1/2021 5:00:00 AM 0.03 32.054 0.133 7.23 3.41 13.98
2/1/2021 5:15:00 AM 0.03 32.054 0.133 7.23 3.5 13.96
2/1/2021 5:30:00 AM 0.04 32.072 0.133 7.23 3.64 13.97
2/1/2021 5:45:00 AM 0.04 32.072 0.133 7.23 3.6 13.96
2/1/2021 6:00:00 AM 0.04 32.072 0.133 7.23 3.64 13.96
2/1/2021 6:15:00 AM 0.03 32.054 0.133 7.23 3.69 13.95
2/1/2021 6:30:00 AM 0.02 32.036 0.133 7.22 3.58 13.95
2/1/2021 6:45:00 AM 0.04 32.072 0.132 7.22 3.5 13.95
2/1/2021 7:00:00 AM 0.03 32.054 0.133 7.22 3.58 13.96
2/1/2021 7:15:00 AM 0.03 32.054 0.133 7.22 3.33 13.94
2/1/2021 7:30:00 AM 0.02 32.036 0.133 7.22 3.42 13.96
2/1/2021 7:45:00 AM 0.04 32.072 0.132 7.22 3.34 13.95
2/1/2021 8:00:00 AM 0.03 32.054 0.132 7.22 3.45 13.96
2/1/2021 8:15:00 AM 0.03 32.054 0.133 7.22 3.66 13.96
2/1/2021 8:30:00 AM 0.04 32.072 0.132 7.22 3.8 13.96
2/1/2021 8:45:00 AM 0.04 32.072 0.132 7.22 3.29 13.98
2/1/2021 9:00:00 AM 0.04 32.072 0.132 7.22 3.72 13.98
2/1/2021 9:15:00 AM 0.05 32.09 0.132 7.22 3.5 13.99
2/1/2021 9:30:00 AM 0.05 32.09 0.132 7.22 3.54 14
2/1/2021 9:45:00 AM 0.05 32.09 0.132 7.23 3.61 14.01
2/1/2021 10:00:00 AM 0.05 32.09 0.132 7.23 3.61 14.01
2/1/2021 10:15:00 AM 0.05 32.09 0.132 7.23 3.66 14.03
2/1/2021 10:30:00 AM 0.05 32.09 0.132 7.24 3.69 14.03
2/1/2021 10:45:00 AM 0.04 32.072 0.132 7.23 3.87 14.06
2/1/2021 11:00:00 AM 0.05 32.09 0.132 7.24 3.85 14.07
2/1/2021 11:15:00 AM 0.05 32.09 0.132 7.24 3.81 14.08
2/1/2021 11:30:00 AM 0.03 32.054 0.132 7.25 4.25 14.09
2/1/2021 11:45:00 AM 0.05 32.09 0.132 7.25 3.62 14.1
2/1/2021 12:00:00 PM 0.05 32.09 0.132 7.25 4.03 14.11
2/1/2021 12:15:00 PM 0.05 32.09 0.132 7.25 3.71 14.1
2/1/2021 12:30:00 PM 0.05 32.09 0.132 7.25 3.81 14.12
2/1/2021 12:45:00 PM 0.05 32.09 0.131 7.26 3.54 14.13
2/1/2021 1:00:00 PM 0.05 32.09 0.131 7.26 3.74 14.13
2/1/2021 1:15:00 PM 0.04 32.072 0.132 7.26 3.65 14.14
2/1/2021 1:30:00 PM 0.04 32.072 0.131 7.26 3.82 14.14
2/1/2021 1:45:00 PM 0.04 32.072 0.131 7.26 3.69 14.15
2/1/2021 2:00:00 PM 0.05 32.09 0.131 7.27 3.67 14.15
2/1/2021 2:15:00 PM 0.05 32.09 0.131 7.27 3.44 14.16
2/1/2021 2:30:00 PM 0.04 32.072 0.131 7.27 3.68 14.15
2/1/2021 2:45:00 PM 0.05 32.09 0.131 7.27 3.6 14.15
2/1/2021 3:00:00 PM 0.04 32.072 0.131 7.27 3.69 14.15
2/1/2021 3:15:00 PM 0.04 32.072 0.131 7.27 3.59 14.15
2/1/2021 3:30:00 PM 0.04 32.072 0.131 7.27 3.42 14.15
2/1/2021 3:45:00 PM 0.05 32.09 0.131 7.27 3.52 14.14
2/1/2021 4:00:00 PM 0.04 32.072 0.131 7.27 3.78 14.13
2/1/2021 4:15:00 PM 0.03 32.054 0.131 7.27 3.64 14.12
2/1/2021 4:30:00 PM 0.04 32.072 0.131 7.27 3.7 14.11
2/1/2021 4:45:00 PM 0.04 32.072 0.131 7.27 3.59 14.09
2/1/2021 5:00:00 PM 0.03 32.054 0.131 7.26 3.63 14.08
2/1/2021 5:15:00 PM 0.02 32.036 0.132 7.26 3.72 14.06
2/1/2021 5:30:00 PM 0.02 32.036 0.132 7.26 3.67 14.05
2/1/2021 5:45:00 PM 0.03 32.054 0.131 7.26 3.74 14.03
2/1/2021 6:00:00 PM 0.02 32.036 0.132 7.25 4.04 14.01
2/1/2021 6:15:00 PM 0.02 32.036 0.132 7.25 3.92 14
2/1/2021 6:30:00 PM 0.02 32.036 0.132 7.24 3.79 13.98
2/1/2021 6:45:00 PM 0.02 32.036 0.132 7.24 3.87 13.96
2/1/2021 7:00:00 PM 0.01 32.018 0.132 7.24 3.61 13.96
2/1/2021 7:15:00 PM 0.02 32.036 0.132 7.23 3.69 13.94
2/1/2021 7:30:00 PM 0.02 32.036 0.132 7.23 3.96 13.92
2/1/2021 7:45:00 PM 0.02 32.036 0.132 7.23 3.66 13.91
2/1/2021 8:00:00 PM 0.02 32.036 0.132 7.22 3.78 13.9
2/1/2021 8:15:00 PM 0.02 32.036 0.132 7.22 3.93 13.89
2/1/2021 8:30:00 PM 0.02 32.036 0.132 7.21 3.95 13.87
2/1/2021 8:45:00 PM 0.01 32.018 0.132 7.21 4.01 13.87
2/1/2021 9:00:00 PM 0.01 32.018 0.132 7.21 3.71 13.86
2/1/2021 9:15:00 PM 0.02 32.036 0.132 7.2 3.82 13.84
2/1/2021 9:30:00 PM 0.01 32.018 0.132 7.2 3.82 13.84
2/1/2021 9:45:00 PM 0.01 32.018 0.132 7.2 3.75 13.83
2/1/2021 10:00:00 PM 0.01 32.018 0.132 7.2 3.6 13.84
2/1/2021 10:15:00 PM 0.01 32.018 0.132 7.19 3.75 13.83
2/1/2021 10:30:00 PM 0.02 32.036 0.132 7.19 3.73 13.81
2/1/2021 10:45:00 PM 0.02 32.036 0.132 7.19 3.81 13.8
2/1/2021 11:00:00 PM 0.02 32.036 0.132 7.19 3.77 13.79
2/1/2021 11:15:00 PM 0.02 32.036 0.132 7.19 3.89 13.78
2/1/2021 11:30:00 PM 0.02 32.036 0.132 7.19 3.74 13.78
2/1/2021 11:45:00 PM 0.02 32.036 0.132 7.19 3.85 13.77
2/2/2021 12:00:00 AM 0.02 32.036 0.132 7.18 4.14 13.76
2/2/2021 12:15:00 AM 0.03 32.054 0.132 7.18 3.68 13.77
2/2/2021 12:30:00 AM 0.03 32.054 0.132 7.18 3.65 13.76
2/2/2021 12:45:00 AM 0.03 32.054 0.132 7.18 3.68 13.75
2/2/2021 1:00:00 AM 0.02 32.036 0.132 7.18 3.77 13.75
2/2/2021 1:15:00 AM 0.02 32.036 0.132 7.18 3.67 13.73
2/2/2021 1:30:00 AM 0.02 32.036 0.132 7.18 3.45 13.74
2/2/2021 1:45:00 AM 0.03 32.054 0.132 7.17 3.72 13.73
2/2/2021 2:00:00 AM 0.02 32.036 0.132 7.18 3.74 13.74
2/2/2021 2:15:00 AM 0.03 32.054 0.132 7.18 3.62 13.73
2/2/2021 2:30:00 AM 0.03 32.054 0.132 7.17 3.79 13.72
2/2/2021 2:45:00 AM 0.03 32.054 0.132 7.18 3.68 13.72
2/2/2021 3:00:00 AM 0.03 32.054 0.132 7.17 3.47 13.71
2/2/2021 3:15:00 AM 0.03 32.054 0.132 7.17 3.77 13.7
2/2/2021 3:30:00 AM 0.03 32.054 0.132 7.17 3.57 13.71
2/2/2021 3:45:00 AM 0.04 32.072 0.131 7.17 3.54 13.69
2/2/2021 4:00:00 AM 0.04 32.072 0.132 7.17 3.65 13.69
2/2/2021 4:15:00 AM 0.04 32.072 0.132 7.17 3.8 13.69
2/2/2021 4:30:00 AM 0.04 32.072 0.131 7.17 3.42 13.69
2/2/2021 4:45:00 AM 0.04 32.072 0.131 7.17 3.66 13.69
2/2/2021 5:00:00 AM 0.04 32.072 0.132 7.17 3.7 13.68
2/2/2021 5:15:00 AM 0.04 32.072 0.131 7.17 3.74 13.68
2/2/2021 5:30:00 AM 0.04 32.072 0.131 7.17 3.46 13.68
2/2/2021 5:45:00 AM 0.03 32.054 0.131 7.17 4 13.68
2/2/2021 6:00:00 AM 0.04 32.072 0.131 7.17 3.78 13.67
2/2/2021 6:15:00 AM 0.04 32.072 0.131 7.16 3.66 13.66
2/2/2021 6:30:00 AM 0.04 32.072 0.131 7.16 3.49 13.66
2/2/2021 6:45:00 AM 0.03 32.054 0.131 7.16 3.6 13.65
2/2/2021 7:00:00 AM 0.03 32.054 0.131 7.16 3.89 13.65
2/2/2021 7:15:00 AM 0.03 32.054 0.131 7.16 3.5 13.66
2/2/2021 7:30:00 AM 0.03 32.054 0.131 7.16 3.76 13.66
2/2/2021 7:45:00 AM 0.02 32.036 0.131 7.16 3.55 13.66
2/2/2021 8:00:00 AM 0.03 32.054 0.131 7.16 3.73 13.65
2/2/2021 8:15:00 AM 0.03 32.054 0.131 7.16 3.67 13.66
2/2/2021 8:30:00 AM 0.03 32.054 0.131 7.16 3.61 13.66
2/2/2021 8:45:00 AM 0.04 32.072 0.131 7.16 3.72 13.67
2/2/2021 9:00:00 AM 0.04 32.072 0.131 7.16 3.8 13.68
2/2/2021 9:15:00 AM 0.05 32.09 0.131 7.16 3.67 13.68
2/2/2021 9:30:00 AM 0.05 32.09 0.131 7.16 3.68 13.69
2/2/2021 9:45:00 AM 0.05 32.09 0.131 7.16 3.76 13.7
2/2/2021 10:00:00 AM 0.05 32.09 0.131 7.16 3.75 13.71
2/2/2021 10:15:00 AM 0.06 32.108 0.131 7.16 3.95 13.72
2/2/2021 10:30:00 AM 0.06 32.108 0.13 7.17 4.04 13.73
2/2/2021 10:45:00 AM 0.06 32.108 0.13 7.17 3.82 13.75
2/2/2021 11:00:00 AM 0.06 32.108 0.13 7.17 3.99 13.77
2/2/2021 11:15:00 AM 0.06 32.108 0.13 7.18 3.98 13.77
2/2/2021 11:30:00 AM 0.06 32.108 0.13 7.18 3.78 13.8
2/2/2021 11:45:00 AM 0.06 32.108 0.13 7.18 3.91 13.8
2/2/2021 12:00:00 PM 0.06 32.108 0.13 7.18 3.97 13.81
2/2/2021 12:15:00 PM 0.05 32.09 0.13 7.19 3.61 13.84
2/2/2021 12:30:00 PM 0.06 32.108 0.13 7.19 3.81 13.82
2/2/2021 12:45:00 PM 0.06 32.108 0.13 7.19 4.07 13.84
2/2/2021 1:00:00 PM 0.06 32.108 0.13 7.19 3.73 13.85
2/2/2021 1:15:00 PM 0.06 32.108 0.13 7.2 3.79 13.8
2/2/2021 1:30:00 PM 0.06 32.108 0.13 7.2 3.7 13.87
2/2/2021 1:45:00 PM 0.06 32.108 0.13 7.2 3.82 13.88
2/2/2021 2:00:00 PM 0.05 32.09 0.13 7.21 4.04 13.88
2/2/2021 2:15:00 PM 0.05 32.09 0.13 7.21 3.71 13.87
2/2/2021 2:30:00 PM 0.05 32.09 0.13 7.21 3.78 13.89
2/2/2021 2:45:00 PM 0.05 32.09 0.13 7.21 4.43 13.9
2/2/2021 3:00:00 PM 0.05 32.09 0.13 7.21 4.1 13.85
2/2/2021 3:15:00 PM 0.05 32.09 0.13 7.21 4.01 13.9
2/2/2021 3:30:00 PM 0.04 32.072 0.13 7.21 4.14 13.88
2/2/2021 3:45:00 PM 0.04 32.072 0.13 7.21 3.88 13.88
2/2/2021 4:00:00 PM 0.04 32.072 0.13 7.21 3.94 13.87
2/2/2021 4:15:00 PM 0.04 32.072 0.13 7.21 3.94 13.84
2/2/2021 4:30:00 PM 0.04 32.072 0.13 7.21 3.92 13.85
2/2/2021 4:45:00 PM 0.03 32.054 0.13 7.21 3.95 13.86
2/2/2021 5:00:00 PM 0.03 32.054 0.13 7.2 3.98 13.82
2/2/2021 5:15:00 PM 0.03 32.054 0.13 7.2 4.01 13.79
2/2/2021 5:30:00 PM 0.03 32.054 0.13 7.2 4.04 13.77
2/2/2021 5:45:00 PM 0.03 32.054 0.13 7.19 3.88 13.77
2/2/2021 6:00:00 PM 0.03 32.054 0.13 7.19 4.02 13.75
2/2/2021 6:15:00 PM 0.03 32.054 0.13 7.18 4 13.73
2/2/2021 6:30:00 PM 0.03 32.054 0.13 7.18 4.02 13.71
2/2/2021 6:45:00 PM 0.03 32.054 0.13 7.18 3.84 13.69
2/2/2021 7:00:00 PM 0.03 32.054 0.13 7.18 4.23 13.68
2/2/2021 7:15:00 PM 0.03 32.054 0.13 7.17 3.89 13.67
2/2/2021 7:30:00 PM 0.03 32.054 0.13 7.17 4.2 13.66
2/2/2021 7:45:00 PM 0.03 32.054 0.13 7.17 3.79 13.65
2/2/2021 8:00:00 PM 0.03 32.054 0.13 7.17 3.91 13.63
2/2/2021 8:15:00 PM 0.03 32.054 0.13 7.16 4.14 13.62
2/2/2021 8:30:00 PM 0.03 32.054 0.13 7.16 3.72 13.62
2/2/2021 8:45:00 PM 0.03 32.054 0.13 7.16 3.85 13.6
2/2/2021 9:00:00 PM 0.03 32.054 0.13 7.16 3.88 13.59
2/2/2021 9:15:00 PM 0.03 32.054 0.13 7.15 3.82 13.58
2/2/2021 9:30:00 PM 0.03 32.054 0.13 7.15 3.84 13.57
2/2/2021 9:45:00 PM 0.03 32.054 0.13 7.15 4.02 13.56
2/2/2021 10:00:00 PM 0.03 32.054 0.13 7.15 3.97 13.56
2/2/2021 10:15:00 PM 0.03 32.054 0.13 7.15 3.8 13.55
2/2/2021 10:30:00 PM 0.02 32.036 0.13 7.15 4.19 13.55
2/2/2021 10:45:00 PM 0.03 32.054 0.13 7.14 4.03 13.55
2/2/2021 11:00:00 PM 0.02 32.036 0.13 7.14 3.98 13.56
2/2/2021 11:15:00 PM 0.02 32.036 0.129 7.14 4.06 13.54
2/2/2021 11:30:00 PM 0.02 32.036 0.129 7.14 3.77 13.55
2/2/2021 11:45:00 PM 0.02 32.036 0.129 7.14 3.86 13.54
2/3/2021 12:00:00 AM 0.02 32.036 0.129 7.14 4.02 13.54
2/3/2021 12:15:00 AM 0.02 32.036 0.129 7.14 3.83 13.54
2/3/2021 12:30:00 AM 0.02 32.036 0.129 7.14 3.91 13.54
2/3/2021 12:45:00 AM 0.02 32.036 0.129 7.13 3.88 13.54
2/3/2021 1:00:00 AM 0.02 32.036 0.129 7.14 3.92 13.54
2/3/2021 1:15:00 AM 0.02 32.036 0.129 7.13 3.88 13.54
2/3/2021 1:30:00 AM 0.02 32.036 0.129 7.13 3.97 13.54
2/3/2021 1:45:00 AM 0.02 32.036 0.129 7.13 4 13.54
2/3/2021 2:00:00 AM 0.02 32.036 0.129 7.13 3.94 13.54
2/3/2021 2:15:00 AM 0.02 32.036 0.129 7.13 3.97 13.53
2/3/2021 2:30:00 AM 0.02 32.036 0.129 7.13 3.91 13.53
2/3/2021 2:45:00 AM 0.02 32.036 0.129 7.13 4.09 13.53
2/3/2021 3:00:00 AM 0.02 32.036 0.129 7.13 3.97 13.53
2/3/2021 3:15:00 AM 0.02 32.036 0.129 7.13 3.93 13.54
2/3/2021 3:30:00 AM 0.03 32.054 0.129 7.13 4.06 13.52
2/3/2021 3:45:00 AM 0.02 32.036 0.129 7.13 4.07 13.52
2/3/2021 4:00:00 AM 0.03 32.054 0.129 7.13 4.18 13.53
2/3/2021 4:15:00 AM 0.03 32.054 0.129 7.13 4.13 13.52
2/3/2021 4:30:00 AM 0.03 32.054 0.129 7.13 4.16 13.52
2/3/2021 4:45:00 AM 0.03 32.054 0.129 7.13 4.13 13.53
2/3/2021 5:00:00 AM 0.03 32.054 0.129 7.13 4.05 13.53
2/3/2021 5:15:00 AM 0.03 32.054 0.129 7.13 4.29 13.52
2/3/2021 5:30:00 AM 0.03 32.054 0.129 7.13 4.27 13.54
2/3/2021 5:45:00 AM 0.03 32.054 0.129 7.13 3.95 13.53
2/3/2021 6:00:00 AM 0.02 32.036 0.129 7.13 4.02 13.53
2/3/2021 6:15:00 AM 0.03 32.054 0.129 7.13 4.58 13.54
2/3/2021 6:30:00 AM 0.03 32.054 0.129 7.13 4.12 13.53
2/3/2021 6:45:00 AM 0.03 32.054 0.129 7.13 3.97 13.54
2/3/2021 7:00:00 AM 0.02 32.036 0.129 7.13 4.09 13.53
2/3/2021 7:15:00 AM 0.03 32.054 0.129 7.13 3.98 13.53
2/3/2021 7:30:00 AM 0.03 32.054 0.129 7.13 4.28 13.55
2/3/2021 7:45:00 AM 0.03 32.054 0.129 7.13 4.18 13.56
2/3/2021 8:00:00 AM 0.03 32.054 0.129 7.13 4.09 13.57
2/3/2021 8:15:00 AM 0.03 32.054 0.129 7.13 4.09 13.57
2/3/2021 8:30:00 AM 0.03 32.054 0.129 7.13 4.39 13.59
2/3/2021 8:45:00 AM 0.04 32.072 0.129 7.13 4.01 13.6
2/3/2021 9:00:00 AM 0.03 32.054 0.129 7.13 4.09 13.62
2/3/2021 9:15:00 AM 0.04 32.072 0.129 7.14 4.04 13.63
2/3/2021 9:30:00 AM 0.04 32.072 0.129 7.14 4.54 13.64
2/3/2021 9:45:00 AM 0.04 32.072 0.129 7.14 4.47 13.66
2/3/2021 10:00:00 AM 0.04 32.072 0.129 7.14 4.17 13.66
2/3/2021 10:15:00 AM 0.04 32.072 0.129 7.15 4.47 13.69
2/3/2021 10:30:00 AM 0.04 32.072 0.129 7.15 4.35 13.7
2/3/2021 10:45:00 AM 0.04 32.072 0.129 7.15 4.32 13.72
2/3/2021 11:00:00 AM 0.03 32.054 0.129 7.16 4.51 13.74
2/3/2021 11:15:00 AM 0.03 32.054 0.129 7.16 4.48 13.76
2/3/2021 11:30:00 AM 0.03 32.054 0.128 7.16 4.29 13.78
2/3/2021 11:45:00 AM 0.03 32.054 0.128 7.17 4.25 13.8
2/3/2021 12:00:00 PM 0.03 32.054 0.128 7.17 4.3 13.81
2/3/2021 12:15:00 PM 0.04 32.072 0.128 7.17 4.23 13.82
2/3/2021 12:30:00 PM 0.03 32.054 0.128 7.18 4.32 13.83
2/3/2021 12:45:00 PM 0.03 32.054 0.128 7.18 4.5 13.83
2/3/2021 1:00:00 PM 0.03 32.054 0.128 7.18 4.45 13.86
2/3/2021 1:15:00 PM 0.04 32.072 0.128 7.19 4.15 13.86
2/3/2021 1:30:00 PM 0.06 32.108 0.128 7.19 4.2 13.83
2/3/2021 1:45:00 PM 0.05 32.09 0.128 7.18 4.23 13.84
2/3/2021 2:00:00 PM 0.04 32.072 0.128 7.18 4.56 13.83
2/3/2021 2:15:00 PM 0.04 32.072 0.128 7.18 4.63 13.84
2/3/2021 2:30:00 PM 0.04 32.072 0.128 7.18 4.46 13.84
2/3/2021 2:45:00 PM 0.04 32.072 0.127 7.18 4.38 13.84
2/3/2021 3:00:00 PM 0.04 32.072 0.127 7.18 4.55 13.83
2/3/2021 3:15:00 PM 0.05 32.09 0.127 7.18 4.32 13.82
2/3/2021 3:30:00 PM 0.05 32.09 0.127 7.18 4.29 13.82
2/3/2021 3:45:00 PM 0.05 32.09 0.127 7.18 4.37 13.82
2/3/2021 4:00:00 PM 0.04 32.072 0.127 7.18 4.46 13.82
2/3/2021 4:15:00 PM 0.05 32.09 0.127 7.18 4.41 13.82
2/3/2021 4:30:00 PM 0.05 32.09 0.127 7.18 4.11 13.82
2/3/2021 4:45:00 PM 0.04 32.072 0.127 7.18 4.27 13.8
2/3/2021 5:00:00 PM 0.04 32.072 0.127 7.17 4.39 13.79
2/3/2021 5:15:00 PM 0.04 32.072 0.127 7.17 4.02 13.76
2/3/2021 5:30:00 PM 0.04 32.072 0.127 7.17 4.19 13.74
2/3/2021 5:45:00 PM 0.04 32.072 0.127 7.16 4.49 13.74
2/3/2021 6:00:00 PM 0.05 32.09 0.127 7.16 4.18 13.72
2/3/2021 6:15:00 PM 0.05 32.09 0.127 7.16 4.24 13.71
2/3/2021 6:30:00 PM 0.04 32.072 0.126 7.15 4.17 13.7
2/3/2021 6:45:00 PM 0.04 32.072 0.126 7.15 4.43 13.68
2/3/2021 7:00:00 PM 0.04 32.072 0.126 7.15 4.62 13.69
2/3/2021 7:15:00 PM 0.05 32.09 0.126 7.15 4.12 13.67
2/3/2021 7:30:00 PM 0.05 32.09 0.126 7.15 4.34 13.66
2/3/2021 7:45:00 PM 0.05 32.09 0.126 7.14 4.16 13.66
2/3/2021 8:00:00 PM 0.05 32.09 0.126 7.14 4.38 13.66
2/3/2021 8:15:00 PM 0.04 32.072 0.126 7.14 4.2 13.66
2/3/2021 8:30:00 PM 0.05 32.09 0.126 7.14 4.08 13.65
2/3/2021 8:45:00 PM 0.05 32.09 0.126 7.14 4.09 13.65
2/3/2021 9:00:00 PM 0.04 32.072 0.126 7.14 4.37 13.65
2/3/2021 9:15:00 PM 0.05 32.09 0.126 7.14 4.24 13.64
2/3/2021 9:30:00 PM 0.04 32.072 0.126 7.14 4.03 13.62
2/3/2021 9:45:00 PM 0.04 32.072 0.126 7.14 4.23 13.65
2/3/2021 10:00:00 PM 0.04 32.072 0.126 7.14 4.18 13.65
2/3/2021 10:15:00 PM 0.03 32.054 0.126 7.14 4.24 13.65
2/3/2021 10:30:00 PM 0.03 32.054 0.126 7.14 3.97 13.66
2/3/2021 10:45:00 PM 0.04 32.072 0.126 7.14 4.15 13.66
2/3/2021 11:00:00 PM 0.03 32.054 0.126 7.14 4.23 13.66
2/3/2021 11:15:00 PM 0.03 32.054 0.126 7.14 4.14 13.67
2/3/2021 11:30:00 PM 0.04 32.072 0.126 7.14 4.04 13.67
2/3/2021 11:45:00 PM 0.04 32.072 0.126 7.14 4.13 13.65
2/4/2021 12:00:00 AM 0.04 32.072 0.126 7.14 3.96 13.67
2/4/2021 12:15:00 AM 0.03 32.054 0.126 7.14 4.04 13.67
2/4/2021 12:30:00 AM 0.03 32.054 0.126 7.14 4.03 13.67
2/4/2021 12:45:00 AM 0.03 32.054 0.126 7.14 4.33 13.68
2/4/2021 1:00:00 AM 0.04 32.072 0.126 7.14 3.9 13.68
2/4/2021 1:15:00 AM 0.04 32.072 0.126 7.14 4.26 13.68
2/4/2021 1:30:00 AM 0.03 32.054 0.126 7.14 3.88 13.68
2/4/2021 1:45:00 AM 0.04 32.072 0.126 7.14 4.39 13.68
2/4/2021 2:00:00 AM 0.04 32.072 0.126 7.14 4.05 13.69
2/4/2021 2:15:00 AM 0.04 32.072 0.126 7.14 4.07 13.69
2/4/2021 2:30:00 AM 0.04 32.072 0.126 7.14 4.02 13.7
2/4/2021 2:45:00 AM 0.04 32.072 0.126 7.14 4.03 13.69
2/4/2021 3:00:00 AM 0.04 32.072 0.126 7.14 4.12 13.71
2/4/2021 3:15:00 AM 0.04 32.072 0.126 7.14 3.97 13.7
2/4/2021 3:30:00 AM 0.04 32.072 0.126 7.14 4.06 13.71
2/4/2021 3:45:00 AM 0.04 32.072 0.126 7.14 4.02 13.71
2/4/2021 4:00:00 AM 0.04 32.072 0.126 7.14 3.96 13.71
2/4/2021 4:15:00 AM 0.04 32.072 0.126 7.14 4.22 13.7
2/4/2021 4:30:00 AM 0.03 32.054 0.126 7.14 3.98 13.72
2/4/2021 4:45:00 AM 0.04 32.072 0.126 7.14 4.04 13.72
2/4/2021 5:00:00 AM 0.04 32.072 0.126 7.15 4.18 13.72
2/4/2021 5:15:00 AM 0.04 32.072 0.126 7.14 4.35 13.72
2/4/2021 5:30:00 AM 0.03 32.054 0.126 7.14 4.12 13.73
2/4/2021 5:45:00 AM 0.04 32.072 0.126 7.14 4.12 13.73
2/4/2021 6:00:00 AM 0.04 32.072 0.126 7.15 4.13 13.74
2/4/2021 6:15:00 AM 0.04 32.072 0.126 7.14 4.12 13.73
2/4/2021 6:30:00 AM 0.04 32.072 0.126 7.15 4.11 13.75
2/4/2021 6:45:00 AM 0.04 32.072 0.126 7.15 4.24 13.75
2/4/2021 7:00:00 AM 0.03 32.054 0.126 7.15 4.05 13.76
2/4/2021 7:15:00 AM 0.03 32.054 0.125 7.15 4.11 13.76
2/4/2021 7:30:00 AM 0.03 32.054 0.126 7.15 4.16 13.77
2/4/2021 7:45:00 AM 0.03 32.054 0.126 7.15 4.19 13.77
2/4/2021 8:00:00 AM 0.03 32.054 0.126 7.15 4.2 13.78
2/4/2021 8:15:00 AM 0.03 32.054 0.126 7.15 4.28 13.79
2/4/2021 8:30:00 AM 0.03 32.054 0.126 7.15 4.15 13.81
2/4/2021 8:45:00 AM 0.03 32.054 0.126 7.15 4.23 13.81
2/4/2021 9:00:00 AM 0.04 32.072 0.125 7.16 4.23 13.84
2/4/2021 9:15:00 AM 0.05 32.09 0.125 7.16 4.12 13.85
2/4/2021 9:30:00 AM 0.05 32.09 0.125 7.16 4.34 13.88
2/4/2021 9:45:00 AM 0.05 32.09 0.125 7.17 4.24 13.88
2/4/2021 10:00:00 AM 0.06 32.108 0.125 7.17 4.45 13.9
2/4/2021 10:15:00 AM 0.06 32.108 0.125 7.17 4.66 13.91
2/4/2021 10:30:00 AM 0.06 32.108 0.125 7.18 4.36 13.92
2/4/2021 10:45:00 AM 0.08 32.144 0.125 7.18 4.23 13.94
2/4/2021 11:00:00 AM 0.08 32.144 0.125 7.18 4.44 13.95
2/4/2021 11:15:00 AM 0.08 32.144 0.125 7.19 4.47 13.98
2/4/2021 11:30:00 AM 0.1 32.18 0.125 7.19 4.54 13.98
2/4/2021 11:45:00 AM 0.1 32.18 0.125 7.2 4.41 13.98
2/4/2021 12:00:00 PM 0.1 32.18 0.125 7.2 4.61 14.02
2/4/2021 12:15:00 PM 0.11 32.198 0.125 7.2 4.61 14.02
2/4/2021 12:30:00 PM 0.11 32.198 0.125 7.21 4.2 14.03
2/4/2021 12:45:00 PM 0.1 32.18 0.125 7.21 4.64 14.04
2/4/2021 1:00:00 PM 0.11 32.198 0.125 7.21 4.43 14.05
2/4/2021 1:15:00 PM 0.11 32.198 0.124 7.22 4.45 14.08
2/4/2021 1:30:00 PM 0.11 32.198 0.124 7.22 4.43 14.06
2/4/2021 1:45:00 PM 0.11 32.198 0.124 7.22 4.53 14.06
2/4/2021 2:00:00 PM 0.11 32.198 0.124 7.22 4.61 14.06
2/4/2021 2:15:00 PM 0.11 32.198 0.124 7.22 4.86 14.07
2/4/2021 2:30:00 PM 0.1 32.18 0.124 7.22 4.53 14.07
2/4/2021 2:45:00 PM 0.08 32.144 0.124 7.23 4.6 14.06
2/4/2021 3:00:00 PM 0.1 32.18 0.124 7.22 4.49 14.06
2/4/2021 3:15:00 PM 0.09 32.162 0.124 7.23 4.64 14.06
2/4/2021 3:30:00 PM 0.09 32.162 0.124 7.23 4.29 14.06
2/4/2021 3:45:00 PM 0.07 32.126 0.124 7.22 4.61 14.05
2/4/2021 4:00:00 PM 0.08 32.144 0.124 7.22 4.55 14.04
2/4/2021 4:15:00 PM 0.07 32.126 0.124 7.22 4.34 14.03
2/4/2021 4:30:00 PM 0.05 32.09 0.124 7.22 4.28 14.02
2/4/2021 4:45:00 PM 0.06 32.108 0.124 7.22 4.54 14.01
2/4/2021 5:00:00 PM 0.06 32.108 0.124 7.21 4.5 14
2/4/2021 5:15:00 PM 0.05 32.09 0.124 7.21 4.62 13.97
2/4/2021 5:30:00 PM 0.05 32.09 0.124 7.21 4.46 13.95
2/4/2021 5:45:00 PM 0.04 32.072 0.124 7.2 4.24 13.95
2/4/2021 6:00:00 PM 0.04 32.072 0.125 7.2 4.46 13.93
2/4/2021 6:15:00 PM 0.04 32.072 0.125 7.2 4.29 13.92
2/4/2021 6:30:00 PM 0.04 32.072 0.125 7.2 4.38 13.92
2/4/2021 6:45:00 PM 0.04 32.072 0.125 7.2 4.25 13.9
2/4/2021 7:00:00 PM 0.04 32.072 0.125 7.19 4.21 13.9
2/4/2021 7:15:00 PM 0.03 32.054 0.125 7.19 4.26 13.89
2/4/2021 7:30:00 PM 0.04 32.072 0.125 7.19 4.25 13.88
2/4/2021 7:45:00 PM 0.03 32.054 0.125 7.19 4.18 13.89
2/4/2021 8:00:00 PM 0.02 32.036 0.125 7.19 4.43 13.86
2/4/2021 8:15:00 PM 0.03 32.054 0.125 7.19 4.16 13.83
2/4/2021 8:30:00 PM 0.04 32.072 0.125 7.18 4.17 13.84
2/4/2021 8:45:00 PM 0.04 32.072 0.125 7.18 4.47 13.86
2/4/2021 9:00:00 PM 0.03 32.054 0.126 7.18 4.29 13.86
2/4/2021 9:15:00 PM 0.04 32.072 0.126 7.18 4.31 13.85
2/4/2021 9:30:00 PM 0.04 32.072 0.126 7.18 4.4 13.82
2/4/2021 9:45:00 PM 0.04 32.072 0.126 7.18 4.3 13.85
2/4/2021 10:00:00 PM 0.03 32.054 0.127 7.18 4.1 13.84
2/4/2021 10:15:00 PM 0.04 32.072 0.127 7.18 4.16 13.84
2/4/2021 10:30:00 PM 0.04 32.072 0.127 7.18 4.12 13.85
2/4/2021 10:45:00 PM 0.03 32.054 0.128 7.18 4.16 13.84
2/4/2021 11:00:00 PM 0.04 32.072 0.128 7.18 4.2 13.84
2/4/2021 11:15:00 PM 0.03 32.054 0.129 7.18 4.07 13.84
2/4/2021 11:30:00 PM 0.04 32.072 0.129 7.18 3.89 13.83
2/4/2021 11:45:00 PM 0.04 32.072 0.129 7.18 4.06 13.83
2/5/2021 12:00:00 AM 0.05 32.09 0.129 7.18 4.05 13.82
2/5/2021 12:15:00 AM 0.05 32.09 0.13 7.17 4.06 13.81
2/5/2021 12:30:00 AM 0.05 32.09 0.13 7.18 4.01 13.82
2/5/2021 12:45:00 AM 0.05 32.09 0.13 7.18 4.15 13.82
2/5/2021 1:00:00 AM 0.04 32.072 0.13 7.18 4.02 13.81
2/5/2021 1:15:00 AM 0.05 32.09 0.13 7.18 4.23 13.81
2/5/2021 1:30:00 AM 0.05 32.09 0.13 7.18 4.03 13.81
2/5/2021 1:45:00 AM 0.05 32.09 0.13 7.18 4.26 13.82
2/5/2021 2:00:00 AM 0.05 32.09 0.13 7.18 4.16 13.81
2/5/2021 2:15:00 AM 0.06 32.108 0.13 7.18 4.06 13.8
2/5/2021 2:30:00 AM 0.05 32.09 0.13 7.18 4.11 13.82
2/5/2021 2:45:00 AM 0.06 32.108 0.13 7.18 3.99 13.8
2/5/2021 3:00:00 AM 0.05 32.09 0.13 7.18 4.08 13.8
2/5/2021 3:15:00 AM 0.06 32.108 0.13 7.18 3.97 13.79
2/5/2021 3:30:00 AM 0.06 32.108 0.13 7.18 4.11 13.79
2/5/2021 3:45:00 AM 0.05 32.09 0.13 7.18 4.1 13.78
2/5/2021 4:00:00 AM 0.06 32.108 0.13 7.18 4.05 13.78
2/5/2021 4:15:00 AM 0.06 32.108 0.129 7.18 4.16 13.78
2/5/2021 4:30:00 AM 0.06 32.108 0.129 7.18 4.17 13.76
2/5/2021 4:45:00 AM 0.06 32.108 0.129 7.18 3.98 13.73
2/5/2021 5:00:00 AM 0.07 32.126 0.129 7.18 3.99 13.77
2/5/2021 5:15:00 AM 0.06 32.108 0.129 7.18 4.05 13.76
2/5/2021 5:30:00 AM 0.06 32.108 0.129 7.18 4.08 13.77
2/5/2021 5:45:00 AM 0.06 32.108 0.129 7.18 4.17 13.76
2/5/2021 6:00:00 AM 0.06 32.108 0.129 7.19 4.03 13.76
2/5/2021 6:15:00 AM 0.05 32.09 0.129 7.18 4.17 13.77
2/5/2021 6:30:00 AM 0.06 32.108 0.129 7.19 4.02 13.76
2/5/2021 6:45:00 AM 0.06 32.108 0.129 7.19 4.08 13.76
2/5/2021 7:00:00 AM 0.06 32.108 0.129 7.19 4.03 13.75
2/5/2021 7:15:00 AM 0.06 32.108 0.129 7.18 4.18 13.77
2/5/2021 7:30:00 AM 0.06 32.108 0.129 7.19 4.11 13.75
2/5/2021 7:45:00 AM 0.07 32.126 0.129 7.19 4.19 13.78
2/5/2021 8:00:00 AM 0.07 32.126 0.129 7.19 4.18 13.79
2/5/2021 8:15:00 AM 0.06 32.108 0.129 7.19 4.2 13.79
2/5/2021 8:30:00 AM 0.06 32.108 0.129 7.2 4.08 13.81
2/5/2021 8:45:00 AM 0.08 32.144 0.129 7.2 4.23 13.84
2/5/2021 9:00:00 AM 0.08 32.144 0.129 7.2 4.1 13.84
2/5/2021 9:15:00 AM 0.09 32.162 0.129 7.2 4.02 13.87
2/5/2021 9:30:00 AM 0.09 32.162 0.129 7.21 4.07 13.88
2/5/2021 9:45:00 AM 0.09 32.162 0.129 7.21 4.31 13.9
2/5/2021 10:00:00 AM 0.09 32.162 0.129 7.21 4.22 13.91
2/5/2021 10:15:00 AM 0.1 32.18 0.129 7.22 4.22 13.93
2/5/2021 10:30:00 AM 0.11 32.198